<?xml version="1.0" encoding="UTF-8" standalone="no" ?>
<gpx xmlns="http://www.topografix.com/GPX/1/1" xmlns:xsi="http://www.w3.org/2001/XMLSchema-instance" xsi:schemaLocation="http://www.topografix.com/GPX/1/1 http://www.topografix.com/GPX/1/1/gpx.xsd" version="1.1" creator="VisuGPX - https://www.visugpx.com">
  <metadata>
    <name>OverCross au nord de Clermont-Fd</name>
    <desc><![CDATA[Parcours typé enduro.
25 kms, 1150m D , avec de belles descentes.]]></desc>
  </metadata>
  <trk>
    <name><![CDATA[2012-02-11-12-59-36 on GPSies.com]]></name>
    <trkseg>
      <trkpt lat="45.80032" lon="3.06922">
        <ele>607.055</ele>
        <time>2012-02-11T12:59:36Z</time>
      </trkpt>
      <trkpt lat="45.80022" lon="3.06911">
        <ele>605.573</ele>
        <time>2012-02-11T13:00:15Z</time>
      </trkpt>
      <trkpt lat="45.8002" lon="3.0691">
        <ele>604.426</ele>
        <time>2012-02-11T13:00:19Z</time>
      </trkpt>
      <trkpt lat="45.80018" lon="3.0691">
        <ele>603.622</ele>
        <time>2012-02-11T13:00:23Z</time>
      </trkpt>
      <trkpt lat="45.80016" lon="3.06929">
        <ele>601.396</ele>
        <time>2012-02-11T13:00:30Z</time>
      </trkpt>
      <trkpt lat="45.80022" lon="3.06953">
        <ele>595.799</ele>
        <time>2012-02-11T13:00:35Z</time>
      </trkpt>
      <trkpt lat="45.80023" lon="3.06956">
        <ele>593.55</ele>
        <time>2012-02-11T13:00:39Z</time>
      </trkpt>
      <trkpt lat="45.8002" lon="3.06953">
        <ele>592.067</ele>
        <time>2012-02-11T13:00:46Z</time>
      </trkpt>
      <trkpt lat="45.80013" lon="3.06953">
        <ele>590.665</ele>
        <time>2012-02-11T13:00:49Z</time>
      </trkpt>
      <trkpt lat="45.80012" lon="3.06962">
        <ele>588.495</ele>
        <time>2012-02-11T13:00:52Z</time>
      </trkpt>
      <trkpt lat="45.80006" lon="3.06973">
        <ele>584.648</ele>
        <time>2012-02-11T13:00:56Z</time>
      </trkpt>
      <trkpt lat="45.80004" lon="3.06978">
        <ele>581.985</ele>
        <time>2012-02-11T13:00:59Z</time>
      </trkpt>
      <trkpt lat="45.80004" lon="3.06978">
        <ele>581.295</ele>
        <time>2012-02-11T13:01:00Z</time>
      </trkpt>
      <trkpt lat="45.79996" lon="3.06985">
        <ele>578.55</ele>
        <time>2012-02-11T13:01:06Z</time>
      </trkpt>
      <trkpt lat="45.79992" lon="3.06989">
        <ele>577.676</ele>
        <time>2012-02-11T13:01:07Z</time>
      </trkpt>
      <trkpt lat="45.79969" lon="3.07008">
        <ele>570.574</ele>
        <time>2012-02-11T13:01:11Z</time>
      </trkpt>
      <trkpt lat="45.79966" lon="3.0701">
        <ele>568.75</ele>
        <time>2012-02-11T13:01:12Z</time>
      </trkpt>
      <trkpt lat="45.79954" lon="3.07021">
        <ele>561.529</ele>
        <time>2012-02-11T13:01:16Z</time>
      </trkpt>
      <trkpt lat="45.79942" lon="3.0703">
        <ele>553.635</ele>
        <time>2012-02-11T13:01:21Z</time>
      </trkpt>
      <trkpt lat="45.79941" lon="3.0704">
        <ele>550.907</ele>
        <time>2012-02-11T13:01:23Z</time>
      </trkpt>
      <trkpt lat="45.7994" lon="3.07052">
        <ele>548.067</ele>
        <time>2012-02-11T13:01:25Z</time>
      </trkpt>
      <trkpt lat="45.79936" lon="3.07064">
        <ele>544.929</ele>
        <time>2012-02-11T13:01:27Z</time>
      </trkpt>
      <trkpt lat="45.79919" lon="3.07082">
        <ele>539.372</ele>
        <time>2012-02-11T13:01:30Z</time>
      </trkpt>
      <trkpt lat="45.79911" lon="3.07086">
        <ele>539.375</ele>
        <time>2012-02-11T13:01:31Z</time>
      </trkpt>
      <trkpt lat="45.79883" lon="3.07091">
        <ele>530.433</ele>
        <time>2012-02-11T13:01:35Z</time>
      </trkpt>
      <trkpt lat="45.79878" lon="3.0709">
        <ele>528.29</ele>
        <time>2012-02-11T13:01:36Z</time>
      </trkpt>
      <trkpt lat="45.79845" lon="3.07091">
        <ele>517.37</ele>
        <time>2012-02-11T13:01:41Z</time>
      </trkpt>
      <trkpt lat="45.79829" lon="3.07093">
        <ele>509.866</ele>
        <time>2012-02-11T13:01:45Z</time>
      </trkpt>
      <trkpt lat="45.79828" lon="3.07093">
        <ele>506.572</ele>
        <time>2012-02-11T13:01:49Z</time>
      </trkpt>
      <trkpt lat="45.79828" lon="3.07093">
        <ele>506.308</ele>
        <time>2012-02-11T13:01:50Z</time>
      </trkpt>
      <trkpt lat="45.79833" lon="3.07095">
        <ele>508.912</ele>
        <time>2012-02-11T13:04:48Z</time>
      </trkpt>
      <trkpt lat="45.79833" lon="3.07095">
        <ele>509.159</ele>
        <time>2012-02-11T13:04:49Z</time>
      </trkpt>
      <trkpt lat="45.79841" lon="3.07095">
        <ele>511.594</ele>
        <time>2012-02-11T13:04:59Z</time>
      </trkpt>
      <trkpt lat="45.79846" lon="3.07095">
        <ele>513.011</ele>
        <time>2012-02-11T13:05:06Z</time>
      </trkpt>
      <trkpt lat="45.79854" lon="3.07093">
        <ele>515.538</ele>
        <time>2012-02-11T13:05:16Z</time>
      </trkpt>
      <trkpt lat="45.7986" lon="3.07094">
        <ele>517.943</ele>
        <time>2012-02-11T13:05:25Z</time>
      </trkpt>
      <trkpt lat="45.79865" lon="3.07095">
        <ele>519.491</ele>
        <time>2012-02-11T13:05:32Z</time>
      </trkpt>
      <trkpt lat="45.79871" lon="3.07094">
        <ele>521.747</ele>
        <time>2012-02-11T13:05:41Z</time>
      </trkpt>
      <trkpt lat="45.79877" lon="3.07094">
        <ele>523.491</ele>
        <time>2012-02-11T13:05:49Z</time>
      </trkpt>
      <trkpt lat="45.79884" lon="3.07094">
        <ele>526.27</ele>
        <time>2012-02-11T13:05:59Z</time>
      </trkpt>
      <trkpt lat="45.79892" lon="3.07095">
        <ele>528.719</ele>
        <time>2012-02-11T13:06:09Z</time>
      </trkpt>
      <trkpt lat="45.79898" lon="3.07093">
        <ele>530.877</ele>
        <time>2012-02-11T13:06:18Z</time>
      </trkpt>
      <trkpt lat="45.79904" lon="3.07091">
        <ele>533.109</ele>
        <time>2012-02-11T13:06:27Z</time>
      </trkpt>
      <trkpt lat="45.7991" lon="3.07087">
        <ele>534.774</ele>
        <time>2012-02-11T13:06:37Z</time>
      </trkpt>
      <trkpt lat="45.79917" lon="3.07084">
        <ele>537.563</ele>
        <time>2012-02-11T13:06:48Z</time>
      </trkpt>
      <trkpt lat="45.79924" lon="3.07082">
        <ele>540.088</ele>
        <time>2012-02-11T13:06:58Z</time>
      </trkpt>
      <trkpt lat="45.79928" lon="3.07076">
        <ele>542.09</ele>
        <time>2012-02-11T13:07:06Z</time>
      </trkpt>
      <trkpt lat="45.79932" lon="3.07068">
        <ele>543.85</ele>
        <time>2012-02-11T13:07:16Z</time>
      </trkpt>
      <trkpt lat="45.79935" lon="3.07062">
        <ele>545.038</ele>
        <time>2012-02-11T13:07:26Z</time>
      </trkpt>
      <trkpt lat="45.79936" lon="3.07057">
        <ele>547.008</ele>
        <time>2012-02-11T13:07:32Z</time>
      </trkpt>
      <trkpt lat="45.79937" lon="3.07053">
        <ele>548.192</ele>
        <time>2012-02-11T13:07:38Z</time>
      </trkpt>
      <trkpt lat="45.79938" lon="3.07042">
        <ele>550.421</ele>
        <time>2012-02-11T13:07:48Z</time>
      </trkpt>
      <trkpt lat="45.79939" lon="3.07034">
        <ele>552.022</ele>
        <time>2012-02-11T13:07:58Z</time>
      </trkpt>
      <trkpt lat="45.79942" lon="3.07031">
        <ele>553.216</ele>
        <time>2012-02-11T13:08:04Z</time>
      </trkpt>
      <trkpt lat="45.79944" lon="3.07029">
        <ele>554.674</ele>
        <time>2012-02-11T13:08:09Z</time>
      </trkpt>
      <trkpt lat="45.79948" lon="3.07029">
        <ele>555.993</ele>
        <time>2012-02-11T13:08:19Z</time>
      </trkpt>
      <trkpt lat="45.79953" lon="3.07026">
        <ele>558.625</ele>
        <time>2012-02-11T13:08:28Z</time>
      </trkpt>
      <trkpt lat="45.79954" lon="3.07023">
        <ele>559.913</ele>
        <time>2012-02-11T13:08:35Z</time>
      </trkpt>
      <trkpt lat="45.79956" lon="3.0702">
        <ele>561.295</ele>
        <time>2012-02-11T13:08:45Z</time>
      </trkpt>
      <trkpt lat="45.79959" lon="3.07017">
        <ele>562.714</ele>
        <time>2012-02-11T13:08:53Z</time>
      </trkpt>
      <trkpt lat="45.79961" lon="3.07017">
        <ele>563.706</ele>
        <time>2012-02-11T13:08:55Z</time>
      </trkpt>
      <trkpt lat="45.79962" lon="3.07014">
        <ele>564.913</ele>
        <time>2012-02-11T13:09:00Z</time>
      </trkpt>
      <trkpt lat="45.79971" lon="3.07009">
        <ele>567.503</ele>
        <time>2012-02-11T13:09:11Z</time>
      </trkpt>
      <trkpt lat="45.79976" lon="3.07006">
        <ele>569.812</ele>
        <time>2012-02-11T13:09:21Z</time>
      </trkpt>
      <trkpt lat="45.79977" lon="3.07004">
        <ele>570.712</ele>
        <time>2012-02-11T13:09:25Z</time>
      </trkpt>
      <trkpt lat="45.79979" lon="3.07003">
        <ele>571.271</ele>
        <time>2012-02-11T13:09:31Z</time>
      </trkpt>
      <trkpt lat="45.79982" lon="3.07">
        <ele>573.5</ele>
        <time>2012-02-11T13:09:37Z</time>
      </trkpt>
      <trkpt lat="45.79984" lon="3.06998">
        <ele>574.538</ele>
        <time>2012-02-11T13:09:41Z</time>
      </trkpt>
      <trkpt lat="45.79985" lon="3.06997">
        <ele>574.765</ele>
        <time>2012-02-11T13:09:42Z</time>
      </trkpt>
      <trkpt lat="45.79988" lon="3.06995">
        <ele>575.773</ele>
        <time>2012-02-11T13:09:47Z</time>
      </trkpt>
      <trkpt lat="45.79988" lon="3.06995">
        <ele>576.041</ele>
        <time>2012-02-11T13:09:48Z</time>
      </trkpt>
      <trkpt lat="45.79991" lon="3.06991">
        <ele>577.171</ele>
        <time>2012-02-11T13:09:56Z</time>
      </trkpt>
      <trkpt lat="45.79993" lon="3.06988">
        <ele>578.212</ele>
        <time>2012-02-11T13:10:01Z</time>
      </trkpt>
      <trkpt lat="45.79994" lon="3.06988">
        <ele>578.385</ele>
        <time>2012-02-11T13:10:02Z</time>
      </trkpt>
      <trkpt lat="45.79997" lon="3.06986">
        <ele>579.884</ele>
        <time>2012-02-11T13:10:10Z</time>
      </trkpt>
      <trkpt lat="45.80001" lon="3.06986">
        <ele>581.68</ele>
        <time>2012-02-11T13:10:17Z</time>
      </trkpt>
      <trkpt lat="45.80005" lon="3.06983">
        <ele>583.097</ele>
        <time>2012-02-11T13:10:22Z</time>
      </trkpt>
      <trkpt lat="45.80006" lon="3.06977">
        <ele>585.053</ele>
        <time>2012-02-11T13:10:29Z</time>
      </trkpt>
      <trkpt lat="45.80006" lon="3.06975">
        <ele>585.936</ele>
        <time>2012-02-11T13:10:36Z</time>
      </trkpt>
      <trkpt lat="45.80009" lon="3.0697">
        <ele>587.586</ele>
        <time>2012-02-11T13:10:46Z</time>
      </trkpt>
      <trkpt lat="45.8001" lon="3.06965">
        <ele>588.743</ele>
        <time>2012-02-11T13:10:51Z</time>
      </trkpt>
      <trkpt lat="45.80008" lon="3.06956">
        <ele>591.72</ele>
        <time>2012-02-11T13:11:00Z</time>
      </trkpt>
      <trkpt lat="45.80011" lon="3.06954">
        <ele>593.036</ele>
        <time>2012-02-11T13:11:06Z</time>
      </trkpt>
      <trkpt lat="45.80012" lon="3.06954">
        <ele>593.56</ele>
        <time>2012-02-11T13:11:09Z</time>
      </trkpt>
      <trkpt lat="45.80016" lon="3.06956">
        <ele>594.447</ele>
        <time>2012-02-11T13:11:16Z</time>
      </trkpt>
      <trkpt lat="45.8002" lon="3.06956">
        <ele>596.039</ele>
        <time>2012-02-11T13:11:23Z</time>
      </trkpt>
      <trkpt lat="45.80018" lon="3.06948">
        <ele>597.928</ele>
        <time>2012-02-11T13:11:30Z</time>
      </trkpt>
      <trkpt lat="45.80016" lon="3.06943">
        <ele>598.849</ele>
        <time>2012-02-11T13:11:37Z</time>
      </trkpt>
      <trkpt lat="45.80014" lon="3.06935">
        <ele>600.351</ele>
        <time>2012-02-11T13:11:46Z</time>
      </trkpt>
      <trkpt lat="45.80015" lon="3.0693">
        <ele>602.047</ele>
        <time>2012-02-11T13:11:54Z</time>
      </trkpt>
      <trkpt lat="45.80015" lon="3.06924">
        <ele>603.959</ele>
        <time>2012-02-11T13:12:02Z</time>
      </trkpt>
      <trkpt lat="45.80015" lon="3.06923">
        <ele>604.349</ele>
        <time>2012-02-11T13:12:04Z</time>
      </trkpt>
      <trkpt lat="45.80016" lon="3.06913">
        <ele>606.856</ele>
        <time>2012-02-11T13:12:19Z</time>
      </trkpt>
      <trkpt lat="45.80017" lon="3.06913">
        <ele>607.354</ele>
        <time>2012-02-11T13:12:21Z</time>
      </trkpt>
      <trkpt lat="45.8002" lon="3.06916">
        <ele>608.091</ele>
        <time>2012-02-11T13:12:25Z</time>
      </trkpt>
      <trkpt lat="45.80028" lon="3.06921">
        <ele>609.982</ele>
        <time>2012-02-11T13:12:36Z</time>
      </trkpt>
      <trkpt lat="45.80034" lon="3.06927">
        <ele>611.477</ele>
        <time>2012-02-11T13:12:45Z</time>
      </trkpt>
      <trkpt lat="45.80036" lon="3.06929">
        <ele>611.59</ele>
        <time>2012-02-11T13:12:49Z</time>
      </trkpt>
      <trkpt lat="45.80045" lon="3.06944">
        <ele>611.661</ele>
        <time>2012-02-11T13:12:57Z</time>
      </trkpt>
      <trkpt lat="45.80056" lon="3.06965">
        <ele>611.633</ele>
        <time>2012-02-11T13:13:04Z</time>
      </trkpt>
      <trkpt lat="45.80066" lon="3.06988">
        <ele>610.987</ele>
        <time>2012-02-11T13:13:10Z</time>
      </trkpt>
      <trkpt lat="45.80085" lon="3.07041">
        <ele>611.406</ele>
        <time>2012-02-11T13:13:22Z</time>
      </trkpt>
      <trkpt lat="45.80098" lon="3.07081">
        <ele>611.891</ele>
        <time>2012-02-11T13:13:31Z</time>
      </trkpt>
      <trkpt lat="45.80108" lon="3.07101">
        <ele>612.166</ele>
        <time>2012-02-11T13:13:37Z</time>
      </trkpt>
      <trkpt lat="45.80125" lon="3.07136">
        <ele>612.259</ele>
        <time>2012-02-11T13:13:45Z</time>
      </trkpt>
      <trkpt lat="45.80148" lon="3.07172">
        <ele>611.387</ele>
        <time>2012-02-11T13:13:53Z</time>
      </trkpt>
      <trkpt lat="45.8016" lon="3.0719">
        <ele>611.073</ele>
        <time>2012-02-11T13:13:57Z</time>
      </trkpt>
      <trkpt lat="45.80168" lon="3.07207">
        <ele>611.154</ele>
        <time>2012-02-11T13:14:00Z</time>
      </trkpt>
      <trkpt lat="45.80172" lon="3.07229">
        <ele>610.671</ele>
        <time>2012-02-11T13:14:04Z</time>
      </trkpt>
      <trkpt lat="45.80164" lon="3.0724">
        <ele>610.353</ele>
        <time>2012-02-11T13:14:07Z</time>
      </trkpt>
      <trkpt lat="45.80161" lon="3.07241">
        <ele>610.168</ele>
        <time>2012-02-11T13:14:11Z</time>
      </trkpt>
      <trkpt lat="45.80154" lon="3.07245">
        <ele>609.953</ele>
        <time>2012-02-11T13:14:34Z</time>
      </trkpt>
      <trkpt lat="45.8014" lon="3.07255">
        <ele>608.932</ele>
        <time>2012-02-11T13:14:38Z</time>
      </trkpt>
      <trkpt lat="45.80127" lon="3.0726">
        <ele>605.612</ele>
        <time>2012-02-11T13:14:43Z</time>
      </trkpt>
      <trkpt lat="45.80113" lon="3.07272">
        <ele>601.475</ele>
        <time>2012-02-11T13:14:46Z</time>
      </trkpt>
      <trkpt lat="45.80109" lon="3.07274">
        <ele>599.68</ele>
        <time>2012-02-11T13:14:47Z</time>
      </trkpt>
      <trkpt lat="45.80095" lon="3.07282">
        <ele>590.39</ele>
        <time>2012-02-11T13:14:52Z</time>
      </trkpt>
      <trkpt lat="45.80086" lon="3.0729">
        <ele>585.891</ele>
        <time>2012-02-11T13:14:55Z</time>
      </trkpt>
      <trkpt lat="45.80066" lon="3.073">
        <ele>579.95</ele>
        <time>2012-02-11T13:14:59Z</time>
      </trkpt>
      <trkpt lat="45.80055" lon="3.07303">
        <ele>578.328</ele>
        <time>2012-02-11T13:15:01Z</time>
      </trkpt>
      <trkpt lat="45.80052" lon="3.07309">
        <ele>575.396</ele>
        <time>2012-02-11T13:15:03Z</time>
      </trkpt>
      <trkpt lat="45.80046" lon="3.07322">
        <ele>571.839</ele>
        <time>2012-02-11T13:15:06Z</time>
      </trkpt>
      <trkpt lat="45.80036" lon="3.07332">
        <ele>568.555</ele>
        <time>2012-02-11T13:15:09Z</time>
      </trkpt>
      <trkpt lat="45.80025" lon="3.07336">
        <ele>562.66</ele>
        <time>2012-02-11T13:15:14Z</time>
      </trkpt>
      <trkpt lat="45.80012" lon="3.07336">
        <ele>558.146</ele>
        <time>2012-02-11T13:15:18Z</time>
      </trkpt>
      <trkpt lat="45.80008" lon="3.07335">
        <ele>556.903</ele>
        <time>2012-02-11T13:15:19Z</time>
      </trkpt>
      <trkpt lat="45.79999" lon="3.07324">
        <ele>552.235</ele>
        <time>2012-02-11T13:15:23Z</time>
      </trkpt>
      <trkpt lat="45.79992" lon="3.07321">
        <ele>550.302</ele>
        <time>2012-02-11T13:15:26Z</time>
      </trkpt>
      <trkpt lat="45.79989" lon="3.07323">
        <ele>549.323</ele>
        <time>2012-02-11T13:15:27Z</time>
      </trkpt>
      <trkpt lat="45.79965" lon="3.07336">
        <ele>543.828</ele>
        <time>2012-02-11T13:15:31Z</time>
      </trkpt>
      <trkpt lat="45.79944" lon="3.07346">
        <ele>537.531</ele>
        <time>2012-02-11T13:15:35Z</time>
      </trkpt>
      <trkpt lat="45.79924" lon="3.07354">
        <ele>532.525</ele>
        <time>2012-02-11T13:15:39Z</time>
      </trkpt>
      <trkpt lat="45.79909" lon="3.0737">
        <ele>526</ele>
        <time>2012-02-11T13:15:44Z</time>
      </trkpt>
      <trkpt lat="45.79897" lon="3.07375">
        <ele>520.582</ele>
        <time>2012-02-11T13:15:48Z</time>
      </trkpt>
      <trkpt lat="45.79878" lon="3.07375">
        <ele>515.977</ele>
        <time>2012-02-11T13:15:52Z</time>
      </trkpt>
      <trkpt lat="45.79841" lon="3.07383">
        <ele>503.854</ele>
        <time>2012-02-11T13:15:58Z</time>
      </trkpt>
      <trkpt lat="45.79837" lon="3.07408">
        <ele>497.649</ele>
        <time>2012-02-11T13:16:03Z</time>
      </trkpt>
      <trkpt lat="45.79837" lon="3.07425">
        <ele>496.688</ele>
        <time>2012-02-11T13:16:05Z</time>
      </trkpt>
      <trkpt lat="45.7982" lon="3.07446">
        <ele>492.08</ele>
        <time>2012-02-11T13:16:09Z</time>
      </trkpt>
      <trkpt lat="45.79792" lon="3.07478">
        <ele>479.885</ele>
        <time>2012-02-11T13:16:14Z</time>
      </trkpt>
      <trkpt lat="45.79786" lon="3.07484">
        <ele>477.007</ele>
        <time>2012-02-11T13:16:15Z</time>
      </trkpt>
      <trkpt lat="45.79773" lon="3.07493">
        <ele>474.161</ele>
        <time>2012-02-11T13:16:17Z</time>
      </trkpt>
      <trkpt lat="45.79748" lon="3.07509">
        <ele>463.715</ele>
        <time>2012-02-11T13:16:21Z</time>
      </trkpt>
      <trkpt lat="45.79745" lon="3.0751">
        <ele>461.785</ele>
        <time>2012-02-11T13:16:22Z</time>
      </trkpt>
      <trkpt lat="45.79744" lon="3.07513">
        <ele>456.991</ele>
        <time>2012-02-11T13:16:26Z</time>
      </trkpt>
      <trkpt lat="45.79744" lon="3.07514">
        <ele>456.271</ele>
        <time>2012-02-11T13:16:28Z</time>
      </trkpt>
      <trkpt lat="45.79744" lon="3.07514">
        <ele>456.076</ele>
        <time>2012-02-11T13:16:30Z</time>
      </trkpt>
      <trkpt lat="45.79735" lon="3.07542">
        <ele>454.822</ele>
        <time>2012-02-11T13:18:07Z</time>
      </trkpt>
      <trkpt lat="45.79703" lon="3.07556">
        <ele>446.585</ele>
        <time>2012-02-11T13:18:16Z</time>
      </trkpt>
      <trkpt lat="45.79673" lon="3.07569">
        <ele>440.518</ele>
        <time>2012-02-11T13:18:23Z</time>
      </trkpt>
      <trkpt lat="45.79645" lon="3.07582">
        <ele>433.816</ele>
        <time>2012-02-11T13:18:29Z</time>
      </trkpt>
      <trkpt lat="45.79622" lon="3.07598">
        <ele>429.425</ele>
        <time>2012-02-11T13:18:33Z</time>
      </trkpt>
      <trkpt lat="45.7959" lon="3.07624">
        <ele>423.832</ele>
        <time>2012-02-11T13:18:37Z</time>
      </trkpt>
      <trkpt lat="45.79553" lon="3.07651">
        <ele>416.709</ele>
        <time>2012-02-11T13:18:41Z</time>
      </trkpt>
      <trkpt lat="45.79535" lon="3.0766">
        <ele>413.55</ele>
        <time>2012-02-11T13:18:44Z</time>
      </trkpt>
      <trkpt lat="45.79531" lon="3.07662">
        <ele>412.794</ele>
        <time>2012-02-11T13:18:45Z</time>
      </trkpt>
      <trkpt lat="45.79522" lon="3.07685">
        <ele>410.922</ele>
        <time>2012-02-11T13:18:49Z</time>
      </trkpt>
      <trkpt lat="45.79516" lon="3.07731">
        <ele>408.386</ele>
        <time>2012-02-11T13:18:54Z</time>
      </trkpt>
      <trkpt lat="45.79508" lon="3.07802">
        <ele>404.699</ele>
        <time>2012-02-11T13:19:00Z</time>
      </trkpt>
      <trkpt lat="45.79506" lon="3.07879">
        <ele>398.939</ele>
        <time>2012-02-11T13:19:06Z</time>
      </trkpt>
      <trkpt lat="45.79499" lon="3.07969">
        <ele>394.092</ele>
        <time>2012-02-11T13:19:13Z</time>
      </trkpt>
      <trkpt lat="45.79496" lon="3.07994">
        <ele>393.435</ele>
        <time>2012-02-11T13:19:15Z</time>
      </trkpt>
      <trkpt lat="45.79486" lon="3.08108">
        <ele>388.925</ele>
        <time>2012-02-11T13:19:24Z</time>
      </trkpt>
      <trkpt lat="45.79477" lon="3.08198">
        <ele>386.32</ele>
        <time>2012-02-11T13:19:32Z</time>
      </trkpt>
      <trkpt lat="45.79471" lon="3.08263">
        <ele>384.674</ele>
        <time>2012-02-11T13:19:38Z</time>
      </trkpt>
      <trkpt lat="45.79464" lon="3.08364">
        <ele>381.828</ele>
        <time>2012-02-11T13:19:47Z</time>
      </trkpt>
      <trkpt lat="45.79458" lon="3.0845">
        <ele>380.049</ele>
        <time>2012-02-11T13:19:55Z</time>
      </trkpt>
      <trkpt lat="45.79457" lon="3.0847">
        <ele>379.26</ele>
        <time>2012-02-11T13:19:57Z</time>
      </trkpt>
      <trkpt lat="45.79459" lon="3.08493">
        <ele>378.405</ele>
        <time>2012-02-11T13:20:00Z</time>
      </trkpt>
      <trkpt lat="45.79469" lon="3.08499">
        <ele>378.12</ele>
        <time>2012-02-11T13:20:02Z</time>
      </trkpt>
      <trkpt lat="45.79506" lon="3.08511">
        <ele>379.278</ele>
        <time>2012-02-11T13:20:09Z</time>
      </trkpt>
      <trkpt lat="45.79522" lon="3.0852">
        <ele>381.101</ele>
        <time>2012-02-11T13:20:14Z</time>
      </trkpt>
      <trkpt lat="45.79534" lon="3.08528">
        <ele>383.427</ele>
        <time>2012-02-11T13:20:19Z</time>
      </trkpt>
      <trkpt lat="45.79551" lon="3.08539">
        <ele>385.74</ele>
        <time>2012-02-11T13:20:26Z</time>
      </trkpt>
      <trkpt lat="45.79575" lon="3.08548">
        <ele>388.374</ele>
        <time>2012-02-11T13:20:35Z</time>
      </trkpt>
      <trkpt lat="45.79595" lon="3.08552">
        <ele>389.922</ele>
        <time>2012-02-11T13:20:42Z</time>
      </trkpt>
      <trkpt lat="45.79618" lon="3.08558">
        <ele>391.75</ele>
        <time>2012-02-11T13:20:51Z</time>
      </trkpt>
      <trkpt lat="45.79635" lon="3.08561">
        <ele>393.155</ele>
        <time>2012-02-11T13:20:58Z</time>
      </trkpt>
      <trkpt lat="45.79655" lon="3.08567">
        <ele>395.682</ele>
        <time>2012-02-11T13:21:07Z</time>
      </trkpt>
      <trkpt lat="45.79675" lon="3.08572">
        <ele>397.137</ele>
        <time>2012-02-11T13:21:16Z</time>
      </trkpt>
      <trkpt lat="45.7969" lon="3.08575">
        <ele>398.755</ele>
        <time>2012-02-11T13:21:23Z</time>
      </trkpt>
      <trkpt lat="45.79705" lon="3.08579">
        <ele>401.226</ele>
        <time>2012-02-11T13:21:31Z</time>
      </trkpt>
      <trkpt lat="45.79721" lon="3.08583">
        <ele>404.271</ele>
        <time>2012-02-11T13:21:40Z</time>
      </trkpt>
      <trkpt lat="45.79728" lon="3.08593">
        <ele>406.239</ele>
        <time>2012-02-11T13:21:47Z</time>
      </trkpt>
      <trkpt lat="45.79733" lon="3.08605">
        <ele>408.075</ele>
        <time>2012-02-11T13:21:54Z</time>
      </trkpt>
      <trkpt lat="45.79738" lon="3.08618">
        <ele>410.998</ele>
        <time>2012-02-11T13:22:02Z</time>
      </trkpt>
      <trkpt lat="45.79745" lon="3.08631">
        <ele>413.674</ele>
        <time>2012-02-11T13:22:10Z</time>
      </trkpt>
      <trkpt lat="45.79753" lon="3.08642">
        <ele>415.864</ele>
        <time>2012-02-11T13:22:18Z</time>
      </trkpt>
      <trkpt lat="45.79763" lon="3.08648">
        <ele>418.693</ele>
        <time>2012-02-11T13:22:26Z</time>
      </trkpt>
      <trkpt lat="45.79767" lon="3.08652">
        <ele>420.265</ele>
        <time>2012-02-11T13:22:30Z</time>
      </trkpt>
      <trkpt lat="45.79772" lon="3.08656">
        <ele>421.939</ele>
        <time>2012-02-11T13:22:35Z</time>
      </trkpt>
      <trkpt lat="45.79777" lon="3.0866">
        <ele>423.394</ele>
        <time>2012-02-11T13:22:40Z</time>
      </trkpt>
      <trkpt lat="45.79782" lon="3.08666">
        <ele>425.613</ele>
        <time>2012-02-11T13:22:46Z</time>
      </trkpt>
      <trkpt lat="45.79788" lon="3.08665">
        <ele>427.356</ele>
        <time>2012-02-11T13:22:51Z</time>
      </trkpt>
      <trkpt lat="45.79791" lon="3.0867">
        <ele>428.981</ele>
        <time>2012-02-11T13:22:55Z</time>
      </trkpt>
      <trkpt lat="45.79798" lon="3.08671">
        <ele>430.723</ele>
        <time>2012-02-11T13:23:00Z</time>
      </trkpt>
      <trkpt lat="45.79799" lon="3.08681">
        <ele>431.604</ele>
        <time>2012-02-11T13:23:04Z</time>
      </trkpt>
      <trkpt lat="45.79804" lon="3.08679">
        <ele>432.312</ele>
        <time>2012-02-11T13:23:07Z</time>
      </trkpt>
      <trkpt lat="45.79806" lon="3.08686">
        <ele>433.229</ele>
        <time>2012-02-11T13:23:10Z</time>
      </trkpt>
      <trkpt lat="45.7981" lon="3.08689">
        <ele>434.688</ele>
        <time>2012-02-11T13:23:14Z</time>
      </trkpt>
      <trkpt lat="45.79816" lon="3.08681">
        <ele>436.69</ele>
        <time>2012-02-11T13:23:20Z</time>
      </trkpt>
      <trkpt lat="45.79824" lon="3.08682">
        <ele>438.517</ele>
        <time>2012-02-11T13:23:26Z</time>
      </trkpt>
      <trkpt lat="45.79826" lon="3.08683">
        <ele>438.908</ele>
        <time>2012-02-11T13:23:28Z</time>
      </trkpt>
      <trkpt lat="45.7983" lon="3.08686">
        <ele>440.674</ele>
        <time>2012-02-11T13:23:33Z</time>
      </trkpt>
      <trkpt lat="45.7984" lon="3.08688">
        <ele>443.008</ele>
        <time>2012-02-11T13:23:41Z</time>
      </trkpt>
      <trkpt lat="45.79852" lon="3.08692">
        <ele>446.857</ele>
        <time>2012-02-11T13:23:51Z</time>
      </trkpt>
      <trkpt lat="45.7986" lon="3.08695">
        <ele>448.715</ele>
        <time>2012-02-11T13:23:58Z</time>
      </trkpt>
      <trkpt lat="45.79868" lon="3.087">
        <ele>450.942</ele>
        <time>2012-02-11T13:24:06Z</time>
      </trkpt>
      <trkpt lat="45.79878" lon="3.08706">
        <ele>452.783</ele>
        <time>2012-02-11T13:24:14Z</time>
      </trkpt>
      <trkpt lat="45.79888" lon="3.08715">
        <ele>455.082</ele>
        <time>2012-02-11T13:24:23Z</time>
      </trkpt>
      <trkpt lat="45.79898" lon="3.08722">
        <ele>457.657</ele>
        <time>2012-02-11T13:24:31Z</time>
      </trkpt>
      <trkpt lat="45.79909" lon="3.08732">
        <ele>459.848</ele>
        <time>2012-02-11T13:24:41Z</time>
      </trkpt>
      <trkpt lat="45.79921" lon="3.08742">
        <ele>461.927</ele>
        <time>2012-02-11T13:24:50Z</time>
      </trkpt>
      <trkpt lat="45.79929" lon="3.08748">
        <ele>464.018</ele>
        <time>2012-02-11T13:24:57Z</time>
      </trkpt>
      <trkpt lat="45.79932" lon="3.08749">
        <ele>464.477</ele>
        <time>2012-02-11T13:24:59Z</time>
      </trkpt>
      <trkpt lat="45.79942" lon="3.08756">
        <ele>466.474</ele>
        <time>2012-02-11T13:25:07Z</time>
      </trkpt>
      <trkpt lat="45.7995" lon="3.08763">
        <ele>467.975</ele>
        <time>2012-02-11T13:25:14Z</time>
      </trkpt>
      <trkpt lat="45.79957" lon="3.08768">
        <ele>469.596</ele>
        <time>2012-02-11T13:25:20Z</time>
      </trkpt>
      <trkpt lat="45.79965" lon="3.08775">
        <ele>472.834</ele>
        <time>2012-02-11T13:25:29Z</time>
      </trkpt>
      <trkpt lat="45.79967" lon="3.08779">
        <ele>474.442</ele>
        <time>2012-02-11T13:25:35Z</time>
      </trkpt>
      <trkpt lat="45.79967" lon="3.08781">
        <ele>475.143</ele>
        <time>2012-02-11T13:25:39Z</time>
      </trkpt>
      <trkpt lat="45.79973" lon="3.08791">
        <ele>476.423</ele>
        <time>2012-02-11T13:25:47Z</time>
      </trkpt>
      <trkpt lat="45.79979" lon="3.088">
        <ele>479.019</ele>
        <time>2012-02-11T13:25:55Z</time>
      </trkpt>
      <trkpt lat="45.79985" lon="3.08811">
        <ele>481.25</ele>
        <time>2012-02-11T13:26:03Z</time>
      </trkpt>
      <trkpt lat="45.7999" lon="3.08815">
        <ele>482.867</ele>
        <time>2012-02-11T13:26:09Z</time>
      </trkpt>
      <trkpt lat="45.79997" lon="3.08818">
        <ele>485.179</ele>
        <time>2012-02-11T13:26:17Z</time>
      </trkpt>
      <trkpt lat="45.80001" lon="3.08832">
        <ele>486.877</ele>
        <time>2012-02-11T13:26:25Z</time>
      </trkpt>
      <trkpt lat="45.80004" lon="3.08853">
        <ele>489.268</ele>
        <time>2012-02-11T13:26:36Z</time>
      </trkpt>
      <trkpt lat="45.80006" lon="3.08868">
        <ele>491.141</ele>
        <time>2012-02-11T13:26:44Z</time>
      </trkpt>
      <trkpt lat="45.80008" lon="3.08881">
        <ele>492.887</ele>
        <time>2012-02-11T13:26:51Z</time>
      </trkpt>
      <trkpt lat="45.80009" lon="3.08884">
        <ele>493.882</ele>
        <time>2012-02-11T13:26:54Z</time>
      </trkpt>
      <trkpt lat="45.80014" lon="3.08893">
        <ele>496.406</ele>
        <time>2012-02-11T13:27:04Z</time>
      </trkpt>
      <trkpt lat="45.80011" lon="3.08905">
        <ele>497.412</ele>
        <time>2012-02-11T13:27:20Z</time>
      </trkpt>
      <trkpt lat="45.80011" lon="3.08913">
        <ele>497.906</ele>
        <time>2012-02-11T13:27:24Z</time>
      </trkpt>
      <trkpt lat="45.8001" lon="3.08932">
        <ele>500.515</ele>
        <time>2012-02-11T13:27:33Z</time>
      </trkpt>
      <trkpt lat="45.80006" lon="3.08945">
        <ele>501.983</ele>
        <time>2012-02-11T13:27:40Z</time>
      </trkpt>
      <trkpt lat="45.80003" lon="3.08951">
        <ele>502.405</ele>
        <time>2012-02-11T13:27:46Z</time>
      </trkpt>
      <trkpt lat="45.79999" lon="3.08962">
        <ele>503.473</ele>
        <time>2012-02-11T13:27:52Z</time>
      </trkpt>
      <trkpt lat="45.79993" lon="3.08974">
        <ele>504.991</ele>
        <time>2012-02-11T13:27:59Z</time>
      </trkpt>
      <trkpt lat="45.79986" lon="3.08984">
        <ele>506.155</ele>
        <time>2012-02-11T13:28:06Z</time>
      </trkpt>
      <trkpt lat="45.79981" lon="3.08993">
        <ele>507.387</ele>
        <time>2012-02-11T13:28:13Z</time>
      </trkpt>
      <trkpt lat="45.7998" lon="3.08994">
        <ele>508.108</ele>
        <time>2012-02-11T13:28:16Z</time>
      </trkpt>
      <trkpt lat="45.79976" lon="3.09001">
        <ele>508.513</ele>
        <time>2012-02-11T13:28:22Z</time>
      </trkpt>
      <trkpt lat="45.79968" lon="3.09014">
        <ele>509.296</ele>
        <time>2012-02-11T13:28:28Z</time>
      </trkpt>
      <trkpt lat="45.79959" lon="3.09034">
        <ele>510.793</ele>
        <time>2012-02-11T13:28:36Z</time>
      </trkpt>
      <trkpt lat="45.79958" lon="3.09057">
        <ele>511.402</ele>
        <time>2012-02-11T13:28:43Z</time>
      </trkpt>
      <trkpt lat="45.79963" lon="3.09079">
        <ele>512.164</ele>
        <time>2012-02-11T13:28:50Z</time>
      </trkpt>
      <trkpt lat="45.79966" lon="3.09105">
        <ele>512.582</ele>
        <time>2012-02-11T13:28:57Z</time>
      </trkpt>
      <trkpt lat="45.79967" lon="3.09122">
        <ele>511.874</ele>
        <time>2012-02-11T13:29:00Z</time>
      </trkpt>
      <trkpt lat="45.79961" lon="3.09144">
        <ele>510.563</ele>
        <time>2012-02-11T13:29:04Z</time>
      </trkpt>
      <trkpt lat="45.79965" lon="3.09155">
        <ele>509.732</ele>
        <time>2012-02-11T13:29:08Z</time>
      </trkpt>
      <trkpt lat="45.79967" lon="3.09166">
        <ele>510.565</ele>
        <time>2012-02-11T13:29:13Z</time>
      </trkpt>
      <trkpt lat="45.79969" lon="3.09173">
        <ele>511.483</ele>
        <time>2012-02-11T13:29:16Z</time>
      </trkpt>
      <trkpt lat="45.79973" lon="3.09188">
        <ele>513.06</ele>
        <time>2012-02-11T13:29:23Z</time>
      </trkpt>
      <trkpt lat="45.79974" lon="3.092">
        <ele>514.04</ele>
        <time>2012-02-11T13:29:28Z</time>
      </trkpt>
      <trkpt lat="45.79979" lon="3.09207">
        <ele>515.205</ele>
        <time>2012-02-11T13:29:32Z</time>
      </trkpt>
      <trkpt lat="45.79979" lon="3.09219">
        <ele>517.056</ele>
        <time>2012-02-11T13:29:37Z</time>
      </trkpt>
      <trkpt lat="45.79974" lon="3.0924">
        <ele>519.231</ele>
        <time>2012-02-11T13:29:44Z</time>
      </trkpt>
      <trkpt lat="45.7997" lon="3.09257">
        <ele>519.997</ele>
        <time>2012-02-11T13:29:50Z</time>
      </trkpt>
      <trkpt lat="45.7996" lon="3.09271">
        <ele>519.914</ele>
        <time>2012-02-11T13:29:55Z</time>
      </trkpt>
      <trkpt lat="45.79957" lon="3.09277">
        <ele>519.565</ele>
        <time>2012-02-11T13:29:57Z</time>
      </trkpt>
      <trkpt lat="45.79952" lon="3.09282">
        <ele>519.64</ele>
        <time>2012-02-11T13:29:59Z</time>
      </trkpt>
      <trkpt lat="45.79948" lon="3.09299">
        <ele>518.755</ele>
        <time>2012-02-11T13:30:03Z</time>
      </trkpt>
      <trkpt lat="45.79954" lon="3.09315">
        <ele>519.565</ele>
        <time>2012-02-11T13:30:09Z</time>
      </trkpt>
      <trkpt lat="45.79955" lon="3.0932">
        <ele>521.283</ele>
        <time>2012-02-11T13:30:14Z</time>
      </trkpt>
      <trkpt lat="45.79955" lon="3.09321">
        <ele>521.999</ele>
        <time>2012-02-11T13:30:17Z</time>
      </trkpt>
      <trkpt lat="45.79955" lon="3.09324">
        <ele>522.023</ele>
        <time>2012-02-11T13:30:23Z</time>
      </trkpt>
      <trkpt lat="45.79955" lon="3.09324">
        <ele>521.909</ele>
        <time>2012-02-11T13:30:24Z</time>
      </trkpt>
      <trkpt lat="45.79959" lon="3.09346">
        <ele>522.167</ele>
        <time>2012-02-11T13:33:14Z</time>
      </trkpt>
      <trkpt lat="45.79962" lon="3.09367">
        <ele>521.361</ele>
        <time>2012-02-11T13:33:18Z</time>
      </trkpt>
      <trkpt lat="45.79964" lon="3.0941">
        <ele>519.129</ele>
        <time>2012-02-11T13:33:24Z</time>
      </trkpt>
      <trkpt lat="45.79964" lon="3.09437">
        <ele>517.588</ele>
        <time>2012-02-11T13:33:27Z</time>
      </trkpt>
      <trkpt lat="45.79969" lon="3.09459">
        <ele>516.934</ele>
        <time>2012-02-11T13:33:31Z</time>
      </trkpt>
      <trkpt lat="45.79969" lon="3.09479">
        <ele>518.03</ele>
        <time>2012-02-11T13:33:36Z</time>
      </trkpt>
      <trkpt lat="45.79969" lon="3.09483">
        <ele>518.289</ele>
        <time>2012-02-11T13:33:37Z</time>
      </trkpt>
      <trkpt lat="45.79971" lon="3.09502">
        <ele>520.212</ele>
        <time>2012-02-11T13:33:43Z</time>
      </trkpt>
      <trkpt lat="45.79968" lon="3.09516">
        <ele>522.094</ele>
        <time>2012-02-11T13:33:48Z</time>
      </trkpt>
      <trkpt lat="45.79966" lon="3.09536">
        <ele>522.651</ele>
        <time>2012-02-11T13:33:53Z</time>
      </trkpt>
      <trkpt lat="45.79967" lon="3.09568">
        <ele>522.223</ele>
        <time>2012-02-11T13:33:59Z</time>
      </trkpt>
      <trkpt lat="45.79965" lon="3.09596">
        <ele>521.989</ele>
        <time>2012-02-11T13:34:05Z</time>
      </trkpt>
      <trkpt lat="45.79965" lon="3.09604">
        <ele>521.93</ele>
        <time>2012-02-11T13:34:07Z</time>
      </trkpt>
      <trkpt lat="45.79971" lon="3.0961">
        <ele>521.911</ele>
        <time>2012-02-11T13:34:11Z</time>
      </trkpt>
      <trkpt lat="45.79985" lon="3.09608">
        <ele>524.063</ele>
        <time>2012-02-11T13:34:19Z</time>
      </trkpt>
      <trkpt lat="45.7999" lon="3.09602">
        <ele>525.838</ele>
        <time>2012-02-11T13:34:25Z</time>
      </trkpt>
      <trkpt lat="45.79995" lon="3.09597">
        <ele>527.835</ele>
        <time>2012-02-11T13:34:32Z</time>
      </trkpt>
      <trkpt lat="45.79995" lon="3.09596">
        <ele>528.298</ele>
        <time>2012-02-11T13:34:35Z</time>
      </trkpt>
      <trkpt lat="45.79997" lon="3.09594">
        <ele>528.078</ele>
        <time>2012-02-11T13:34:40Z</time>
      </trkpt>
      <trkpt lat="45.79998" lon="3.09592">
        <ele>528.263</ele>
        <time>2012-02-11T13:34:45Z</time>
      </trkpt>
      <trkpt lat="45.79999" lon="3.09588">
        <ele>528.781</ele>
        <time>2012-02-11T13:34:54Z</time>
      </trkpt>
      <trkpt lat="45.8" lon="3.09585">
        <ele>530.257</ele>
        <time>2012-02-11T13:34:59Z</time>
      </trkpt>
      <trkpt lat="45.80002" lon="3.0958">
        <ele>530.926</ele>
        <time>2012-02-11T13:35:09Z</time>
      </trkpt>
      <trkpt lat="45.80007" lon="3.09573">
        <ele>532.16</ele>
        <time>2012-02-11T13:35:16Z</time>
      </trkpt>
      <trkpt lat="45.80011" lon="3.09566">
        <ele>533.726</ele>
        <time>2012-02-11T13:35:22Z</time>
      </trkpt>
      <trkpt lat="45.80019" lon="3.09555">
        <ele>536.567</ele>
        <time>2012-02-11T13:35:33Z</time>
      </trkpt>
      <trkpt lat="45.80023" lon="3.09551">
        <ele>537.427</ele>
        <time>2012-02-11T13:35:37Z</time>
      </trkpt>
      <trkpt lat="45.80034" lon="3.09547">
        <ele>537.508</ele>
        <time>2012-02-11T13:35:42Z</time>
      </trkpt>
      <trkpt lat="45.80056" lon="3.09534">
        <ele>534.904</ele>
        <time>2012-02-11T13:35:47Z</time>
      </trkpt>
      <trkpt lat="45.80071" lon="3.0952">
        <ele>533.52</ele>
        <time>2012-02-11T13:35:52Z</time>
      </trkpt>
      <trkpt lat="45.80088" lon="3.09517">
        <ele>533.555</ele>
        <time>2012-02-11T13:35:57Z</time>
      </trkpt>
      <trkpt lat="45.80099" lon="3.09514">
        <ele>532.748</ele>
        <time>2012-02-11T13:36:00Z</time>
      </trkpt>
      <trkpt lat="45.80108" lon="3.09515">
        <ele>531.808</ele>
        <time>2012-02-11T13:36:02Z</time>
      </trkpt>
      <trkpt lat="45.80133" lon="3.09516">
        <ele>530.177</ele>
        <time>2012-02-11T13:36:08Z</time>
      </trkpt>
      <trkpt lat="45.80154" lon="3.09518">
        <ele>530.417</ele>
        <time>2012-02-11T13:36:15Z</time>
      </trkpt>
      <trkpt lat="45.80157" lon="3.09518">
        <ele>530.864</ele>
        <time>2012-02-11T13:36:18Z</time>
      </trkpt>
      <trkpt lat="45.80159" lon="3.09519">
        <ele>531.846</ele>
        <time>2012-02-11T13:36:46Z</time>
      </trkpt>
      <trkpt lat="45.80161" lon="3.09527">
        <ele>531.232</ele>
        <time>2012-02-11T13:36:50Z</time>
      </trkpt>
      <trkpt lat="45.80158" lon="3.09538">
        <ele>530.011</ele>
        <time>2012-02-11T13:36:53Z</time>
      </trkpt>
      <trkpt lat="45.80157" lon="3.09552">
        <ele>528.178</ele>
        <time>2012-02-11T13:36:55Z</time>
      </trkpt>
      <trkpt lat="45.80155" lon="3.09566">
        <ele>527.141</ele>
        <time>2012-02-11T13:36:57Z</time>
      </trkpt>
      <trkpt lat="45.80156" lon="3.09591">
        <ele>521.65</ele>
        <time>2012-02-11T13:37:01Z</time>
      </trkpt>
      <trkpt lat="45.80152" lon="3.09607">
        <ele>517.65</ele>
        <time>2012-02-11T13:37:04Z</time>
      </trkpt>
      <trkpt lat="45.80146" lon="3.09616">
        <ele>515.174</ele>
        <time>2012-02-11T13:37:06Z</time>
      </trkpt>
      <trkpt lat="45.80137" lon="3.09645">
        <ele>510.277</ele>
        <time>2012-02-11T13:37:10Z</time>
      </trkpt>
      <trkpt lat="45.80136" lon="3.09655">
        <ele>508.813</ele>
        <time>2012-02-11T13:37:11Z</time>
      </trkpt>
      <trkpt lat="45.80124" lon="3.09684">
        <ele>503.285</ele>
        <time>2012-02-11T13:37:15Z</time>
      </trkpt>
      <trkpt lat="45.80115" lon="3.09714">
        <ele>497.546</ele>
        <time>2012-02-11T13:37:19Z</time>
      </trkpt>
      <trkpt lat="45.80112" lon="3.0973">
        <ele>493.078</ele>
        <time>2012-02-11T13:37:22Z</time>
      </trkpt>
      <trkpt lat="45.80115" lon="3.09733">
        <ele>493.077</ele>
        <time>2012-02-11T13:37:23Z</time>
      </trkpt>
      <trkpt lat="45.8012" lon="3.09747">
        <ele>488.69</ele>
        <time>2012-02-11T13:37:26Z</time>
      </trkpt>
      <trkpt lat="45.80127" lon="3.09767">
        <ele>482.403</ele>
        <time>2012-02-11T13:37:30Z</time>
      </trkpt>
      <trkpt lat="45.80128" lon="3.0977">
        <ele>480.827</ele>
        <time>2012-02-11T13:37:31Z</time>
      </trkpt>
      <trkpt lat="45.80132" lon="3.09775">
        <ele>477.707</ele>
        <time>2012-02-11T13:37:33Z</time>
      </trkpt>
      <trkpt lat="45.80143" lon="3.09782">
        <ele>472.467</ele>
        <time>2012-02-11T13:37:36Z</time>
      </trkpt>
      <trkpt lat="45.80145" lon="3.09803">
        <ele>465.118</ele>
        <time>2012-02-11T13:37:40Z</time>
      </trkpt>
      <trkpt lat="45.80153" lon="3.0983">
        <ele>456.745</ele>
        <time>2012-02-11T13:37:44Z</time>
      </trkpt>
      <trkpt lat="45.80155" lon="3.09844">
        <ele>452.914</ele>
        <time>2012-02-11T13:37:47Z</time>
      </trkpt>
      <trkpt lat="45.80159" lon="3.0985">
        <ele>449.574</ele>
        <time>2012-02-11T13:37:49Z</time>
      </trkpt>
      <trkpt lat="45.80166" lon="3.09856">
        <ele>446.997</ele>
        <time>2012-02-11T13:37:51Z</time>
      </trkpt>
      <trkpt lat="45.80189" lon="3.09874">
        <ele>439.701</ele>
        <time>2012-02-11T13:37:56Z</time>
      </trkpt>
      <trkpt lat="45.802" lon="3.09883">
        <ele>433.592</ele>
        <time>2012-02-11T13:38:00Z</time>
      </trkpt>
      <trkpt lat="45.80202" lon="3.0989">
        <ele>432.238</ele>
        <time>2012-02-11T13:38:01Z</time>
      </trkpt>
      <trkpt lat="45.80203" lon="3.09905">
        <ele>429.321</ele>
        <time>2012-02-11T13:38:03Z</time>
      </trkpt>
      <trkpt lat="45.80201" lon="3.09941">
        <ele>421.988</ele>
        <time>2012-02-11T13:38:07Z</time>
      </trkpt>
      <trkpt lat="45.80202" lon="3.0996">
        <ele>416.04</ele>
        <time>2012-02-11T13:38:11Z</time>
      </trkpt>
      <trkpt lat="45.80199" lon="3.09964">
        <ele>413.888</ele>
        <time>2012-02-11T13:38:51Z</time>
      </trkpt>
      <trkpt lat="45.80195" lon="3.09969">
        <ele>413.158</ele>
        <time>2012-02-11T13:38:53Z</time>
      </trkpt>
      <trkpt lat="45.80189" lon="3.09994">
        <ele>407.63</ele>
        <time>2012-02-11T13:38:57Z</time>
      </trkpt>
      <trkpt lat="45.80191" lon="3.10026">
        <ele>399.172</ele>
        <time>2012-02-11T13:39:01Z</time>
      </trkpt>
      <trkpt lat="45.80191" lon="3.10037">
        <ele>397.32</ele>
        <time>2012-02-11T13:39:03Z</time>
      </trkpt>
      <trkpt lat="45.80192" lon="3.10046">
        <ele>394.182</ele>
        <time>2012-02-11T13:39:05Z</time>
      </trkpt>
      <trkpt lat="45.8019" lon="3.10062">
        <ele>391.518</ele>
        <time>2012-02-11T13:39:07Z</time>
      </trkpt>
      <trkpt lat="45.80189" lon="3.1009">
        <ele>387.483</ele>
        <time>2012-02-11T13:39:10Z</time>
      </trkpt>
      <trkpt lat="45.80189" lon="3.10114">
        <ele>383.606</ele>
        <time>2012-02-11T13:39:13Z</time>
      </trkpt>
      <trkpt lat="45.8019" lon="3.10127">
        <ele>381.466</ele>
        <time>2012-02-11T13:39:15Z</time>
      </trkpt>
      <trkpt lat="45.8019" lon="3.10166">
        <ele>376.124</ele>
        <time>2012-02-11T13:39:19Z</time>
      </trkpt>
      <trkpt lat="45.80191" lon="3.10185">
        <ele>373.146</ele>
        <time>2012-02-11T13:39:21Z</time>
      </trkpt>
      <trkpt lat="45.80193" lon="3.10203">
        <ele>370.137</ele>
        <time>2012-02-11T13:39:23Z</time>
      </trkpt>
      <trkpt lat="45.80187" lon="3.10232">
        <ele>365.512</ele>
        <time>2012-02-11T13:39:27Z</time>
      </trkpt>
      <trkpt lat="45.80187" lon="3.10242">
        <ele>365.519</ele>
        <time>2012-02-11T13:39:28Z</time>
      </trkpt>
      <trkpt lat="45.80189" lon="3.10263">
        <ele>363.258</ele>
        <time>2012-02-11T13:39:30Z</time>
      </trkpt>
      <trkpt lat="45.802" lon="3.10322">
        <ele>357.65</ele>
        <time>2012-02-11T13:39:36Z</time>
      </trkpt>
      <trkpt lat="45.802" lon="3.10327">
        <ele>357.069</ele>
        <time>2012-02-11T13:39:38Z</time>
      </trkpt>
      <trkpt lat="45.802" lon="3.10326">
        <ele>356.735</ele>
        <time>2012-02-11T13:39:39Z</time>
      </trkpt>
      <trkpt lat="45.80205" lon="3.10318">
        <ele>358.202</ele>
        <time>2012-02-11T13:40:51Z</time>
      </trkpt>
      <trkpt lat="45.80205" lon="3.10308">
        <ele>358.265</ele>
        <time>2012-02-11T13:40:56Z</time>
      </trkpt>
      <trkpt lat="45.80212" lon="3.10302">
        <ele>358.676</ele>
        <time>2012-02-11T13:41:01Z</time>
      </trkpt>
      <trkpt lat="45.80215" lon="3.10301">
        <ele>358.821</ele>
        <time>2012-02-11T13:41:02Z</time>
      </trkpt>
      <trkpt lat="45.80236" lon="3.10296">
        <ele>360.838</ele>
        <time>2012-02-11T13:41:11Z</time>
      </trkpt>
      <trkpt lat="45.80253" lon="3.1029">
        <ele>363.223</ele>
        <time>2012-02-11T13:41:20Z</time>
      </trkpt>
      <trkpt lat="45.80271" lon="3.10285">
        <ele>365.728</ele>
        <time>2012-02-11T13:41:29Z</time>
      </trkpt>
      <trkpt lat="45.8029" lon="3.1028">
        <ele>367.773</ele>
        <time>2012-02-11T13:41:39Z</time>
      </trkpt>
      <trkpt lat="45.80298" lon="3.10276">
        <ele>368.584</ele>
        <time>2012-02-11T13:41:46Z</time>
      </trkpt>
      <trkpt lat="45.80298" lon="3.10275">
        <ele>368.871</ele>
        <time>2012-02-11T13:41:48Z</time>
      </trkpt>
      <trkpt lat="45.80298" lon="3.1027">
        <ele>369.493</ele>
        <time>2012-02-11T13:41:53Z</time>
      </trkpt>
      <trkpt lat="45.80298" lon="3.10267">
        <ele>369.636</ele>
        <time>2012-02-11T13:42:03Z</time>
      </trkpt>
      <trkpt lat="45.80298" lon="3.10265">
        <ele>369.799</ele>
        <time>2012-02-11T13:42:06Z</time>
      </trkpt>
      <trkpt lat="45.80311" lon="3.10255">
        <ele>368.249</ele>
        <time>2012-02-11T13:42:51Z</time>
      </trkpt>
      <trkpt lat="45.8031" lon="3.10249">
        <ele>368.06</ele>
        <time>2012-02-11T13:42:53Z</time>
      </trkpt>
      <trkpt lat="45.80309" lon="3.10232">
        <ele>369.073</ele>
        <time>2012-02-11T13:42:59Z</time>
      </trkpt>
      <trkpt lat="45.80307" lon="3.10218">
        <ele>370.752</ele>
        <time>2012-02-11T13:43:04Z</time>
      </trkpt>
      <trkpt lat="45.80305" lon="3.10203">
        <ele>372.199</ele>
        <time>2012-02-11T13:43:09Z</time>
      </trkpt>
      <trkpt lat="45.80305" lon="3.1019">
        <ele>373.938</ele>
        <time>2012-02-11T13:43:14Z</time>
      </trkpt>
      <trkpt lat="45.80311" lon="3.10177">
        <ele>375.573</ele>
        <time>2012-02-11T13:43:20Z</time>
      </trkpt>
      <trkpt lat="45.80322" lon="3.10171">
        <ele>377.29</ele>
        <time>2012-02-11T13:43:26Z</time>
      </trkpt>
      <trkpt lat="45.8034" lon="3.10169">
        <ele>377.227</ele>
        <time>2012-02-11T13:43:33Z</time>
      </trkpt>
      <trkpt lat="45.80361" lon="3.1016">
        <ele>376.444</ele>
        <time>2012-02-11T13:43:40Z</time>
      </trkpt>
      <trkpt lat="45.80387" lon="3.1015">
        <ele>375.528</ele>
        <time>2012-02-11T13:43:47Z</time>
      </trkpt>
      <trkpt lat="45.8039" lon="3.10149">
        <ele>375.353</ele>
        <time>2012-02-11T13:43:48Z</time>
      </trkpt>
      <trkpt lat="45.80393" lon="3.10135">
        <ele>375.483</ele>
        <time>2012-02-11T13:43:52Z</time>
      </trkpt>
      <trkpt lat="45.80396" lon="3.10126">
        <ele>376.326</ele>
        <time>2012-02-11T13:43:57Z</time>
      </trkpt>
      <trkpt lat="45.8042" lon="3.10121">
        <ele>374.056</ele>
        <time>2012-02-11T13:44:04Z</time>
      </trkpt>
      <trkpt lat="45.80446" lon="3.10116">
        <ele>373.243</ele>
        <time>2012-02-11T13:44:11Z</time>
      </trkpt>
      <trkpt lat="45.80462" lon="3.10114">
        <ele>372.922</ele>
        <time>2012-02-11T13:44:15Z</time>
      </trkpt>
      <trkpt lat="45.80475" lon="3.10137">
        <ele>370.278</ele>
        <time>2012-02-11T13:44:19Z</time>
      </trkpt>
      <trkpt lat="45.80481" lon="3.10179">
        <ele>365.623</ele>
        <time>2012-02-11T13:44:24Z</time>
      </trkpt>
      <trkpt lat="45.80468" lon="3.10199">
        <ele>366.211</ele>
        <time>2012-02-11T13:44:30Z</time>
      </trkpt>
      <trkpt lat="45.80465" lon="3.10205">
        <ele>367.505</ele>
        <time>2012-02-11T13:44:33Z</time>
      </trkpt>
      <trkpt lat="45.80464" lon="3.10219">
        <ele>370.215</ele>
        <time>2012-02-11T13:44:39Z</time>
      </trkpt>
      <trkpt lat="45.80464" lon="3.10223">
        <ele>369.874</ele>
        <time>2012-02-11T13:44:44Z</time>
      </trkpt>
      <trkpt lat="45.80471" lon="3.10231">
        <ele>369.474</ele>
        <time>2012-02-11T13:45:26Z</time>
      </trkpt>
      <trkpt lat="45.80481" lon="3.10241">
        <ele>365.314</ele>
        <time>2012-02-11T13:45:32Z</time>
      </trkpt>
      <trkpt lat="45.80483" lon="3.10242">
        <ele>364.298</ele>
        <time>2012-02-11T13:45:33Z</time>
      </trkpt>
      <trkpt lat="45.80488" lon="3.1025">
        <ele>360.351</ele>
        <time>2012-02-11T13:45:37Z</time>
      </trkpt>
      <trkpt lat="45.80498" lon="3.10256">
        <ele>354.178</ele>
        <time>2012-02-11T13:45:43Z</time>
      </trkpt>
      <trkpt lat="45.80502" lon="3.10264">
        <ele>349.904</ele>
        <time>2012-02-11T13:45:47Z</time>
      </trkpt>
      <trkpt lat="45.80505" lon="3.10271">
        <ele>348.63</ele>
        <time>2012-02-11T13:45:49Z</time>
      </trkpt>
      <trkpt lat="45.80511" lon="3.10274">
        <ele>345.386</ele>
        <time>2012-02-11T13:45:52Z</time>
      </trkpt>
      <trkpt lat="45.80513" lon="3.10273">
        <ele>343.618</ele>
        <time>2012-02-11T13:45:55Z</time>
      </trkpt>
      <trkpt lat="45.80515" lon="3.10264">
        <ele>343.421</ele>
        <time>2012-02-11T13:46:08Z</time>
      </trkpt>
      <trkpt lat="45.80517" lon="3.10262">
        <ele>343.093</ele>
        <time>2012-02-11T13:46:13Z</time>
      </trkpt>
      <trkpt lat="45.80517" lon="3.10263">
        <ele>342.895</ele>
        <time>2012-02-11T13:47:12Z</time>
      </trkpt>
      <trkpt lat="45.80522" lon="3.1026">
        <ele>343.079</ele>
        <time>2012-02-11T13:47:18Z</time>
      </trkpt>
      <trkpt lat="45.80525" lon="3.10258">
        <ele>343.108</ele>
        <time>2012-02-11T13:47:21Z</time>
      </trkpt>
      <trkpt lat="45.80537" lon="3.10252">
        <ele>343.108</ele>
        <time>2012-02-11T13:47:26Z</time>
      </trkpt>
      <trkpt lat="45.80558" lon="3.10244">
        <ele>342.706</ele>
        <time>2012-02-11T13:47:32Z</time>
      </trkpt>
      <trkpt lat="45.80587" lon="3.10241">
        <ele>341.127</ele>
        <time>2012-02-11T13:47:39Z</time>
      </trkpt>
      <trkpt lat="45.80634" lon="3.10245">
        <ele>341.319</ele>
        <time>2012-02-11T13:47:50Z</time>
      </trkpt>
      <trkpt lat="45.80661" lon="3.1025">
        <ele>342.134</ele>
        <time>2012-02-11T13:47:57Z</time>
      </trkpt>
      <trkpt lat="45.80687" lon="3.1025">
        <ele>342.148</ele>
        <time>2012-02-11T13:48:04Z</time>
      </trkpt>
      <trkpt lat="45.80717" lon="3.10239">
        <ele>342.897</ele>
        <time>2012-02-11T13:48:13Z</time>
      </trkpt>
      <trkpt lat="45.80737" lon="3.10237">
        <ele>343.412</ele>
        <time>2012-02-11T13:48:20Z</time>
      </trkpt>
      <trkpt lat="45.80744" lon="3.1024">
        <ele>343.533</ele>
        <time>2012-02-11T13:48:23Z</time>
      </trkpt>
      <trkpt lat="45.80752" lon="3.10232">
        <ele>343.616</ele>
        <time>2012-02-11T13:48:27Z</time>
      </trkpt>
      <trkpt lat="45.80759" lon="3.10215">
        <ele>344.205</ele>
        <time>2012-02-11T13:48:35Z</time>
      </trkpt>
      <trkpt lat="45.80765" lon="3.10187">
        <ele>344.436</ele>
        <time>2012-02-11T13:48:41Z</time>
      </trkpt>
      <trkpt lat="45.80767" lon="3.10146">
        <ele>345.643</ele>
        <time>2012-02-11T13:48:49Z</time>
      </trkpt>
      <trkpt lat="45.80772" lon="3.10102">
        <ele>346.577</ele>
        <time>2012-02-11T13:48:58Z</time>
      </trkpt>
      <trkpt lat="45.80775" lon="3.10059">
        <ele>348.088</ele>
        <time>2012-02-11T13:49:07Z</time>
      </trkpt>
      <trkpt lat="45.80779" lon="3.10032">
        <ele>348.98</ele>
        <time>2012-02-11T13:49:12Z</time>
      </trkpt>
      <trkpt lat="45.80784" lon="3.10003">
        <ele>352.279</ele>
        <time>2012-02-11T13:49:20Z</time>
      </trkpt>
      <trkpt lat="45.80786" lon="3.09999">
        <ele>352.916</ele>
        <time>2012-02-11T13:49:22Z</time>
      </trkpt>
      <trkpt lat="45.80791" lon="3.09997">
        <ele>353.768</ele>
        <time>2012-02-11T13:49:27Z</time>
      </trkpt>
      <trkpt lat="45.80794" lon="3.09997">
        <ele>354.355</ele>
        <time>2012-02-11T13:49:32Z</time>
      </trkpt>
      <trkpt lat="45.80797" lon="3.09994">
        <ele>354.677</ele>
        <time>2012-02-11T13:49:44Z</time>
      </trkpt>
      <trkpt lat="45.80804" lon="3.09995">
        <ele>356.618</ele>
        <time>2012-02-11T13:53:19Z</time>
      </trkpt>
      <trkpt lat="45.80812" lon="3.09991">
        <ele>356.611</ele>
        <time>2012-02-11T13:53:25Z</time>
      </trkpt>
      <trkpt lat="45.80829" lon="3.09988">
        <ele>358.318</ele>
        <time>2012-02-11T13:53:32Z</time>
      </trkpt>
      <trkpt lat="45.80847" lon="3.09988">
        <ele>360.053</ele>
        <time>2012-02-11T13:53:39Z</time>
      </trkpt>
      <trkpt lat="45.80869" lon="3.0999">
        <ele>362.207</ele>
        <time>2012-02-11T13:53:48Z</time>
      </trkpt>
      <trkpt lat="45.80891" lon="3.09992">
        <ele>364.183</ele>
        <time>2012-02-11T13:53:57Z</time>
      </trkpt>
      <trkpt lat="45.80915" lon="3.09993">
        <ele>367.115</ele>
        <time>2012-02-11T13:54:07Z</time>
      </trkpt>
      <trkpt lat="45.80931" lon="3.09992">
        <ele>368.488</ele>
        <time>2012-02-11T13:54:14Z</time>
      </trkpt>
      <trkpt lat="45.80936" lon="3.09979">
        <ele>370.169</ele>
        <time>2012-02-11T13:54:19Z</time>
      </trkpt>
      <trkpt lat="45.80933" lon="3.09962">
        <ele>372.198</ele>
        <time>2012-02-11T13:54:25Z</time>
      </trkpt>
      <trkpt lat="45.80925" lon="3.09941">
        <ele>374.888</ele>
        <time>2012-02-11T13:54:34Z</time>
      </trkpt>
      <trkpt lat="45.80918" lon="3.09923">
        <ele>377.207</ele>
        <time>2012-02-11T13:54:42Z</time>
      </trkpt>
      <trkpt lat="45.80912" lon="3.09896">
        <ele>380.857</ele>
        <time>2012-02-11T13:54:53Z</time>
      </trkpt>
      <trkpt lat="45.80907" lon="3.09872">
        <ele>383.398</ele>
        <time>2012-02-11T13:55:01Z</time>
      </trkpt>
      <trkpt lat="45.80903" lon="3.09844">
        <ele>385.406</ele>
        <time>2012-02-11T13:55:10Z</time>
      </trkpt>
      <trkpt lat="45.80902" lon="3.09818">
        <ele>386.687</ele>
        <time>2012-02-11T13:55:18Z</time>
      </trkpt>
      <trkpt lat="45.80901" lon="3.09789">
        <ele>388.285</ele>
        <time>2012-02-11T13:55:27Z</time>
      </trkpt>
      <trkpt lat="45.80905" lon="3.09765">
        <ele>389.563</ele>
        <time>2012-02-11T13:55:35Z</time>
      </trkpt>
      <trkpt lat="45.80913" lon="3.09757">
        <ele>390.763</ele>
        <time>2012-02-11T13:55:40Z</time>
      </trkpt>
      <trkpt lat="45.80924" lon="3.0975">
        <ele>392.399</ele>
        <time>2012-02-11T13:55:47Z</time>
      </trkpt>
      <trkpt lat="45.80941" lon="3.0974">
        <ele>395.382</ele>
        <time>2012-02-11T13:55:57Z</time>
      </trkpt>
      <trkpt lat="45.80954" lon="3.09731">
        <ele>397.327</ele>
        <time>2012-02-11T13:56:04Z</time>
      </trkpt>
      <trkpt lat="45.80967" lon="3.09711">
        <ele>399.039</ele>
        <time>2012-02-11T13:56:12Z</time>
      </trkpt>
      <trkpt lat="45.80981" lon="3.09699">
        <ele>400.14</ele>
        <time>2012-02-11T13:56:19Z</time>
      </trkpt>
      <trkpt lat="45.80997" lon="3.09694">
        <ele>402.216</ele>
        <time>2012-02-11T13:56:27Z</time>
      </trkpt>
      <trkpt lat="45.81013" lon="3.09703">
        <ele>404.901</ele>
        <time>2012-02-11T13:56:36Z</time>
      </trkpt>
      <trkpt lat="45.81029" lon="3.09705">
        <ele>406.433</ele>
        <time>2012-02-11T13:56:43Z</time>
      </trkpt>
      <trkpt lat="45.81047" lon="3.09701">
        <ele>407.142</ele>
        <time>2012-02-11T13:56:51Z</time>
      </trkpt>
      <trkpt lat="45.81069" lon="3.09687">
        <ele>408.682</ele>
        <time>2012-02-11T13:57:01Z</time>
      </trkpt>
      <trkpt lat="45.8109" lon="3.09669">
        <ele>409.698</ele>
        <time>2012-02-11T13:57:11Z</time>
      </trkpt>
      <trkpt lat="45.81107" lon="3.0966">
        <ele>410.935</ele>
        <time>2012-02-11T13:57:19Z</time>
      </trkpt>
      <trkpt lat="45.81134" lon="3.09658">
        <ele>413.077</ele>
        <time>2012-02-11T13:57:30Z</time>
      </trkpt>
      <trkpt lat="45.81155" lon="3.09654">
        <ele>414.358</ele>
        <time>2012-02-11T13:57:39Z</time>
      </trkpt>
      <trkpt lat="45.81176" lon="3.09649">
        <ele>416.574</ele>
        <time>2012-02-11T13:57:48Z</time>
      </trkpt>
      <trkpt lat="45.81194" lon="3.09645">
        <ele>418.824</ele>
        <time>2012-02-11T13:57:56Z</time>
      </trkpt>
      <trkpt lat="45.81218" lon="3.09638">
        <ele>420.711</ele>
        <time>2012-02-11T13:58:07Z</time>
      </trkpt>
      <trkpt lat="45.81243" lon="3.09624">
        <ele>424.263</ele>
        <time>2012-02-11T13:58:19Z</time>
      </trkpt>
      <trkpt lat="45.8126" lon="3.09612">
        <ele>426.87</ele>
        <time>2012-02-11T13:58:28Z</time>
      </trkpt>
      <trkpt lat="45.81274" lon="3.09602">
        <ele>430.189</ele>
        <time>2012-02-11T13:58:36Z</time>
      </trkpt>
      <trkpt lat="45.81286" lon="3.09595">
        <ele>433.077</ele>
        <time>2012-02-11T13:58:42Z</time>
      </trkpt>
      <trkpt lat="45.81306" lon="3.09593">
        <ele>435.952</ele>
        <time>2012-02-11T13:58:51Z</time>
      </trkpt>
      <trkpt lat="45.81325" lon="3.09589">
        <ele>437.046</ele>
        <time>2012-02-11T13:58:59Z</time>
      </trkpt>
      <trkpt lat="45.81328" lon="3.09588">
        <ele>437.363</ele>
        <time>2012-02-11T13:59:03Z</time>
      </trkpt>
      <trkpt lat="45.81335" lon="3.09585">
        <ele>437.463</ele>
        <time>2012-02-11T13:59:35Z</time>
      </trkpt>
      <trkpt lat="45.81349" lon="3.0958">
        <ele>437.246</ele>
        <time>2012-02-11T13:59:41Z</time>
      </trkpt>
      <trkpt lat="45.81376" lon="3.09572">
        <ele>436.616</ele>
        <time>2012-02-11T13:59:49Z</time>
      </trkpt>
      <trkpt lat="45.814" lon="3.09563">
        <ele>435.41</ele>
        <time>2012-02-11T13:59:56Z</time>
      </trkpt>
      <trkpt lat="45.81411" lon="3.09556">
        <ele>434.842</ele>
        <time>2012-02-11T13:59:59Z</time>
      </trkpt>
      <trkpt lat="45.81443" lon="3.09547">
        <ele>433.804</ele>
        <time>2012-02-11T14:00:06Z</time>
      </trkpt>
      <trkpt lat="45.81465" lon="3.09543">
        <ele>434.956</ele>
        <time>2012-02-11T14:00:12Z</time>
      </trkpt>
      <trkpt lat="45.81486" lon="3.09536">
        <ele>437.028</ele>
        <time>2012-02-11T14:00:19Z</time>
      </trkpt>
      <trkpt lat="45.81506" lon="3.09526">
        <ele>436.526</ele>
        <time>2012-02-11T14:00:25Z</time>
      </trkpt>
      <trkpt lat="45.81536" lon="3.09505">
        <ele>433.578</ele>
        <time>2012-02-11T14:00:32Z</time>
      </trkpt>
      <trkpt lat="45.81565" lon="3.09481">
        <ele>430.836</ele>
        <time>2012-02-11T14:00:38Z</time>
      </trkpt>
      <trkpt lat="45.81581" lon="3.09465">
        <ele>430.809</ele>
        <time>2012-02-11T14:00:43Z</time>
      </trkpt>
      <trkpt lat="45.81589" lon="3.09449">
        <ele>432.414</ele>
        <time>2012-02-11T14:00:48Z</time>
      </trkpt>
      <trkpt lat="45.816" lon="3.09436">
        <ele>434.634</ele>
        <time>2012-02-11T14:00:54Z</time>
      </trkpt>
      <trkpt lat="45.81607" lon="3.09423">
        <ele>435.566</ele>
        <time>2012-02-11T14:01:00Z</time>
      </trkpt>
      <trkpt lat="45.81608" lon="3.09412">
        <ele>438.871</ele>
        <time>2012-02-11T14:01:07Z</time>
      </trkpt>
      <trkpt lat="45.81604" lon="3.09406">
        <ele>441.152</ele>
        <time>2012-02-11T14:01:13Z</time>
      </trkpt>
      <trkpt lat="45.81604" lon="3.09406">
        <ele>441.36</ele>
        <time>2012-02-11T14:01:14Z</time>
      </trkpt>
      <trkpt lat="45.81603" lon="3.09394">
        <ele>443.143</ele>
        <time>2012-02-11T14:01:36Z</time>
      </trkpt>
      <trkpt lat="45.81602" lon="3.09385">
        <ele>445.325</ele>
        <time>2012-02-11T14:01:45Z</time>
      </trkpt>
      <trkpt lat="45.816" lon="3.09377">
        <ele>447.821</ele>
        <time>2012-02-11T14:01:55Z</time>
      </trkpt>
      <trkpt lat="45.81599" lon="3.09367">
        <ele>450.027</ele>
        <time>2012-02-11T14:02:05Z</time>
      </trkpt>
      <trkpt lat="45.81599" lon="3.09365">
        <ele>450.53</ele>
        <time>2012-02-11T14:02:09Z</time>
      </trkpt>
      <trkpt lat="45.81598" lon="3.0936">
        <ele>451.136</ele>
        <time>2012-02-11T14:02:16Z</time>
      </trkpt>
      <trkpt lat="45.81598" lon="3.09351">
        <ele>452.95</ele>
        <time>2012-02-11T14:02:25Z</time>
      </trkpt>
      <trkpt lat="45.81596" lon="3.09342">
        <ele>454.248</ele>
        <time>2012-02-11T14:02:33Z</time>
      </trkpt>
      <trkpt lat="45.81593" lon="3.09335">
        <ele>455.848</ele>
        <time>2012-02-11T14:02:42Z</time>
      </trkpt>
      <trkpt lat="45.81591" lon="3.09332">
        <ele>457.389</ele>
        <time>2012-02-11T14:02:49Z</time>
      </trkpt>
      <trkpt lat="45.8159" lon="3.09329">
        <ele>457.977</ele>
        <time>2012-02-11T14:02:52Z</time>
      </trkpt>
      <trkpt lat="45.81589" lon="3.09325">
        <ele>458.845</ele>
        <time>2012-02-11T14:02:57Z</time>
      </trkpt>
      <trkpt lat="45.81588" lon="3.09322">
        <ele>459.921</ele>
        <time>2012-02-11T14:03:02Z</time>
      </trkpt>
      <trkpt lat="45.81586" lon="3.09315">
        <ele>461.457</ele>
        <time>2012-02-11T14:03:10Z</time>
      </trkpt>
      <trkpt lat="45.81584" lon="3.09307">
        <ele>462.77</ele>
        <time>2012-02-11T14:03:19Z</time>
      </trkpt>
      <trkpt lat="45.81582" lon="3.093">
        <ele>464.619</ele>
        <time>2012-02-11T14:03:27Z</time>
      </trkpt>
      <trkpt lat="45.81579" lon="3.09294">
        <ele>466.22</ele>
        <time>2012-02-11T14:03:36Z</time>
      </trkpt>
      <trkpt lat="45.81577" lon="3.09283">
        <ele>468.089</ele>
        <time>2012-02-11T14:03:45Z</time>
      </trkpt>
      <trkpt lat="45.81579" lon="3.09276">
        <ele>469.684</ele>
        <time>2012-02-11T14:03:53Z</time>
      </trkpt>
      <trkpt lat="45.81582" lon="3.09264">
        <ele>470.151</ele>
        <time>2012-02-11T14:04:02Z</time>
      </trkpt>
      <trkpt lat="45.81583" lon="3.09264">
        <ele>470.17</ele>
        <time>2012-02-11T14:04:03Z</time>
      </trkpt>
      <trkpt lat="45.81588" lon="3.09259">
        <ele>469.743</ele>
        <time>2012-02-11T14:04:34Z</time>
      </trkpt>
      <trkpt lat="45.81602" lon="3.09265">
        <ele>468.676</ele>
        <time>2012-02-11T14:04:39Z</time>
      </trkpt>
      <trkpt lat="45.81612" lon="3.09264">
        <ele>467.014</ele>
        <time>2012-02-11T14:04:43Z</time>
      </trkpt>
      <trkpt lat="45.81618" lon="3.09263">
        <ele>465.84</ele>
        <time>2012-02-11T14:04:48Z</time>
      </trkpt>
      <trkpt lat="45.81622" lon="3.09259">
        <ele>465.014</ele>
        <time>2012-02-11T14:04:51Z</time>
      </trkpt>
      <trkpt lat="45.81623" lon="3.09259">
        <ele>464.682</ele>
        <time>2012-02-11T14:04:54Z</time>
      </trkpt>
      <trkpt lat="45.81625" lon="3.0926">
        <ele>465.005</ele>
        <time>2012-02-11T14:04:57Z</time>
      </trkpt>
      <trkpt lat="45.81636" lon="3.09266">
        <ele>464.479</ele>
        <time>2012-02-11T14:05:04Z</time>
      </trkpt>
      <trkpt lat="45.8165" lon="3.0927">
        <ele>463.535</ele>
        <time>2012-02-11T14:05:08Z</time>
      </trkpt>
      <trkpt lat="45.81656" lon="3.09272">
        <ele>463.313</ele>
        <time>2012-02-11T14:05:10Z</time>
      </trkpt>
      <trkpt lat="45.81672" lon="3.09279">
        <ele>463.581</ele>
        <time>2012-02-11T14:05:15Z</time>
      </trkpt>
      <trkpt lat="45.81682" lon="3.09283">
        <ele>463.367</ele>
        <time>2012-02-11T14:05:18Z</time>
      </trkpt>
      <trkpt lat="45.81695" lon="3.09291">
        <ele>462.575</ele>
        <time>2012-02-11T14:05:21Z</time>
      </trkpt>
      <trkpt lat="45.81717" lon="3.09294">
        <ele>461.294</ele>
        <time>2012-02-11T14:05:26Z</time>
      </trkpt>
      <trkpt lat="45.81742" lon="3.0929">
        <ele>461.078</ele>
        <time>2012-02-11T14:05:31Z</time>
      </trkpt>
      <trkpt lat="45.81747" lon="3.09289">
        <ele>461.16</ele>
        <time>2012-02-11T14:05:32Z</time>
      </trkpt>
      <trkpt lat="45.81779" lon="3.09293">
        <ele>460.806</ele>
        <time>2012-02-11T14:05:38Z</time>
      </trkpt>
      <trkpt lat="45.8179" lon="3.09295">
        <ele>460.276</ele>
        <time>2012-02-11T14:05:40Z</time>
      </trkpt>
      <trkpt lat="45.81808" lon="3.09297">
        <ele>459.873</ele>
        <time>2012-02-11T14:05:44Z</time>
      </trkpt>
      <trkpt lat="45.81827" lon="3.09301">
        <ele>460.366</ele>
        <time>2012-02-11T14:05:48Z</time>
      </trkpt>
      <trkpt lat="45.81863" lon="3.09308">
        <ele>460.754</ele>
        <time>2012-02-11T14:05:56Z</time>
      </trkpt>
      <trkpt lat="45.81903" lon="3.09317">
        <ele>460.737</ele>
        <time>2012-02-11T14:06:05Z</time>
      </trkpt>
      <trkpt lat="45.81927" lon="3.09332">
        <ele>459.788</ele>
        <time>2012-02-11T14:06:10Z</time>
      </trkpt>
      <trkpt lat="45.81933" lon="3.09336">
        <ele>459.261</ele>
        <time>2012-02-11T14:06:11Z</time>
      </trkpt>
      <trkpt lat="45.81954" lon="3.09362">
        <ele>456.372</ele>
        <time>2012-02-11T14:06:15Z</time>
      </trkpt>
      <trkpt lat="45.81968" lon="3.09388">
        <ele>454.434</ele>
        <time>2012-02-11T14:06:18Z</time>
      </trkpt>
      <trkpt lat="45.81997" lon="3.0943">
        <ele>450.944</ele>
        <time>2012-02-11T14:06:23Z</time>
      </trkpt>
      <trkpt lat="45.82029" lon="3.09471">
        <ele>448.078</ele>
        <time>2012-02-11T14:06:28Z</time>
      </trkpt>
      <trkpt lat="45.8204" lon="3.09486">
        <ele>447.093</ele>
        <time>2012-02-11T14:06:30Z</time>
      </trkpt>
      <trkpt lat="45.82071" lon="3.09528">
        <ele>444.956</ele>
        <time>2012-02-11T14:06:36Z</time>
      </trkpt>
      <trkpt lat="45.82099" lon="3.09569">
        <ele>442.582</ele>
        <time>2012-02-11T14:06:42Z</time>
      </trkpt>
      <trkpt lat="45.82114" lon="3.09584">
        <ele>441.129</ele>
        <time>2012-02-11T14:06:45Z</time>
      </trkpt>
      <trkpt lat="45.82137" lon="3.09595">
        <ele>437.647</ele>
        <time>2012-02-11T14:06:49Z</time>
      </trkpt>
      <trkpt lat="45.82152" lon="3.09597">
        <ele>434.974</ele>
        <time>2012-02-11T14:06:51Z</time>
      </trkpt>
      <trkpt lat="45.82168" lon="3.09603">
        <ele>433.408</ele>
        <time>2012-02-11T14:06:53Z</time>
      </trkpt>
      <trkpt lat="45.82203" lon="3.09606">
        <ele>427.812</ele>
        <time>2012-02-11T14:06:57Z</time>
      </trkpt>
      <trkpt lat="45.82229" lon="3.09601">
        <ele>425.581</ele>
        <time>2012-02-11T14:07:00Z</time>
      </trkpt>
      <trkpt lat="45.82271" lon="3.0961">
        <ele>422.076</ele>
        <time>2012-02-11T14:07:05Z</time>
      </trkpt>
      <trkpt lat="45.82323" lon="3.09643">
        <ele>414.614</ele>
        <time>2012-02-11T14:07:11Z</time>
      </trkpt>
      <trkpt lat="45.8237" lon="3.09672">
        <ele>407.286</ele>
        <time>2012-02-11T14:07:16Z</time>
      </trkpt>
      <trkpt lat="45.82397" lon="3.09691">
        <ele>404.65</ele>
        <time>2012-02-11T14:07:19Z</time>
      </trkpt>
      <trkpt lat="45.82405" lon="3.09697">
        <ele>403.126</ele>
        <time>2012-02-11T14:07:20Z</time>
      </trkpt>
      <trkpt lat="45.82422" lon="3.09714">
        <ele>398.203</ele>
        <time>2012-02-11T14:07:24Z</time>
      </trkpt>
      <trkpt lat="45.82422" lon="3.09713">
        <ele>395.805</ele>
        <time>2012-02-11T14:07:28Z</time>
      </trkpt>
      <trkpt lat="45.82422" lon="3.09713">
        <ele>395.817</ele>
        <time>2012-02-11T14:07:29Z</time>
      </trkpt>
      <trkpt lat="45.82431" lon="3.09741">
        <ele>393.707</ele>
        <time>2012-02-11T14:08:32Z</time>
      </trkpt>
      <trkpt lat="45.82434" lon="3.09749">
        <ele>392.782</ele>
        <time>2012-02-11T14:08:33Z</time>
      </trkpt>
      <trkpt lat="45.82442" lon="3.09767">
        <ele>391.557</ele>
        <time>2012-02-11T14:08:35Z</time>
      </trkpt>
      <trkpt lat="45.82456" lon="3.09784">
        <ele>388.213</ele>
        <time>2012-02-11T14:08:37Z</time>
      </trkpt>
      <trkpt lat="45.82472" lon="3.09801">
        <ele>384.432</ele>
        <time>2012-02-11T14:08:39Z</time>
      </trkpt>
      <trkpt lat="45.82512" lon="3.09826">
        <ele>375.993</ele>
        <time>2012-02-11T14:08:43Z</time>
      </trkpt>
      <trkpt lat="45.82522" lon="3.09829">
        <ele>374.181</ele>
        <time>2012-02-11T14:08:44Z</time>
      </trkpt>
      <trkpt lat="45.82597" lon="3.09844">
        <ele>364.205</ele>
        <time>2012-02-11T14:08:51Z</time>
      </trkpt>
      <trkpt lat="45.82652" lon="3.09851">
        <ele>357.932</ele>
        <time>2012-02-11T14:08:56Z</time>
      </trkpt>
      <trkpt lat="45.82693" lon="3.09846">
        <ele>355.169</ele>
        <time>2012-02-11T14:09:00Z</time>
      </trkpt>
      <trkpt lat="45.82729" lon="3.09837">
        <ele>352.749</ele>
        <time>2012-02-11T14:09:04Z</time>
      </trkpt>
      <trkpt lat="45.82783" lon="3.09826">
        <ele>349.058</ele>
        <time>2012-02-11T14:09:10Z</time>
      </trkpt>
      <trkpt lat="45.82828" lon="3.09813">
        <ele>344.63</ele>
        <time>2012-02-11T14:09:15Z</time>
      </trkpt>
      <trkpt lat="45.82856" lon="3.09815">
        <ele>342.236</ele>
        <time>2012-02-11T14:09:19Z</time>
      </trkpt>
      <trkpt lat="45.8286" lon="3.09813">
        <ele>342.093</ele>
        <time>2012-02-11T14:09:20Z</time>
      </trkpt>
      <trkpt lat="45.82862" lon="3.098">
        <ele>342.195</ele>
        <time>2012-02-11T14:09:22Z</time>
      </trkpt>
      <trkpt lat="45.82859" lon="3.09785">
        <ele>342.135</ele>
        <time>2012-02-11T14:09:24Z</time>
      </trkpt>
      <trkpt lat="45.8286" lon="3.09736">
        <ele>343.101</ele>
        <time>2012-02-11T14:09:31Z</time>
      </trkpt>
      <trkpt lat="45.82858" lon="3.09687">
        <ele>344.37</ele>
        <time>2012-02-11T14:09:39Z</time>
      </trkpt>
      <trkpt lat="45.82862" lon="3.09641">
        <ele>345.094</ele>
        <time>2012-02-11T14:09:46Z</time>
      </trkpt>
      <trkpt lat="45.82864" lon="3.09628">
        <ele>345.371</ele>
        <time>2012-02-11T14:09:48Z</time>
      </trkpt>
      <trkpt lat="45.82876" lon="3.09584">
        <ele>346.056</ele>
        <time>2012-02-11T14:09:56Z</time>
      </trkpt>
      <trkpt lat="45.8289" lon="3.09537">
        <ele>346.086</ele>
        <time>2012-02-11T14:10:05Z</time>
      </trkpt>
      <trkpt lat="45.82906" lon="3.0949">
        <ele>346.426</ele>
        <time>2012-02-11T14:10:14Z</time>
      </trkpt>
      <trkpt lat="45.82918" lon="3.09451">
        <ele>346.3</ele>
        <time>2012-02-11T14:10:21Z</time>
      </trkpt>
      <trkpt lat="45.82934" lon="3.09395">
        <ele>347.079</ele>
        <time>2012-02-11T14:10:31Z</time>
      </trkpt>
      <trkpt lat="45.8295" lon="3.09338">
        <ele>347.411</ele>
        <time>2012-02-11T14:10:41Z</time>
      </trkpt>
      <trkpt lat="45.8296" lon="3.09287">
        <ele>347.651</ele>
        <time>2012-02-11T14:10:50Z</time>
      </trkpt>
      <trkpt lat="45.82962" lon="3.09246">
        <ele>347.504</ele>
        <time>2012-02-11T14:10:56Z</time>
      </trkpt>
      <trkpt lat="45.82964" lon="3.09193">
        <ele>345.966</ele>
        <time>2012-02-11T14:11:04Z</time>
      </trkpt>
      <trkpt lat="45.82963" lon="3.09134">
        <ele>346.267</ele>
        <time>2012-02-11T14:11:13Z</time>
      </trkpt>
      <trkpt lat="45.82962" lon="3.09127">
        <ele>346.234</ele>
        <time>2012-02-11T14:11:14Z</time>
      </trkpt>
      <trkpt lat="45.82947" lon="3.09079">
        <ele>346.289</ele>
        <time>2012-02-11T14:11:22Z</time>
      </trkpt>
      <trkpt lat="45.8293" lon="3.09035">
        <ele>346.773</ele>
        <time>2012-02-11T14:11:30Z</time>
      </trkpt>
      <trkpt lat="45.82915" lon="3.09003">
        <ele>346.825</ele>
        <time>2012-02-11T14:11:36Z</time>
      </trkpt>
      <trkpt lat="45.82896" lon="3.08986">
        <ele>347.169</ele>
        <time>2012-02-11T14:11:41Z</time>
      </trkpt>
      <trkpt lat="45.82889" lon="3.08972">
        <ele>347.596</ele>
        <time>2012-02-11T14:11:44Z</time>
      </trkpt>
      <trkpt lat="45.82888" lon="3.0896">
        <ele>347.906</ele>
        <time>2012-02-11T14:11:46Z</time>
      </trkpt>
      <trkpt lat="45.8289" lon="3.08911">
        <ele>348.141</ele>
        <time>2012-02-11T14:11:53Z</time>
      </trkpt>
      <trkpt lat="45.8289" lon="3.08888">
        <ele>348.664</ele>
        <time>2012-02-11T14:11:57Z</time>
      </trkpt>
      <trkpt lat="45.82884" lon="3.0884">
        <ele>350.715</ele>
        <time>2012-02-11T14:12:05Z</time>
      </trkpt>
      <trkpt lat="45.8288" lon="3.08814">
        <ele>350.937</ele>
        <time>2012-02-11T14:12:09Z</time>
      </trkpt>
      <trkpt lat="45.82863" lon="3.08778">
        <ele>352.152</ele>
        <time>2012-02-11T14:12:16Z</time>
      </trkpt>
      <trkpt lat="45.82839" lon="3.08737">
        <ele>353.689</ele>
        <time>2012-02-11T14:12:25Z</time>
      </trkpt>
      <trkpt lat="45.82808" lon="3.08684">
        <ele>353.843</ele>
        <time>2012-02-11T14:12:35Z</time>
      </trkpt>
      <trkpt lat="45.82784" lon="3.08641">
        <ele>353.509</ele>
        <time>2012-02-11T14:12:43Z</time>
      </trkpt>
      <trkpt lat="45.82759" lon="3.08592">
        <ele>353.868</ele>
        <time>2012-02-11T14:12:52Z</time>
      </trkpt>
      <trkpt lat="45.8273" lon="3.08556">
        <ele>353.96</ele>
        <time>2012-02-11T14:13:00Z</time>
      </trkpt>
      <trkpt lat="45.82711" lon="3.0854">
        <ele>354.103</ele>
        <time>2012-02-11T14:13:05Z</time>
      </trkpt>
      <trkpt lat="45.82684" lon="3.08517">
        <ele>354.488</ele>
        <time>2012-02-11T14:13:13Z</time>
      </trkpt>
      <trkpt lat="45.82665" lon="3.08517">
        <ele>354.885</ele>
        <time>2012-02-11T14:13:18Z</time>
      </trkpt>
      <trkpt lat="45.82639" lon="3.08525">
        <ele>355.862</ele>
        <time>2012-02-11T14:13:25Z</time>
      </trkpt>
      <trkpt lat="45.8261" lon="3.08522">
        <ele>357.348</ele>
        <time>2012-02-11T14:13:33Z</time>
      </trkpt>
      <trkpt lat="45.82579" lon="3.08521">
        <ele>358.631</ele>
        <time>2012-02-11T14:13:42Z</time>
      </trkpt>
      <trkpt lat="45.82552" lon="3.08519">
        <ele>359.987</ele>
        <time>2012-02-11T14:13:50Z</time>
      </trkpt>
      <trkpt lat="45.82544" lon="3.08528">
        <ele>360.796</ele>
        <time>2012-02-11T14:13:54Z</time>
      </trkpt>
      <trkpt lat="45.82533" lon="3.08548">
        <ele>362.334</ele>
        <time>2012-02-11T14:14:01Z</time>
      </trkpt>
      <trkpt lat="45.82523" lon="3.08558">
        <ele>363.372</ele>
        <time>2012-02-11T14:14:06Z</time>
      </trkpt>
      <trkpt lat="45.82504" lon="3.08563">
        <ele>365.824</ele>
        <time>2012-02-11T14:14:15Z</time>
      </trkpt>
      <trkpt lat="45.82491" lon="3.08564">
        <ele>367.582</ele>
        <time>2012-02-11T14:14:22Z</time>
      </trkpt>
      <trkpt lat="45.8247" lon="3.08573">
        <ele>370.65</ele>
        <time>2012-02-11T14:14:33Z</time>
      </trkpt>
      <trkpt lat="45.82458" lon="3.0858">
        <ele>372.878</ele>
        <time>2012-02-11T14:14:40Z</time>
      </trkpt>
      <trkpt lat="45.82441" lon="3.08593">
        <ele>375.921</ele>
        <time>2012-02-11T14:14:50Z</time>
      </trkpt>
      <trkpt lat="45.82429" lon="3.08605">
        <ele>377.152</ele>
        <time>2012-02-11T14:14:57Z</time>
      </trkpt>
      <trkpt lat="45.82417" lon="3.08617">
        <ele>378.596</ele>
        <time>2012-02-11T14:15:04Z</time>
      </trkpt>
      <trkpt lat="45.82397" lon="3.08637">
        <ele>380.471</ele>
        <time>2012-02-11T14:15:15Z</time>
      </trkpt>
      <trkpt lat="45.82381" lon="3.08652">
        <ele>381.987</ele>
        <time>2012-02-11T14:15:24Z</time>
      </trkpt>
      <trkpt lat="45.82361" lon="3.08668">
        <ele>383.742</ele>
        <time>2012-02-11T14:15:34Z</time>
      </trkpt>
      <trkpt lat="45.82339" lon="3.08686">
        <ele>385.738</ele>
        <time>2012-02-11T14:15:45Z</time>
      </trkpt>
      <trkpt lat="45.82318" lon="3.08704">
        <ele>388.043</ele>
        <time>2012-02-11T14:15:56Z</time>
      </trkpt>
      <trkpt lat="45.82306" lon="3.08714">
        <ele>389.661</ele>
        <time>2012-02-11T14:16:03Z</time>
      </trkpt>
      <trkpt lat="45.8229" lon="3.08724">
        <ele>391.9</ele>
        <time>2012-02-11T14:16:12Z</time>
      </trkpt>
      <trkpt lat="45.82277" lon="3.08734">
        <ele>394.106</ele>
        <time>2012-02-11T14:16:20Z</time>
      </trkpt>
      <trkpt lat="45.82261" lon="3.08741">
        <ele>396.558</ele>
        <time>2012-02-11T14:16:29Z</time>
      </trkpt>
      <trkpt lat="45.82247" lon="3.08739">
        <ele>398.894</ele>
        <time>2012-02-11T14:16:37Z</time>
      </trkpt>
      <trkpt lat="45.82233" lon="3.08744">
        <ele>401.375</ele>
        <time>2012-02-11T14:16:45Z</time>
      </trkpt>
      <trkpt lat="45.82225" lon="3.08751">
        <ele>403.941</ele>
        <time>2012-02-11T14:16:51Z</time>
      </trkpt>
      <trkpt lat="45.82212" lon="3.08758">
        <ele>407.639</ele>
        <time>2012-02-11T14:17:01Z</time>
      </trkpt>
      <trkpt lat="45.82197" lon="3.08767">
        <ele>411.103</ele>
        <time>2012-02-11T14:17:11Z</time>
      </trkpt>
      <trkpt lat="45.82184" lon="3.08776">
        <ele>414.368</ele>
        <time>2012-02-11T14:17:21Z</time>
      </trkpt>
      <trkpt lat="45.82164" lon="3.08784">
        <ele>417.284</ele>
        <time>2012-02-11T14:17:33Z</time>
      </trkpt>
      <trkpt lat="45.8215" lon="3.08792">
        <ele>419.2</ele>
        <time>2012-02-11T14:17:42Z</time>
      </trkpt>
      <trkpt lat="45.8214" lon="3.08809">
        <ele>421.424</ele>
        <time>2012-02-11T14:17:52Z</time>
      </trkpt>
      <trkpt lat="45.82129" lon="3.08828">
        <ele>423.967</ele>
        <time>2012-02-11T14:18:03Z</time>
      </trkpt>
      <trkpt lat="45.82117" lon="3.08846">
        <ele>427.624</ele>
        <time>2012-02-11T14:18:14Z</time>
      </trkpt>
      <trkpt lat="45.8211" lon="3.08859">
        <ele>430.191</ele>
        <time>2012-02-11T14:18:22Z</time>
      </trkpt>
      <trkpt lat="45.82101" lon="3.08872">
        <ele>433.548</ele>
        <time>2012-02-11T14:18:31Z</time>
      </trkpt>
      <trkpt lat="45.82092" lon="3.08882">
        <ele>435.441</ele>
        <time>2012-02-11T14:18:39Z</time>
      </trkpt>
      <trkpt lat="45.82081" lon="3.08891">
        <ele>437.024</ele>
        <time>2012-02-11T14:18:47Z</time>
      </trkpt>
      <trkpt lat="45.82071" lon="3.089">
        <ele>438.585</ele>
        <time>2012-02-11T14:18:55Z</time>
      </trkpt>
      <trkpt lat="45.82058" lon="3.08906">
        <ele>440.897</ele>
        <time>2012-02-11T14:19:04Z</time>
      </trkpt>
      <trkpt lat="45.82044" lon="3.08911">
        <ele>443.04</ele>
        <time>2012-02-11T14:19:13Z</time>
      </trkpt>
      <trkpt lat="45.82028" lon="3.08916">
        <ele>445.394</ele>
        <time>2012-02-11T14:19:23Z</time>
      </trkpt>
      <trkpt lat="45.82013" lon="3.08921">
        <ele>447.046</ele>
        <time>2012-02-11T14:19:32Z</time>
      </trkpt>
      <trkpt lat="45.82002" lon="3.08925">
        <ele>448.315</ele>
        <time>2012-02-11T14:19:39Z</time>
      </trkpt>
      <trkpt lat="45.81987" lon="3.0893">
        <ele>450.554</ele>
        <time>2012-02-11T14:19:49Z</time>
      </trkpt>
      <trkpt lat="45.81974" lon="3.08933">
        <ele>452.773</ele>
        <time>2012-02-11T14:19:58Z</time>
      </trkpt>
      <trkpt lat="45.81964" lon="3.08932">
        <ele>454.964</ele>
        <time>2012-02-11T14:20:05Z</time>
      </trkpt>
      <trkpt lat="45.81962" lon="3.08931">
        <ele>455.641</ele>
        <time>2012-02-11T14:20:07Z</time>
      </trkpt>
      <trkpt lat="45.81955" lon="3.08929">
        <ele>457.729</ele>
        <time>2012-02-11T14:20:13Z</time>
      </trkpt>
      <trkpt lat="45.81942" lon="3.08925">
        <ele>460.613</ele>
        <time>2012-02-11T14:20:24Z</time>
      </trkpt>
      <trkpt lat="45.81934" lon="3.08922">
        <ele>462.767</ele>
        <time>2012-02-11T14:20:31Z</time>
      </trkpt>
      <trkpt lat="45.81926" lon="3.08917">
        <ele>464.873</ele>
        <time>2012-02-11T14:20:38Z</time>
      </trkpt>
      <trkpt lat="45.81919" lon="3.08914">
        <ele>466.866</ele>
        <time>2012-02-11T14:20:45Z</time>
      </trkpt>
      <trkpt lat="45.81911" lon="3.08912">
        <ele>468.586</ele>
        <time>2012-02-11T14:20:52Z</time>
      </trkpt>
      <trkpt lat="45.81905" lon="3.08908">
        <ele>470.114</ele>
        <time>2012-02-11T14:20:57Z</time>
      </trkpt>
      <trkpt lat="45.81899" lon="3.08901">
        <ele>472.099</ele>
        <time>2012-02-11T14:21:04Z</time>
      </trkpt>
      <trkpt lat="45.81896" lon="3.08898">
        <ele>472.731</ele>
        <time>2012-02-11T14:21:07Z</time>
      </trkpt>
      <trkpt lat="45.81882" lon="3.08883">
        <ele>475.147</ele>
        <time>2012-02-11T14:21:18Z</time>
      </trkpt>
      <trkpt lat="45.81867" lon="3.08872">
        <ele>476.956</ele>
        <time>2012-02-11T14:21:28Z</time>
      </trkpt>
      <trkpt lat="45.81851" lon="3.08865">
        <ele>479.41</ele>
        <time>2012-02-11T14:21:39Z</time>
      </trkpt>
      <trkpt lat="45.81839" lon="3.08863">
        <ele>481.274</ele>
        <time>2012-02-11T14:21:47Z</time>
      </trkpt>
      <trkpt lat="45.81823" lon="3.08855">
        <ele>483.637</ele>
        <time>2012-02-11T14:21:57Z</time>
      </trkpt>
      <trkpt lat="45.81806" lon="3.08851">
        <ele>485.588</ele>
        <time>2012-02-11T14:22:07Z</time>
      </trkpt>
      <trkpt lat="45.81791" lon="3.08851">
        <ele>487.6</ele>
        <time>2012-02-11T14:22:17Z</time>
      </trkpt>
      <trkpt lat="45.81778" lon="3.08855">
        <ele>489.622</ele>
        <time>2012-02-11T14:22:26Z</time>
      </trkpt>
      <trkpt lat="45.81767" lon="3.08858">
        <ele>490.983</ele>
        <time>2012-02-11T14:22:33Z</time>
      </trkpt>
      <trkpt lat="45.81756" lon="3.08856">
        <ele>493.292</ele>
        <time>2012-02-11T14:22:41Z</time>
      </trkpt>
      <trkpt lat="45.81742" lon="3.08859">
        <ele>494.829</ele>
        <time>2012-02-11T14:22:50Z</time>
      </trkpt>
      <trkpt lat="45.81725" lon="3.08864">
        <ele>497.224</ele>
        <time>2012-02-11T14:23:00Z</time>
      </trkpt>
      <trkpt lat="45.8171" lon="3.0887">
        <ele>500.234</ele>
        <time>2012-02-11T14:23:10Z</time>
      </trkpt>
      <trkpt lat="45.81692" lon="3.08882">
        <ele>502.775</ele>
        <time>2012-02-11T14:23:23Z</time>
      </trkpt>
      <trkpt lat="45.81683" lon="3.08893">
        <ele>504.467</ele>
        <time>2012-02-11T14:23:31Z</time>
      </trkpt>
      <trkpt lat="45.81675" lon="3.08902">
        <ele>505.916</ele>
        <time>2012-02-11T14:23:38Z</time>
      </trkpt>
      <trkpt lat="45.81661" lon="3.08921">
        <ele>507.576</ele>
        <time>2012-02-11T14:23:49Z</time>
      </trkpt>
      <trkpt lat="45.81648" lon="3.08937">
        <ele>509.59</ele>
        <time>2012-02-11T14:23:58Z</time>
      </trkpt>
      <trkpt lat="45.81639" lon="3.08946">
        <ele>510.628</ele>
        <time>2012-02-11T14:24:04Z</time>
      </trkpt>
      <trkpt lat="45.8162" lon="3.08945">
        <ele>511.794</ele>
        <time>2012-02-11T14:24:13Z</time>
      </trkpt>
      <trkpt lat="45.8161" lon="3.08951">
        <ele>512.771</ele>
        <time>2012-02-11T14:24:19Z</time>
      </trkpt>
      <trkpt lat="45.8161" lon="3.08951">
        <ele>513.106</ele>
        <time>2012-02-11T14:24:21Z</time>
      </trkpt>
      <trkpt lat="45.81603" lon="3.08961">
        <ele>513.038</ele>
        <time>2012-02-11T14:25:01Z</time>
      </trkpt>
      <trkpt lat="45.81596" lon="3.08962">
        <ele>512.93</ele>
        <time>2012-02-11T14:25:07Z</time>
      </trkpt>
      <trkpt lat="45.81589" lon="3.0896">
        <ele>513</ele>
        <time>2012-02-11T14:25:12Z</time>
      </trkpt>
      <trkpt lat="45.81589" lon="3.0896">
        <ele>513.049</ele>
        <time>2012-02-11T14:25:13Z</time>
      </trkpt>
      <trkpt lat="45.81586" lon="3.08962">
        <ele>513.385</ele>
        <time>2012-02-11T14:25:20Z</time>
      </trkpt>
      <trkpt lat="45.81585" lon="3.08958">
        <ele>513.402</ele>
        <time>2012-02-11T14:28:50Z</time>
      </trkpt>
      <trkpt lat="45.8158" lon="3.08955">
        <ele>513.467</ele>
        <time>2012-02-11T14:29:00Z</time>
      </trkpt>
      <trkpt lat="45.81575" lon="3.08953">
        <ele>513.932</ele>
        <time>2012-02-11T14:29:04Z</time>
      </trkpt>
      <trkpt lat="45.8156" lon="3.08944">
        <ele>515.546</ele>
        <time>2012-02-11T14:29:12Z</time>
      </trkpt>
      <trkpt lat="45.81546" lon="3.0894">
        <ele>516.82</ele>
        <time>2012-02-11T14:29:20Z</time>
      </trkpt>
      <trkpt lat="45.81531" lon="3.08941">
        <ele>517.865</ele>
        <time>2012-02-11T14:29:28Z</time>
      </trkpt>
      <trkpt lat="45.81516" lon="3.0894">
        <ele>518.695</ele>
        <time>2012-02-11T14:29:35Z</time>
      </trkpt>
      <trkpt lat="45.81498" lon="3.08931">
        <ele>520.806</ele>
        <time>2012-02-11T14:29:45Z</time>
      </trkpt>
      <trkpt lat="45.81489" lon="3.08921">
        <ele>522.304</ele>
        <time>2012-02-11T14:29:52Z</time>
      </trkpt>
      <trkpt lat="45.81485" lon="3.08917">
        <ele>523.353</ele>
        <time>2012-02-11T14:29:56Z</time>
      </trkpt>
      <trkpt lat="45.81471" lon="3.08895">
        <ele>526.227</ele>
        <time>2012-02-11T14:30:07Z</time>
      </trkpt>
      <trkpt lat="45.81462" lon="3.0888">
        <ele>527.892</ele>
        <time>2012-02-11T14:30:15Z</time>
      </trkpt>
      <trkpt lat="45.81447" lon="3.08861">
        <ele>529.661</ele>
        <time>2012-02-11T14:30:25Z</time>
      </trkpt>
      <trkpt lat="45.81431" lon="3.08841">
        <ele>530.843</ele>
        <time>2012-02-11T14:30:35Z</time>
      </trkpt>
      <trkpt lat="45.81417" lon="3.08818">
        <ele>531.989</ele>
        <time>2012-02-11T14:30:45Z</time>
      </trkpt>
      <trkpt lat="45.81406" lon="3.08794">
        <ele>533.042</ele>
        <time>2012-02-11T14:30:54Z</time>
      </trkpt>
      <trkpt lat="45.814" lon="3.08779">
        <ele>533.511</ele>
        <time>2012-02-11T14:31:01Z</time>
      </trkpt>
      <trkpt lat="45.8139" lon="3.08766">
        <ele>533.827</ele>
        <time>2012-02-11T14:31:08Z</time>
      </trkpt>
      <trkpt lat="45.81373" lon="3.0875">
        <ele>533.548</ele>
        <time>2012-02-11T14:31:17Z</time>
      </trkpt>
      <trkpt lat="45.8135" lon="3.0874">
        <ele>534.374</ele>
        <time>2012-02-11T14:31:27Z</time>
      </trkpt>
      <trkpt lat="45.81335" lon="3.08731">
        <ele>535.422</ele>
        <time>2012-02-11T14:31:33Z</time>
      </trkpt>
      <trkpt lat="45.81312" lon="3.08716">
        <ele>538.514</ele>
        <time>2012-02-11T14:31:43Z</time>
      </trkpt>
      <trkpt lat="45.81301" lon="3.08712">
        <ele>540.188</ele>
        <time>2012-02-11T14:31:49Z</time>
      </trkpt>
      <trkpt lat="45.81286" lon="3.08704">
        <ele>542.827</ele>
        <time>2012-02-11T14:31:57Z</time>
      </trkpt>
      <trkpt lat="45.81271" lon="3.08691">
        <ele>546.008</ele>
        <time>2012-02-11T14:32:06Z</time>
      </trkpt>
      <trkpt lat="45.81265" lon="3.08683">
        <ele>548.144</ele>
        <time>2012-02-11T14:32:11Z</time>
      </trkpt>
      <trkpt lat="45.8125" lon="3.08674">
        <ele>550.912</ele>
        <time>2012-02-11T14:32:20Z</time>
      </trkpt>
      <trkpt lat="45.81238" lon="3.08679">
        <ele>552.572</ele>
        <time>2012-02-11T14:32:27Z</time>
      </trkpt>
      <trkpt lat="45.81232" lon="3.08682">
        <ele>553.527</ele>
        <time>2012-02-11T14:32:33Z</time>
      </trkpt>
      <trkpt lat="45.8123" lon="3.08684">
        <ele>553.686</ele>
        <time>2012-02-11T14:32:36Z</time>
      </trkpt>
      <trkpt lat="45.81225" lon="3.08684">
        <ele>553.783</ele>
        <time>2012-02-11T14:32:41Z</time>
      </trkpt>
      <trkpt lat="45.81217" lon="3.08688">
        <ele>553.972</ele>
        <time>2012-02-11T14:32:46Z</time>
      </trkpt>
      <trkpt lat="45.81215" lon="3.08699">
        <ele>554.454</ele>
        <time>2012-02-11T14:32:52Z</time>
      </trkpt>
      <trkpt lat="45.81218" lon="3.08706">
        <ele>554.056</ele>
        <time>2012-02-11T14:32:54Z</time>
      </trkpt>
      <trkpt lat="45.81229" lon="3.0873">
        <ele>550.966</ele>
        <time>2012-02-11T14:33:01Z</time>
      </trkpt>
      <trkpt lat="45.81229" lon="3.0875">
        <ele>550.789</ele>
        <time>2012-02-11T14:33:07Z</time>
      </trkpt>
      <trkpt lat="45.81227" lon="3.0877">
        <ele>551.11</ele>
        <time>2012-02-11T14:33:14Z</time>
      </trkpt>
      <trkpt lat="45.81229" lon="3.08789">
        <ele>551.442</ele>
        <time>2012-02-11T14:33:21Z</time>
      </trkpt>
      <trkpt lat="45.81231" lon="3.08807">
        <ele>552.106</ele>
        <time>2012-02-11T14:33:28Z</time>
      </trkpt>
      <trkpt lat="45.81236" lon="3.08825">
        <ele>553.395</ele>
        <time>2012-02-11T14:33:35Z</time>
      </trkpt>
      <trkpt lat="45.81249" lon="3.08847">
        <ele>555.194</ele>
        <time>2012-02-11T14:33:44Z</time>
      </trkpt>
      <trkpt lat="45.81267" lon="3.08881">
        <ele>556.536</ele>
        <time>2012-02-11T14:33:56Z</time>
      </trkpt>
      <trkpt lat="45.81273" lon="3.08909">
        <ele>557.183</ele>
        <time>2012-02-11T14:34:04Z</time>
      </trkpt>
      <trkpt lat="45.81276" lon="3.08939">
        <ele>558.558</ele>
        <time>2012-02-11T14:34:13Z</time>
      </trkpt>
      <trkpt lat="45.81276" lon="3.08973">
        <ele>560.105</ele>
        <time>2012-02-11T14:34:23Z</time>
      </trkpt>
      <trkpt lat="45.81272" lon="3.08992">
        <ele>561.67</ele>
        <time>2012-02-11T14:34:29Z</time>
      </trkpt>
      <trkpt lat="45.81266" lon="3.09005">
        <ele>563.216</ele>
        <time>2012-02-11T14:34:35Z</time>
      </trkpt>
      <trkpt lat="45.81262" lon="3.09014">
        <ele>563.919</ele>
        <time>2012-02-11T14:34:39Z</time>
      </trkpt>
      <trkpt lat="45.81262" lon="3.09026">
        <ele>564.297</ele>
        <time>2012-02-11T14:34:43Z</time>
      </trkpt>
      <trkpt lat="45.81262" lon="3.09051">
        <ele>564.688</ele>
        <time>2012-02-11T14:34:52Z</time>
      </trkpt>
      <trkpt lat="45.81266" lon="3.09064">
        <ele>564.843</ele>
        <time>2012-02-11T14:34:58Z</time>
      </trkpt>
      <trkpt lat="45.81267" lon="3.09066">
        <ele>564.903</ele>
        <time>2012-02-11T14:34:59Z</time>
      </trkpt>
      <trkpt lat="45.8127" lon="3.09068">
        <ele>564.995</ele>
        <time>2012-02-11T14:35:04Z</time>
      </trkpt>
      <trkpt lat="45.81281" lon="3.09077">
        <ele>563.519</ele>
        <time>2012-02-11T14:35:47Z</time>
      </trkpt>
      <trkpt lat="45.81297" lon="3.09076">
        <ele>563.064</ele>
        <time>2012-02-11T14:35:52Z</time>
      </trkpt>
      <trkpt lat="45.81318" lon="3.09074">
        <ele>562.639</ele>
        <time>2012-02-11T14:35:58Z</time>
      </trkpt>
      <trkpt lat="45.81338" lon="3.09077">
        <ele>562.246</ele>
        <time>2012-02-11T14:36:03Z</time>
      </trkpt>
      <trkpt lat="45.81359" lon="3.09062">
        <ele>563.243</ele>
        <time>2012-02-11T14:36:09Z</time>
      </trkpt>
      <trkpt lat="45.8136" lon="3.09046">
        <ele>563.504</ele>
        <time>2012-02-11T14:36:13Z</time>
      </trkpt>
      <trkpt lat="45.8136" lon="3.09045">
        <ele>563.572</ele>
        <time>2012-02-11T14:36:14Z</time>
      </trkpt>
      <trkpt lat="45.81368" lon="3.09034">
        <ele>561.393</ele>
        <time>2012-02-11T14:37:37Z</time>
      </trkpt>
      <trkpt lat="45.81367" lon="3.09023">
        <ele>559.238</ele>
        <time>2012-02-11T14:37:40Z</time>
      </trkpt>
      <trkpt lat="45.8137" lon="3.09017">
        <ele>557.365</ele>
        <time>2012-02-11T14:37:43Z</time>
      </trkpt>
      <trkpt lat="45.81373" lon="3.09016">
        <ele>555.033</ele>
        <time>2012-02-11T14:37:46Z</time>
      </trkpt>
      <trkpt lat="45.81385" lon="3.09008">
        <ele>549.372</ele>
        <time>2012-02-11T14:37:52Z</time>
      </trkpt>
      <trkpt lat="45.81392" lon="3.09006">
        <ele>546.681</ele>
        <time>2012-02-11T14:37:54Z</time>
      </trkpt>
      <trkpt lat="45.81406" lon="3.09011">
        <ele>540.678</ele>
        <time>2012-02-11T14:37:58Z</time>
      </trkpt>
      <trkpt lat="45.81408" lon="3.0901">
        <ele>538.491</ele>
        <time>2012-02-11T14:38:00Z</time>
      </trkpt>
      <trkpt lat="45.81412" lon="3.09008">
        <ele>536.123</ele>
        <time>2012-02-11T14:38:41Z</time>
      </trkpt>
      <trkpt lat="45.81423" lon="3.08999">
        <ele>534.723</ele>
        <time>2012-02-11T14:38:44Z</time>
      </trkpt>
      <trkpt lat="45.81428" lon="3.08995">
        <ele>533.927</ele>
        <time>2012-02-11T14:38:45Z</time>
      </trkpt>
      <trkpt lat="45.8144" lon="3.08985">
        <ele>531.899</ele>
        <time>2012-02-11T14:38:47Z</time>
      </trkpt>
      <trkpt lat="45.81453" lon="3.08977">
        <ele>528.867</ele>
        <time>2012-02-11T14:38:49Z</time>
      </trkpt>
      <trkpt lat="45.81465" lon="3.08967">
        <ele>524.036</ele>
        <time>2012-02-11T14:38:53Z</time>
      </trkpt>
      <trkpt lat="45.81465" lon="3.08967">
        <ele>523.277</ele>
        <time>2012-02-11T14:38:54Z</time>
      </trkpt>
      <trkpt lat="45.81471" lon="3.08965">
        <ele>522.203</ele>
        <time>2012-02-11T14:39:33Z</time>
      </trkpt>
      <trkpt lat="45.81482" lon="3.08951">
        <ele>521.467</ele>
        <time>2012-02-11T14:39:37Z</time>
      </trkpt>
      <trkpt lat="45.81491" lon="3.08936">
        <ele>520.519</ele>
        <time>2012-02-11T14:39:42Z</time>
      </trkpt>
      <trkpt lat="45.81488" lon="3.08927">
        <ele>520.327</ele>
        <time>2012-02-11T14:39:46Z</time>
      </trkpt>
      <trkpt lat="45.81476" lon="3.08909">
        <ele>521.559</ele>
        <time>2012-02-11T14:39:54Z</time>
      </trkpt>
      <trkpt lat="45.81463" lon="3.0889">
        <ele>524.015</ele>
        <time>2012-02-11T14:40:02Z</time>
      </trkpt>
      <trkpt lat="45.81449" lon="3.08868">
        <ele>526.275</ele>
        <time>2012-02-11T14:40:11Z</time>
      </trkpt>
      <trkpt lat="45.81438" lon="3.08852">
        <ele>527.358</ele>
        <time>2012-02-11T14:40:18Z</time>
      </trkpt>
      <trkpt lat="45.81422" lon="3.08827">
        <ele>528.603</ele>
        <time>2012-02-11T14:40:27Z</time>
      </trkpt>
      <trkpt lat="45.8141" lon="3.08803">
        <ele>530.335</ele>
        <time>2012-02-11T14:40:37Z</time>
      </trkpt>
      <trkpt lat="45.81403" lon="3.08784">
        <ele>530.921</ele>
        <time>2012-02-11T14:40:43Z</time>
      </trkpt>
      <trkpt lat="45.81405" lon="3.08778">
        <ele>532</ele>
        <time>2012-02-11T14:40:48Z</time>
      </trkpt>
      <trkpt lat="45.81416" lon="3.08769">
        <ele>532.863</ele>
        <time>2012-02-11T14:40:55Z</time>
      </trkpt>
      <trkpt lat="45.8142" lon="3.08757">
        <ele>533.876</ele>
        <time>2012-02-11T14:41:00Z</time>
      </trkpt>
      <trkpt lat="45.81427" lon="3.08746">
        <ele>533.41</ele>
        <time>2012-02-11T14:41:04Z</time>
      </trkpt>
      <trkpt lat="45.81431" lon="3.08738">
        <ele>532.982</ele>
        <time>2012-02-11T14:41:06Z</time>
      </trkpt>
      <trkpt lat="45.8144" lon="3.08739">
        <ele>530.922</ele>
        <time>2012-02-11T14:41:11Z</time>
      </trkpt>
      <trkpt lat="45.81445" lon="3.08741">
        <ele>531.016</ele>
        <time>2012-02-11T14:41:14Z</time>
      </trkpt>
      <trkpt lat="45.81457" lon="3.08731">
        <ele>531.519</ele>
        <time>2012-02-11T14:41:19Z</time>
      </trkpt>
      <trkpt lat="45.81464" lon="3.08715">
        <ele>530.338</ele>
        <time>2012-02-11T14:41:23Z</time>
      </trkpt>
      <trkpt lat="45.81476" lon="3.08714">
        <ele>527.554</ele>
        <time>2012-02-11T14:41:28Z</time>
      </trkpt>
      <trkpt lat="45.81484" lon="3.08715">
        <ele>526.589</ele>
        <time>2012-02-11T14:41:30Z</time>
      </trkpt>
      <trkpt lat="45.815" lon="3.0871">
        <ele>525.63</ele>
        <time>2012-02-11T14:41:35Z</time>
      </trkpt>
      <trkpt lat="45.81498" lon="3.087">
        <ele>524.114</ele>
        <time>2012-02-11T14:41:39Z</time>
      </trkpt>
      <trkpt lat="45.81502" lon="3.08691">
        <ele>521.841</ele>
        <time>2012-02-11T14:41:43Z</time>
      </trkpt>
      <trkpt lat="45.81514" lon="3.08661">
        <ele>516.243</ele>
        <time>2012-02-11T14:41:48Z</time>
      </trkpt>
      <trkpt lat="45.81519" lon="3.08648">
        <ele>512.771</ele>
        <time>2012-02-11T14:41:50Z</time>
      </trkpt>
      <trkpt lat="45.81528" lon="3.08622">
        <ele>505.679</ele>
        <time>2012-02-11T14:41:54Z</time>
      </trkpt>
      <trkpt lat="45.81536" lon="3.08617">
        <ele>503.887</ele>
        <time>2012-02-11T14:41:56Z</time>
      </trkpt>
      <trkpt lat="45.81541" lon="3.08615">
        <ele>502.091</ele>
        <time>2012-02-11T14:41:57Z</time>
      </trkpt>
      <trkpt lat="45.81562" lon="3.08599">
        <ele>495.487</ele>
        <time>2012-02-11T14:42:01Z</time>
      </trkpt>
      <trkpt lat="45.81583" lon="3.08595">
        <ele>488.437</ele>
        <time>2012-02-11T14:42:05Z</time>
      </trkpt>
      <trkpt lat="45.81587" lon="3.08595">
        <ele>486.597</ele>
        <time>2012-02-11T14:42:06Z</time>
      </trkpt>
      <trkpt lat="45.81605" lon="3.08588">
        <ele>480.914</ele>
        <time>2012-02-11T14:42:09Z</time>
      </trkpt>
      <trkpt lat="45.81618" lon="3.08584">
        <ele>477.134</ele>
        <time>2012-02-11T14:42:11Z</time>
      </trkpt>
      <trkpt lat="45.8164" lon="3.08569">
        <ele>470.049</ele>
        <time>2012-02-11T14:42:16Z</time>
      </trkpt>
      <trkpt lat="45.81653" lon="3.08558">
        <ele>464.858</ele>
        <time>2012-02-11T14:42:20Z</time>
      </trkpt>
      <trkpt lat="45.81656" lon="3.08556">
        <ele>463.531</ele>
        <time>2012-02-11T14:42:21Z</time>
      </trkpt>
      <trkpt lat="45.8167" lon="3.08551">
        <ele>458.383</ele>
        <time>2012-02-11T14:42:26Z</time>
      </trkpt>
      <trkpt lat="45.81674" lon="3.08551">
        <ele>456.43</ele>
        <time>2012-02-11T14:42:28Z</time>
      </trkpt>
      <trkpt lat="45.81686" lon="3.08539">
        <ele>453.509</ele>
        <time>2012-02-11T14:42:33Z</time>
      </trkpt>
      <trkpt lat="45.81701" lon="3.08533">
        <ele>450.858</ele>
        <time>2012-02-11T14:42:37Z</time>
      </trkpt>
      <trkpt lat="45.81722" lon="3.0851">
        <ele>444.711</ele>
        <time>2012-02-11T14:42:42Z</time>
      </trkpt>
      <trkpt lat="45.81744" lon="3.08499">
        <ele>439.647</ele>
        <time>2012-02-11T14:42:46Z</time>
      </trkpt>
      <trkpt lat="45.81758" lon="3.08493">
        <ele>438.287</ele>
        <time>2012-02-11T14:42:48Z</time>
      </trkpt>
      <trkpt lat="45.81778" lon="3.08471">
        <ele>432.569</ele>
        <time>2012-02-11T14:42:52Z</time>
      </trkpt>
      <trkpt lat="45.81781" lon="3.08464">
        <ele>431.04</ele>
        <time>2012-02-11T14:42:53Z</time>
      </trkpt>
      <trkpt lat="45.81794" lon="3.08435">
        <ele>424.538</ele>
        <time>2012-02-11T14:42:57Z</time>
      </trkpt>
      <trkpt lat="45.81804" lon="3.084">
        <ele>416.637</ele>
        <time>2012-02-11T14:43:02Z</time>
      </trkpt>
      <trkpt lat="45.81815" lon="3.08392">
        <ele>412.194</ele>
        <time>2012-02-11T14:43:06Z</time>
      </trkpt>
      <trkpt lat="45.81829" lon="3.08375">
        <ele>408.927</ele>
        <time>2012-02-11T14:43:09Z</time>
      </trkpt>
      <trkpt lat="45.81843" lon="3.08359">
        <ele>406.721</ele>
        <time>2012-02-11T14:43:12Z</time>
      </trkpt>
      <trkpt lat="45.81848" lon="3.08355">
        <ele>405.842</ele>
        <time>2012-02-11T14:43:13Z</time>
      </trkpt>
      <trkpt lat="45.81868" lon="3.08337">
        <ele>402.016</ele>
        <time>2012-02-11T14:43:17Z</time>
      </trkpt>
      <trkpt lat="45.8188" lon="3.08313">
        <ele>399.112</ele>
        <time>2012-02-11T14:43:20Z</time>
      </trkpt>
      <trkpt lat="45.81893" lon="3.08288">
        <ele>395.942</ele>
        <time>2012-02-11T14:43:23Z</time>
      </trkpt>
      <trkpt lat="45.8192" lon="3.08249">
        <ele>390.519</ele>
        <time>2012-02-11T14:43:28Z</time>
      </trkpt>
      <trkpt lat="45.81932" lon="3.08234">
        <ele>388.572</ele>
        <time>2012-02-11T14:43:30Z</time>
      </trkpt>
      <trkpt lat="45.8194" lon="3.0822">
        <ele>386.619</ele>
        <time>2012-02-11T14:43:34Z</time>
      </trkpt>
      <trkpt lat="45.8194" lon="3.08221">
        <ele>386.522</ele>
        <time>2012-02-11T14:43:35Z</time>
      </trkpt>
      <trkpt lat="45.81944" lon="3.08221">
        <ele>386.361</ele>
        <time>2012-02-11T14:43:49Z</time>
      </trkpt>
      <trkpt lat="45.81944" lon="3.08217">
        <ele>387.059</ele>
        <time>2012-02-11T14:44:45Z</time>
      </trkpt>
      <trkpt lat="45.81959" lon="3.08207">
        <ele>385.588</ele>
        <time>2012-02-11T14:45:12Z</time>
      </trkpt>
      <trkpt lat="45.81971" lon="3.08195">
        <ele>384.016</ele>
        <time>2012-02-11T14:45:17Z</time>
      </trkpt>
      <trkpt lat="45.81983" lon="3.08174">
        <ele>383.525</ele>
        <time>2012-02-11T14:45:23Z</time>
      </trkpt>
      <trkpt lat="45.82" lon="3.08148">
        <ele>381.911</ele>
        <time>2012-02-11T14:45:28Z</time>
      </trkpt>
      <trkpt lat="45.82023" lon="3.08124">
        <ele>380.376</ele>
        <time>2012-02-11T14:45:34Z</time>
      </trkpt>
      <trkpt lat="45.82056" lon="3.08108">
        <ele>378.487</ele>
        <time>2012-02-11T14:45:41Z</time>
      </trkpt>
      <trkpt lat="45.82062" lon="3.08107">
        <ele>378.162</ele>
        <time>2012-02-11T14:45:42Z</time>
      </trkpt>
      <trkpt lat="45.82072" lon="3.08091">
        <ele>377.768</ele>
        <time>2012-02-11T14:45:45Z</time>
      </trkpt>
      <trkpt lat="45.82069" lon="3.08071">
        <ele>377.259</ele>
        <time>2012-02-11T14:45:48Z</time>
      </trkpt>
      <trkpt lat="45.82054" lon="3.08023">
        <ele>378.092</ele>
        <time>2012-02-11T14:45:57Z</time>
      </trkpt>
      <trkpt lat="45.82043" lon="3.07985">
        <ele>379.097</ele>
        <time>2012-02-11T14:46:05Z</time>
      </trkpt>
      <trkpt lat="45.82031" lon="3.07944">
        <ele>380.151</ele>
        <time>2012-02-11T14:46:14Z</time>
      </trkpt>
      <trkpt lat="45.8202" lon="3.07912">
        <ele>381.527</ele>
        <time>2012-02-11T14:46:22Z</time>
      </trkpt>
      <trkpt lat="45.82004" lon="3.0791">
        <ele>382.557</ele>
        <time>2012-02-11T14:46:28Z</time>
      </trkpt>
      <trkpt lat="45.81984" lon="3.07912">
        <ele>384.303</ele>
        <time>2012-02-11T14:46:37Z</time>
      </trkpt>
      <trkpt lat="45.81973" lon="3.07917">
        <ele>385.712</ele>
        <time>2012-02-11T14:46:43Z</time>
      </trkpt>
      <trkpt lat="45.81957" lon="3.07918">
        <ele>387.508</ele>
        <time>2012-02-11T14:46:51Z</time>
      </trkpt>
      <trkpt lat="45.81941" lon="3.0792">
        <ele>389.207</ele>
        <time>2012-02-11T14:46:59Z</time>
      </trkpt>
      <trkpt lat="45.81918" lon="3.07926">
        <ele>391.425</ele>
        <time>2012-02-11T14:47:10Z</time>
      </trkpt>
      <trkpt lat="45.81899" lon="3.07931">
        <ele>393.366</ele>
        <time>2012-02-11T14:47:19Z</time>
      </trkpt>
      <trkpt lat="45.81875" lon="3.07942">
        <ele>396.001</ele>
        <time>2012-02-11T14:47:31Z</time>
      </trkpt>
      <trkpt lat="45.81859" lon="3.07953">
        <ele>398.189</ele>
        <time>2012-02-11T14:47:40Z</time>
      </trkpt>
      <trkpt lat="45.81841" lon="3.07968">
        <ele>401.367</ele>
        <time>2012-02-11T14:47:51Z</time>
      </trkpt>
      <trkpt lat="45.81827" lon="3.07973">
        <ele>403.87</ele>
        <time>2012-02-11T14:47:59Z</time>
      </trkpt>
      <trkpt lat="45.81818" lon="3.07967">
        <ele>405.681</ele>
        <time>2012-02-11T14:48:05Z</time>
      </trkpt>
      <trkpt lat="45.81807" lon="3.07955">
        <ele>408.098</ele>
        <time>2012-02-11T14:48:13Z</time>
      </trkpt>
      <trkpt lat="45.81797" lon="3.07943">
        <ele>410.644</ele>
        <time>2012-02-11T14:48:21Z</time>
      </trkpt>
      <trkpt lat="45.81788" lon="3.07926">
        <ele>413.469</ele>
        <time>2012-02-11T14:48:29Z</time>
      </trkpt>
      <trkpt lat="45.81783" lon="3.07912">
        <ele>415.716</ele>
        <time>2012-02-11T14:48:35Z</time>
      </trkpt>
      <trkpt lat="45.81781" lon="3.07887">
        <ele>417.363</ele>
        <time>2012-02-11T14:48:44Z</time>
      </trkpt>
      <trkpt lat="45.81776" lon="3.07871">
        <ele>418.691</ele>
        <time>2012-02-11T14:48:51Z</time>
      </trkpt>
      <trkpt lat="45.81771" lon="3.07869">
        <ele>419.262</ele>
        <time>2012-02-11T14:48:54Z</time>
      </trkpt>
      <trkpt lat="45.81762" lon="3.07878">
        <ele>420.534</ele>
        <time>2012-02-11T14:49:00Z</time>
      </trkpt>
      <trkpt lat="45.8176" lon="3.07886">
        <ele>421.267</ele>
        <time>2012-02-11T14:49:03Z</time>
      </trkpt>
      <trkpt lat="45.81762" lon="3.0791">
        <ele>423.237</ele>
        <time>2012-02-11T14:49:11Z</time>
      </trkpt>
      <trkpt lat="45.81763" lon="3.07935">
        <ele>424.984</ele>
        <time>2012-02-11T14:49:19Z</time>
      </trkpt>
      <trkpt lat="45.81758" lon="3.07954">
        <ele>426.941</ele>
        <time>2012-02-11T14:49:26Z</time>
      </trkpt>
      <trkpt lat="45.81751" lon="3.0797">
        <ele>428.639</ele>
        <time>2012-02-11T14:49:33Z</time>
      </trkpt>
      <trkpt lat="45.81743" lon="3.07991">
        <ele>431.474</ele>
        <time>2012-02-11T14:49:42Z</time>
      </trkpt>
      <trkpt lat="45.81743" lon="3.08017">
        <ele>433.765</ele>
        <time>2012-02-11T14:49:51Z</time>
      </trkpt>
      <trkpt lat="45.81747" lon="3.08039">
        <ele>435.65</ele>
        <time>2012-02-11T14:49:59Z</time>
      </trkpt>
      <trkpt lat="45.8175" lon="3.0806">
        <ele>438.223</ele>
        <time>2012-02-11T14:50:07Z</time>
      </trkpt>
      <trkpt lat="45.81749" lon="3.08084">
        <ele>440.301</ele>
        <time>2012-02-11T14:50:16Z</time>
      </trkpt>
      <trkpt lat="45.81745" lon="3.08102">
        <ele>442.071</ele>
        <time>2012-02-11T14:50:23Z</time>
      </trkpt>
      <trkpt lat="45.8174" lon="3.08122">
        <ele>444.354</ele>
        <time>2012-02-11T14:50:31Z</time>
      </trkpt>
      <trkpt lat="45.81737" lon="3.0814">
        <ele>446.062</ele>
        <time>2012-02-11T14:50:38Z</time>
      </trkpt>
      <trkpt lat="45.8173" lon="3.08155">
        <ele>448.003</ele>
        <time>2012-02-11T14:50:45Z</time>
      </trkpt>
      <trkpt lat="45.8172" lon="3.08167">
        <ele>450.35</ele>
        <time>2012-02-11T14:50:54Z</time>
      </trkpt>
      <trkpt lat="45.81711" lon="3.08174">
        <ele>453.771</ele>
        <time>2012-02-11T14:51:02Z</time>
      </trkpt>
      <trkpt lat="45.817" lon="3.08186">
        <ele>456.332</ele>
        <time>2012-02-11T14:51:11Z</time>
      </trkpt>
      <trkpt lat="45.81693" lon="3.08198">
        <ele>457.875</ele>
        <time>2012-02-11T14:51:18Z</time>
      </trkpt>
      <trkpt lat="45.81686" lon="3.08212">
        <ele>460.29</ele>
        <time>2012-02-11T14:51:26Z</time>
      </trkpt>
      <trkpt lat="45.81675" lon="3.08237">
        <ele>464.313</ele>
        <time>2012-02-11T14:51:39Z</time>
      </trkpt>
      <trkpt lat="45.81666" lon="3.08256">
        <ele>466.962</ele>
        <time>2012-02-11T14:51:49Z</time>
      </trkpt>
      <trkpt lat="45.81658" lon="3.08271">
        <ele>469.523</ele>
        <time>2012-02-11T14:51:58Z</time>
      </trkpt>
      <trkpt lat="45.81648" lon="3.08285">
        <ele>472.064</ele>
        <time>2012-02-11T14:52:07Z</time>
      </trkpt>
      <trkpt lat="45.8164" lon="3.08296">
        <ele>474.208</ele>
        <time>2012-02-11T14:52:14Z</time>
      </trkpt>
      <trkpt lat="45.81629" lon="3.08307">
        <ele>476.954</ele>
        <time>2012-02-11T14:52:23Z</time>
      </trkpt>
      <trkpt lat="45.81621" lon="3.08316">
        <ele>478.594</ele>
        <time>2012-02-11T14:52:30Z</time>
      </trkpt>
      <trkpt lat="45.81609" lon="3.08329">
        <ele>481.183</ele>
        <time>2012-02-11T14:52:40Z</time>
      </trkpt>
      <trkpt lat="45.81597" lon="3.08341">
        <ele>484.311</ele>
        <time>2012-02-11T14:52:49Z</time>
      </trkpt>
      <trkpt lat="45.81586" lon="3.08356">
        <ele>486.545</ele>
        <time>2012-02-11T14:52:58Z</time>
      </trkpt>
      <trkpt lat="45.81575" lon="3.08373">
        <ele>489.442</ele>
        <time>2012-02-11T14:53:07Z</time>
      </trkpt>
      <trkpt lat="45.81565" lon="3.08395">
        <ele>492.33</ele>
        <time>2012-02-11T14:53:17Z</time>
      </trkpt>
      <trkpt lat="45.81558" lon="3.08412">
        <ele>494.388</ele>
        <time>2012-02-11T14:53:24Z</time>
      </trkpt>
      <trkpt lat="45.81549" lon="3.08433">
        <ele>497.209</ele>
        <time>2012-02-11T14:53:33Z</time>
      </trkpt>
      <trkpt lat="45.8154" lon="3.08452">
        <ele>500.074</ele>
        <time>2012-02-11T14:53:42Z</time>
      </trkpt>
      <trkpt lat="45.81529" lon="3.08466">
        <ele>502.216</ele>
        <time>2012-02-11T14:53:50Z</time>
      </trkpt>
      <trkpt lat="45.81518" lon="3.08477">
        <ele>504.251</ele>
        <time>2012-02-11T14:53:57Z</time>
      </trkpt>
      <trkpt lat="45.81507" lon="3.08493">
        <ele>506.598</ele>
        <time>2012-02-11T14:54:05Z</time>
      </trkpt>
      <trkpt lat="45.81498" lon="3.08507">
        <ele>508.654</ele>
        <time>2012-02-11T14:54:12Z</time>
      </trkpt>
      <trkpt lat="45.81487" lon="3.08518">
        <ele>511.172</ele>
        <time>2012-02-11T14:54:20Z</time>
      </trkpt>
      <trkpt lat="45.81473" lon="3.08532">
        <ele>514.084</ele>
        <time>2012-02-11T14:54:30Z</time>
      </trkpt>
      <trkpt lat="45.81461" lon="3.08535">
        <ele>516.044</ele>
        <time>2012-02-11T14:54:37Z</time>
      </trkpt>
      <trkpt lat="45.81445" lon="3.08536">
        <ele>518.85</ele>
        <time>2012-02-11T14:54:46Z</time>
      </trkpt>
      <trkpt lat="45.81433" lon="3.08542">
        <ele>520.82</ele>
        <time>2012-02-11T14:54:53Z</time>
      </trkpt>
      <trkpt lat="45.81422" lon="3.0855">
        <ele>523.004</ele>
        <time>2012-02-11T14:55:00Z</time>
      </trkpt>
      <trkpt lat="45.81405" lon="3.08565">
        <ele>526.019</ele>
        <time>2012-02-11T14:55:11Z</time>
      </trkpt>
      <trkpt lat="45.81391" lon="3.08574">
        <ele>528.115</ele>
        <time>2012-02-11T14:55:19Z</time>
      </trkpt>
      <trkpt lat="45.81378" lon="3.08583">
        <ele>529.806</ele>
        <time>2012-02-11T14:55:26Z</time>
      </trkpt>
      <trkpt lat="45.81365" lon="3.08595">
        <ele>531.839</ele>
        <time>2012-02-11T14:55:34Z</time>
      </trkpt>
      <trkpt lat="45.81348" lon="3.08606">
        <ele>534.691</ele>
        <time>2012-02-11T14:55:44Z</time>
      </trkpt>
      <trkpt lat="45.81334" lon="3.08614">
        <ele>536.627</ele>
        <time>2012-02-11T14:55:52Z</time>
      </trkpt>
      <trkpt lat="45.81322" lon="3.08624">
        <ele>538.646</ele>
        <time>2012-02-11T14:56:00Z</time>
      </trkpt>
      <trkpt lat="45.8131" lon="3.08631">
        <ele>540.809</ele>
        <time>2012-02-11T14:56:07Z</time>
      </trkpt>
      <trkpt lat="45.81293" lon="3.08644">
        <ele>543.318</ele>
        <time>2012-02-11T14:56:17Z</time>
      </trkpt>
      <trkpt lat="45.81274" lon="3.08656">
        <ele>545.916</ele>
        <time>2012-02-11T14:56:27Z</time>
      </trkpt>
      <trkpt lat="45.81257" lon="3.08666">
        <ele>547.735</ele>
        <time>2012-02-11T14:56:36Z</time>
      </trkpt>
      <trkpt lat="45.81252" lon="3.0867">
        <ele>548.443</ele>
        <time>2012-02-11T14:56:39Z</time>
      </trkpt>
      <trkpt lat="45.81247" lon="3.08671">
        <ele>549.21</ele>
        <time>2012-02-11T14:56:44Z</time>
      </trkpt>
      <trkpt lat="45.81232" lon="3.08681">
        <ele>550.488</ele>
        <time>2012-02-11T14:58:48Z</time>
      </trkpt>
      <trkpt lat="45.8122" lon="3.08685">
        <ele>551.677</ele>
        <time>2012-02-11T14:58:57Z</time>
      </trkpt>
      <trkpt lat="45.81204" lon="3.08685">
        <ele>553.05</ele>
        <time>2012-02-11T14:59:07Z</time>
      </trkpt>
      <trkpt lat="45.81185" lon="3.08675">
        <ele>554.265</ele>
        <time>2012-02-11T14:59:15Z</time>
      </trkpt>
      <trkpt lat="45.81174" lon="3.08669">
        <ele>556.197</ele>
        <time>2012-02-11T14:59:22Z</time>
      </trkpt>
      <trkpt lat="45.8117" lon="3.08665">
        <ele>557.266</ele>
        <time>2012-02-11T14:59:28Z</time>
      </trkpt>
      <trkpt lat="45.81174" lon="3.08657">
        <ele>557.172</ele>
        <time>2012-02-11T14:59:37Z</time>
      </trkpt>
      <trkpt lat="45.81173" lon="3.08657">
        <ele>557.234</ele>
        <time>2012-02-11T14:59:38Z</time>
      </trkpt>
      <trkpt lat="45.81178" lon="3.0865">
        <ele>557.55</ele>
        <time>2012-02-11T14:59:46Z</time>
      </trkpt>
      <trkpt lat="45.81183" lon="3.08642">
        <ele>557.794</ele>
        <time>2012-02-11T14:59:51Z</time>
      </trkpt>
      <trkpt lat="45.8119" lon="3.08629">
        <ele>558.292</ele>
        <time>2012-02-11T14:59:57Z</time>
      </trkpt>
      <trkpt lat="45.81182" lon="3.08614">
        <ele>562.098</ele>
        <time>2012-02-11T15:00:05Z</time>
      </trkpt>
      <trkpt lat="45.81171" lon="3.08604">
        <ele>564.484</ele>
        <time>2012-02-11T15:00:12Z</time>
      </trkpt>
      <trkpt lat="45.81164" lon="3.08591">
        <ele>566.534</ele>
        <time>2012-02-11T15:00:20Z</time>
      </trkpt>
      <trkpt lat="45.81162" lon="3.08588">
        <ele>566.749</ele>
        <time>2012-02-11T15:00:22Z</time>
      </trkpt>
      <trkpt lat="45.81162" lon="3.08582">
        <ele>566.976</ele>
        <time>2012-02-11T15:00:26Z</time>
      </trkpt>
      <trkpt lat="45.81163" lon="3.08572">
        <ele>567.926</ele>
        <time>2012-02-11T15:00:33Z</time>
      </trkpt>
      <trkpt lat="45.81163" lon="3.08558">
        <ele>570.078</ele>
        <time>2012-02-11T15:00:43Z</time>
      </trkpt>
      <trkpt lat="45.81165" lon="3.08545">
        <ele>572.297</ele>
        <time>2012-02-11T15:00:54Z</time>
      </trkpt>
      <trkpt lat="45.81166" lon="3.08541">
        <ele>572.665</ele>
        <time>2012-02-11T15:00:57Z</time>
      </trkpt>
      <trkpt lat="45.81168" lon="3.08536">
        <ele>573.709</ele>
        <time>2012-02-11T15:01:02Z</time>
      </trkpt>
      <trkpt lat="45.81171" lon="3.08519">
        <ele>576.825</ele>
        <time>2012-02-11T15:01:15Z</time>
      </trkpt>
      <trkpt lat="45.81172" lon="3.08509">
        <ele>578.706</ele>
        <time>2012-02-11T15:01:23Z</time>
      </trkpt>
      <trkpt lat="45.81173" lon="3.08506">
        <ele>579.311</ele>
        <time>2012-02-11T15:01:26Z</time>
      </trkpt>
      <trkpt lat="45.81172" lon="3.08504">
        <ele>579.601</ele>
        <time>2012-02-11T15:01:28Z</time>
      </trkpt>
      <trkpt lat="45.81171" lon="3.08489">
        <ele>581.237</ele>
        <time>2012-02-11T15:01:39Z</time>
      </trkpt>
      <trkpt lat="45.8117" lon="3.08471">
        <ele>583.864</ele>
        <time>2012-02-11T15:01:51Z</time>
      </trkpt>
      <trkpt lat="45.81169" lon="3.08463">
        <ele>584.398</ele>
        <time>2012-02-11T15:01:58Z</time>
      </trkpt>
      <trkpt lat="45.81165" lon="3.08452">
        <ele>584.769</ele>
        <time>2012-02-11T15:02:05Z</time>
      </trkpt>
      <trkpt lat="45.81157" lon="3.08451">
        <ele>585.648</ele>
        <time>2012-02-11T15:02:12Z</time>
      </trkpt>
      <trkpt lat="45.81147" lon="3.08449">
        <ele>585.963</ele>
        <time>2012-02-11T15:02:18Z</time>
      </trkpt>
      <trkpt lat="45.81139" lon="3.08443">
        <ele>586.862</ele>
        <time>2012-02-11T15:02:23Z</time>
      </trkpt>
      <trkpt lat="45.81131" lon="3.08422">
        <ele>587.783</ele>
        <time>2012-02-11T15:02:31Z</time>
      </trkpt>
      <trkpt lat="45.81124" lon="3.08409">
        <ele>588.755</ele>
        <time>2012-02-11T15:02:38Z</time>
      </trkpt>
      <trkpt lat="45.81116" lon="3.08401">
        <ele>589.83</ele>
        <time>2012-02-11T15:02:44Z</time>
      </trkpt>
      <trkpt lat="45.81109" lon="3.08398">
        <ele>591.985</ele>
        <time>2012-02-11T15:02:50Z</time>
      </trkpt>
      <trkpt lat="45.81106" lon="3.084">
        <ele>593.663</ele>
        <time>2012-02-11T15:02:55Z</time>
      </trkpt>
      <trkpt lat="45.81099" lon="3.08401">
        <ele>595.969</ele>
        <time>2012-02-11T15:03:03Z</time>
      </trkpt>
      <trkpt lat="45.81096" lon="3.084">
        <ele>596.931</ele>
        <time>2012-02-11T15:03:08Z</time>
      </trkpt>
      <trkpt lat="45.81089" lon="3.08387">
        <ele>596.695</ele>
        <time>2012-02-11T15:03:39Z</time>
      </trkpt>
      <trkpt lat="45.81077" lon="3.08372">
        <ele>596.8</ele>
        <time>2012-02-11T15:03:45Z</time>
      </trkpt>
      <trkpt lat="45.81059" lon="3.08353">
        <ele>596.751</ele>
        <time>2012-02-11T15:03:52Z</time>
      </trkpt>
      <trkpt lat="45.81051" lon="3.08348">
        <ele>596.61</ele>
        <time>2012-02-11T15:03:54Z</time>
      </trkpt>
      <trkpt lat="45.81036" lon="3.08328">
        <ele>596.016</ele>
        <time>2012-02-11T15:03:59Z</time>
      </trkpt>
      <trkpt lat="45.81031" lon="3.08319">
        <ele>595.904</ele>
        <time>2012-02-11T15:04:01Z</time>
      </trkpt>
      <trkpt lat="45.81018" lon="3.08294">
        <ele>596.285</ele>
        <time>2012-02-11T15:04:07Z</time>
      </trkpt>
      <trkpt lat="45.81009" lon="3.08267">
        <ele>597.026</ele>
        <time>2012-02-11T15:04:13Z</time>
      </trkpt>
      <trkpt lat="45.80994" lon="3.08238">
        <ele>597.644</ele>
        <time>2012-02-11T15:04:21Z</time>
      </trkpt>
      <trkpt lat="45.80983" lon="3.08224">
        <ele>597.943</ele>
        <time>2012-02-11T15:04:26Z</time>
      </trkpt>
      <trkpt lat="45.80968" lon="3.08208">
        <ele>597.601</ele>
        <time>2012-02-11T15:04:31Z</time>
      </trkpt>
      <trkpt lat="45.80964" lon="3.08206">
        <ele>597.567</ele>
        <time>2012-02-11T15:04:32Z</time>
      </trkpt>
      <trkpt lat="45.80948" lon="3.08182">
        <ele>597.344</ele>
        <time>2012-02-11T15:04:38Z</time>
      </trkpt>
      <trkpt lat="45.80936" lon="3.08172">
        <ele>597.457</ele>
        <time>2012-02-11T15:04:42Z</time>
      </trkpt>
      <trkpt lat="45.80923" lon="3.08156">
        <ele>598.101</ele>
        <time>2012-02-11T15:04:47Z</time>
      </trkpt>
      <trkpt lat="45.80915" lon="3.08146">
        <ele>598.481</ele>
        <time>2012-02-11T15:04:50Z</time>
      </trkpt>
      <trkpt lat="45.80894" lon="3.08121">
        <ele>599.132</ele>
        <time>2012-02-11T15:04:58Z</time>
      </trkpt>
      <trkpt lat="45.80878" lon="3.08102">
        <ele>599.929</ele>
        <time>2012-02-11T15:05:05Z</time>
      </trkpt>
      <trkpt lat="45.80863" lon="3.08087">
        <ele>600.021</ele>
        <time>2012-02-11T15:05:11Z</time>
      </trkpt>
      <trkpt lat="45.80844" lon="3.08065">
        <ele>600.202</ele>
        <time>2012-02-11T15:05:19Z</time>
      </trkpt>
      <trkpt lat="45.80835" lon="3.08055">
        <ele>599.944</ele>
        <time>2012-02-11T15:05:22Z</time>
      </trkpt>
      <trkpt lat="45.80817" lon="3.08027">
        <ele>599.122</ele>
        <time>2012-02-11T15:05:29Z</time>
      </trkpt>
      <trkpt lat="45.80804" lon="3.08005">
        <ele>598.94</ele>
        <time>2012-02-11T15:05:35Z</time>
      </trkpt>
      <trkpt lat="45.80794" lon="3.07987">
        <ele>599.013</ele>
        <time>2012-02-11T15:05:40Z</time>
      </trkpt>
      <trkpt lat="45.80777" lon="3.0797">
        <ele>599.711</ele>
        <time>2012-02-11T15:05:46Z</time>
      </trkpt>
      <trkpt lat="45.80766" lon="3.07967">
        <ele>599.876</ele>
        <time>2012-02-11T15:05:49Z</time>
      </trkpt>
      <trkpt lat="45.80759" lon="3.07952">
        <ele>599.951</ele>
        <time>2012-02-11T15:05:53Z</time>
      </trkpt>
      <trkpt lat="45.80754" lon="3.07916">
        <ele>601.034</ele>
        <time>2012-02-11T15:06:00Z</time>
      </trkpt>
      <trkpt lat="45.8075" lon="3.079">
        <ele>601.625</ele>
        <time>2012-02-11T15:06:03Z</time>
      </trkpt>
      <trkpt lat="45.80751" lon="3.0788">
        <ele>602.157</ele>
        <time>2012-02-11T15:06:07Z</time>
      </trkpt>
      <trkpt lat="45.80752" lon="3.07856">
        <ele>602.657</ele>
        <time>2012-02-11T15:06:12Z</time>
      </trkpt>
      <trkpt lat="45.80753" lon="3.07836">
        <ele>602.445</ele>
        <time>2012-02-11T15:06:16Z</time>
      </trkpt>
      <trkpt lat="45.8075" lon="3.07785">
        <ele>601.194</ele>
        <time>2012-02-11T15:06:24Z</time>
      </trkpt>
      <trkpt lat="45.8075" lon="3.07778">
        <ele>600.935</ele>
        <time>2012-02-11T15:06:25Z</time>
      </trkpt>
      <trkpt lat="45.80755" lon="3.07752">
        <ele>599.907</ele>
        <time>2012-02-11T15:06:30Z</time>
      </trkpt>
      <trkpt lat="45.80763" lon="3.07742">
        <ele>599.674</ele>
        <time>2012-02-11T15:06:34Z</time>
      </trkpt>
      <trkpt lat="45.80772" lon="3.07729">
        <ele>599.407</ele>
        <time>2012-02-11T15:06:38Z</time>
      </trkpt>
      <trkpt lat="45.80774" lon="3.07728">
        <ele>599.394</ele>
        <time>2012-02-11T15:06:39Z</time>
      </trkpt>
      <trkpt lat="45.80795" lon="3.0771">
        <ele>601.072</ele>
        <time>2012-02-11T15:06:47Z</time>
      </trkpt>
      <trkpt lat="45.808" lon="3.077">
        <ele>602.621</ele>
        <time>2012-02-11T15:06:51Z</time>
      </trkpt>
      <trkpt lat="45.80812" lon="3.07682">
        <ele>605.622</ele>
        <time>2012-02-11T15:06:59Z</time>
      </trkpt>
      <trkpt lat="45.80822" lon="3.07677">
        <ele>606.424</ele>
        <time>2012-02-11T15:07:04Z</time>
      </trkpt>
      <trkpt lat="45.80833" lon="3.07679">
        <ele>607.051</ele>
        <time>2012-02-11T15:07:10Z</time>
      </trkpt>
      <trkpt lat="45.8085" lon="3.07682">
        <ele>607.881</ele>
        <time>2012-02-11T15:07:18Z</time>
      </trkpt>
      <trkpt lat="45.80872" lon="3.07687">
        <ele>608.927</ele>
        <time>2012-02-11T15:07:27Z</time>
      </trkpt>
      <trkpt lat="45.80894" lon="3.0769">
        <ele>610.476</ele>
        <time>2012-02-11T15:07:37Z</time>
      </trkpt>
      <trkpt lat="45.80902" lon="3.07676">
        <ele>611.38</ele>
        <time>2012-02-11T15:07:42Z</time>
      </trkpt>
      <trkpt lat="45.80911" lon="3.07648">
        <ele>611.566</ele>
        <time>2012-02-11T15:07:49Z</time>
      </trkpt>
      <trkpt lat="45.80919" lon="3.07624">
        <ele>610.644</ele>
        <time>2012-02-11T15:07:54Z</time>
      </trkpt>
      <trkpt lat="45.80925" lon="3.07594">
        <ele>609.334</ele>
        <time>2012-02-11T15:08:00Z</time>
      </trkpt>
      <trkpt lat="45.8093" lon="3.07571">
        <ele>608.947</ele>
        <time>2012-02-11T15:08:05Z</time>
      </trkpt>
      <trkpt lat="45.80936" lon="3.07542">
        <ele>608.738</ele>
        <time>2012-02-11T15:08:11Z</time>
      </trkpt>
      <trkpt lat="45.80941" lon="3.07496">
        <ele>608.431</ele>
        <time>2012-02-11T15:08:19Z</time>
      </trkpt>
      <trkpt lat="45.80943" lon="3.07484">
        <ele>608.296</ele>
        <time>2012-02-11T15:08:21Z</time>
      </trkpt>
      <trkpt lat="45.80941" lon="3.07451">
        <ele>607.783</ele>
        <time>2012-02-11T15:08:26Z</time>
      </trkpt>
      <trkpt lat="45.80942" lon="3.07411">
        <ele>607.061</ele>
        <time>2012-02-11T15:08:32Z</time>
      </trkpt>
      <trkpt lat="45.80943" lon="3.07398">
        <ele>606.932</ele>
        <time>2012-02-11T15:08:34Z</time>
      </trkpt>
      <trkpt lat="45.80946" lon="3.07369">
        <ele>606.85</ele>
        <time>2012-02-11T15:08:39Z</time>
      </trkpt>
      <trkpt lat="45.80944" lon="3.07339">
        <ele>606.613</ele>
        <time>2012-02-11T15:08:44Z</time>
      </trkpt>
      <trkpt lat="45.80942" lon="3.07316">
        <ele>605.721</ele>
        <time>2012-02-11T15:08:49Z</time>
      </trkpt>
      <trkpt lat="45.80942" lon="3.07316">
        <ele>605.327</ele>
        <time>2012-02-11T15:08:51Z</time>
      </trkpt>
      <trkpt lat="45.80945" lon="3.07312">
        <ele>603.773</ele>
        <time>2012-02-11T15:11:06Z</time>
      </trkpt>
      <trkpt lat="45.80951" lon="3.07284">
        <ele>602.656</ele>
        <time>2012-02-11T15:11:11Z</time>
      </trkpt>
      <trkpt lat="45.80955" lon="3.07275">
        <ele>601.755</ele>
        <time>2012-02-11T15:11:14Z</time>
      </trkpt>
      <trkpt lat="45.80948" lon="3.0726">
        <ele>599.851</ele>
        <time>2012-02-11T15:11:18Z</time>
      </trkpt>
      <trkpt lat="45.80941" lon="3.07251">
        <ele>598.282</ele>
        <time>2012-02-11T15:11:20Z</time>
      </trkpt>
      <trkpt lat="45.8091" lon="3.07215">
        <ele>591.691</ele>
        <time>2012-02-11T15:11:26Z</time>
      </trkpt>
      <trkpt lat="45.80898" lon="3.07187">
        <ele>585.386</ele>
        <time>2012-02-11T15:11:30Z</time>
      </trkpt>
      <trkpt lat="45.809" lon="3.0716">
        <ele>582.214</ele>
        <time>2012-02-11T15:11:33Z</time>
      </trkpt>
      <trkpt lat="45.80915" lon="3.07113">
        <ele>578.484</ele>
        <time>2012-02-11T15:11:38Z</time>
      </trkpt>
      <trkpt lat="45.80932" lon="3.07091">
        <ele>576.537</ele>
        <time>2012-02-11T15:11:41Z</time>
      </trkpt>
      <trkpt lat="45.80966" lon="3.0706">
        <ele>572.659</ele>
        <time>2012-02-11T15:11:46Z</time>
      </trkpt>
      <trkpt lat="45.80987" lon="3.07045">
        <ele>570.162</ele>
        <time>2012-02-11T15:11:49Z</time>
      </trkpt>
      <trkpt lat="45.81009" lon="3.07017">
        <ele>568.802</ele>
        <time>2012-02-11T15:11:53Z</time>
      </trkpt>
      <trkpt lat="45.81017" lon="3.06998">
        <ele>568.749</ele>
        <time>2012-02-11T15:11:56Z</time>
      </trkpt>
      <trkpt lat="45.81028" lon="3.06999">
        <ele>568.591</ele>
        <time>2012-02-11T15:11:59Z</time>
      </trkpt>
      <trkpt lat="45.81064" lon="3.0701">
        <ele>566.064</ele>
        <time>2012-02-11T15:12:07Z</time>
      </trkpt>
      <trkpt lat="45.81099" lon="3.07026">
        <ele>563.245</ele>
        <time>2012-02-11T15:12:13Z</time>
      </trkpt>
      <trkpt lat="45.81112" lon="3.07032">
        <ele>561.865</ele>
        <time>2012-02-11T15:12:15Z</time>
      </trkpt>
      <trkpt lat="45.81125" lon="3.07041">
        <ele>561.181</ele>
        <time>2012-02-11T15:12:17Z</time>
      </trkpt>
      <trkpt lat="45.81136" lon="3.07056">
        <ele>560.293</ele>
        <time>2012-02-11T15:12:19Z</time>
      </trkpt>
      <trkpt lat="45.81149" lon="3.0708">
        <ele>559.123</ele>
        <time>2012-02-11T15:12:22Z</time>
      </trkpt>
      <trkpt lat="45.81167" lon="3.07107">
        <ele>556.848</ele>
        <time>2012-02-11T15:12:26Z</time>
      </trkpt>
      <trkpt lat="45.81173" lon="3.07123">
        <ele>554.573</ele>
        <time>2012-02-11T15:12:28Z</time>
      </trkpt>
      <trkpt lat="45.81187" lon="3.07133">
        <ele>550.571</ele>
        <time>2012-02-11T15:12:31Z</time>
      </trkpt>
      <trkpt lat="45.81193" lon="3.07121">
        <ele>548.128</ele>
        <time>2012-02-11T15:12:33Z</time>
      </trkpt>
      <trkpt lat="45.81197" lon="3.0705">
        <ele>539.953</ele>
        <time>2012-02-11T15:12:40Z</time>
      </trkpt>
      <trkpt lat="45.81201" lon="3.07026">
        <ele>538.433</ele>
        <time>2012-02-11T15:12:42Z</time>
      </trkpt>
      <trkpt lat="45.81207" lon="3.06988">
        <ele>534.618</ele>
        <time>2012-02-11T15:12:45Z</time>
      </trkpt>
      <trkpt lat="45.81217" lon="3.06954">
        <ele>531.684</ele>
        <time>2012-02-11T15:12:48Z</time>
      </trkpt>
      <trkpt lat="45.81222" lon="3.06918">
        <ele>528.558</ele>
        <time>2012-02-11T15:12:51Z</time>
      </trkpt>
      <trkpt lat="45.81225" lon="3.06891">
        <ele>525.799</ele>
        <time>2012-02-11T15:12:53Z</time>
      </trkpt>
      <trkpt lat="45.81229" lon="3.06836">
        <ele>520.121</ele>
        <time>2012-02-11T15:12:57Z</time>
      </trkpt>
      <trkpt lat="45.81238" lon="3.0681">
        <ele>516.991</ele>
        <time>2012-02-11T15:12:59Z</time>
      </trkpt>
      <trkpt lat="45.81251" lon="3.06773">
        <ele>513.334</ele>
        <time>2012-02-11T15:13:02Z</time>
      </trkpt>
      <trkpt lat="45.81273" lon="3.06715">
        <ele>509.091</ele>
        <time>2012-02-11T15:13:07Z</time>
      </trkpt>
      <trkpt lat="45.81295" lon="3.06654">
        <ele>503.429</ele>
        <time>2012-02-11T15:13:12Z</time>
      </trkpt>
      <trkpt lat="45.81307" lon="3.06587">
        <ele>495.754</ele>
        <time>2012-02-11T15:13:17Z</time>
      </trkpt>
      <trkpt lat="45.8131" lon="3.06558">
        <ele>492.691</ele>
        <time>2012-02-11T15:13:19Z</time>
      </trkpt>
      <trkpt lat="45.81311" lon="3.06529">
        <ele>490.087</ele>
        <time>2012-02-11T15:13:21Z</time>
      </trkpt>
      <trkpt lat="45.81301" lon="3.06493">
        <ele>485.001</ele>
        <time>2012-02-11T15:13:25Z</time>
      </trkpt>
      <trkpt lat="45.81308" lon="3.06488">
        <ele>482.243</ele>
        <time>2012-02-11T15:13:29Z</time>
      </trkpt>
      <trkpt lat="45.81315" lon="3.06493">
        <ele>481.545</ele>
        <time>2012-02-11T15:13:33Z</time>
      </trkpt>
      <trkpt lat="45.81319" lon="3.06496">
        <ele>481.884</ele>
        <time>2012-02-11T15:13:35Z</time>
      </trkpt>
      <trkpt lat="45.81325" lon="3.06501">
        <ele>482.555</ele>
        <time>2012-02-11T15:13:38Z</time>
      </trkpt>
      <trkpt lat="45.81328" lon="3.06504">
        <ele>483.25</ele>
        <time>2012-02-11T15:13:42Z</time>
      </trkpt>
      <trkpt lat="45.81332" lon="3.0651">
        <ele>483.419</ele>
        <time>2012-02-11T15:14:03Z</time>
      </trkpt>
      <trkpt lat="45.81339" lon="3.06522">
        <ele>483.606</ele>
        <time>2012-02-11T15:14:08Z</time>
      </trkpt>
      <trkpt lat="45.81348" lon="3.06539">
        <ele>484.749</ele>
        <time>2012-02-11T15:14:15Z</time>
      </trkpt>
      <trkpt lat="45.81358" lon="3.06561">
        <ele>485.827</ele>
        <time>2012-02-11T15:14:22Z</time>
      </trkpt>
      <trkpt lat="45.81371" lon="3.06592">
        <ele>487.021</ele>
        <time>2012-02-11T15:14:30Z</time>
      </trkpt>
      <trkpt lat="45.81389" lon="3.06624">
        <ele>488.794</ele>
        <time>2012-02-11T15:14:39Z</time>
      </trkpt>
      <trkpt lat="45.81398" lon="3.06649">
        <ele>490.028</ele>
        <time>2012-02-11T15:14:45Z</time>
      </trkpt>
      <trkpt lat="45.814" lon="3.06689">
        <ele>492.029</ele>
        <time>2012-02-11T15:14:54Z</time>
      </trkpt>
      <trkpt lat="45.81401" lon="3.06729">
        <ele>493.398</ele>
        <time>2012-02-11T15:15:02Z</time>
      </trkpt>
      <trkpt lat="45.81406" lon="3.06758">
        <ele>494.071</ele>
        <time>2012-02-11T15:15:08Z</time>
      </trkpt>
      <trkpt lat="45.81417" lon="3.06761">
        <ele>493.966</ele>
        <time>2012-02-11T15:15:12Z</time>
      </trkpt>
      <trkpt lat="45.81424" lon="3.06757">
        <ele>493.586</ele>
        <time>2012-02-11T15:15:17Z</time>
      </trkpt>
      <trkpt lat="45.81424" lon="3.06757">
        <ele>493.39</ele>
        <time>2012-02-11T15:15:18Z</time>
      </trkpt>
      <trkpt lat="45.81434" lon="3.06752">
        <ele>492.559</ele>
        <time>2012-02-11T15:15:42Z</time>
      </trkpt>
      <trkpt lat="45.81458" lon="3.06738">
        <ele>490.748</ele>
        <time>2012-02-11T15:15:48Z</time>
      </trkpt>
      <trkpt lat="45.81462" lon="3.06736">
        <ele>490.325</ele>
        <time>2012-02-11T15:15:49Z</time>
      </trkpt>
      <trkpt lat="45.81486" lon="3.06738">
        <ele>488.22</ele>
        <time>2012-02-11T15:15:54Z</time>
      </trkpt>
      <trkpt lat="45.81493" lon="3.06749">
        <ele>487.583</ele>
        <time>2012-02-11T15:15:56Z</time>
      </trkpt>
      <trkpt lat="45.81514" lon="3.06801">
        <ele>485.651</ele>
        <time>2012-02-11T15:16:04Z</time>
      </trkpt>
      <trkpt lat="45.81534" lon="3.06828">
        <ele>483.967</ele>
        <time>2012-02-11T15:16:09Z</time>
      </trkpt>
      <trkpt lat="45.81537" lon="3.06834">
        <ele>483.689</ele>
        <time>2012-02-11T15:16:10Z</time>
      </trkpt>
      <trkpt lat="45.81556" lon="3.06868">
        <ele>482.473</ele>
        <time>2012-02-11T15:16:15Z</time>
      </trkpt>
      <trkpt lat="45.81566" lon="3.06885">
        <ele>481.447</ele>
        <time>2012-02-11T15:16:17Z</time>
      </trkpt>
      <trkpt lat="45.81591" lon="3.06912">
        <ele>477.289</ele>
        <time>2012-02-11T15:16:22Z</time>
      </trkpt>
      <trkpt lat="45.816" lon="3.06926">
        <ele>475.313</ele>
        <time>2012-02-11T15:16:25Z</time>
      </trkpt>
      <trkpt lat="45.81605" lon="3.06954">
        <ele>473.741</ele>
        <time>2012-02-11T15:16:30Z</time>
      </trkpt>
      <trkpt lat="45.81614" lon="3.06992">
        <ele>473.173</ele>
        <time>2012-02-11T15:16:37Z</time>
      </trkpt>
      <trkpt lat="45.81623" lon="3.07028">
        <ele>472.781</ele>
        <time>2012-02-11T15:16:43Z</time>
      </trkpt>
      <trkpt lat="45.81632" lon="3.07067">
        <ele>474.029</ele>
        <time>2012-02-11T15:16:51Z</time>
      </trkpt>
      <trkpt lat="45.81642" lon="3.071">
        <ele>475.461</ele>
        <time>2012-02-11T15:16:58Z</time>
      </trkpt>
      <trkpt lat="45.81652" lon="3.0713">
        <ele>477.711</ele>
        <time>2012-02-11T15:17:05Z</time>
      </trkpt>
      <trkpt lat="45.81654" lon="3.07161">
        <ele>479.533</ele>
        <time>2012-02-11T15:17:12Z</time>
      </trkpt>
      <trkpt lat="45.81654" lon="3.07184">
        <ele>480.338</ele>
        <time>2012-02-11T15:17:18Z</time>
      </trkpt>
      <trkpt lat="45.81654" lon="3.07184">
        <ele>480.579</ele>
        <time>2012-02-11T15:17:20Z</time>
      </trkpt>
      <trkpt lat="45.81671" lon="3.0719">
        <ele>478.585</ele>
        <time>2012-02-11T15:17:36Z</time>
      </trkpt>
      <trkpt lat="45.81676" lon="3.07185">
        <ele>476.67</ele>
        <time>2012-02-11T15:17:38Z</time>
      </trkpt>
      <trkpt lat="45.81676" lon="3.07176">
        <ele>474.981</ele>
        <time>2012-02-11T15:17:40Z</time>
      </trkpt>
      <trkpt lat="45.81677" lon="3.07164">
        <ele>473.611</ele>
        <time>2012-02-11T15:17:43Z</time>
      </trkpt>
      <trkpt lat="45.81685" lon="3.07149">
        <ele>473.302</ele>
        <time>2012-02-11T15:17:46Z</time>
      </trkpt>
      <trkpt lat="45.81698" lon="3.07109">
        <ele>469.914</ele>
        <time>2012-02-11T15:17:51Z</time>
      </trkpt>
      <trkpt lat="45.81704" lon="3.07103">
        <ele>467.824</ele>
        <time>2012-02-11T15:17:53Z</time>
      </trkpt>
      <trkpt lat="45.81709" lon="3.071">
        <ele>465.877</ele>
        <time>2012-02-11T15:17:55Z</time>
      </trkpt>
      <trkpt lat="45.81719" lon="3.07081">
        <ele>461.007</ele>
        <time>2012-02-11T15:17:59Z</time>
      </trkpt>
      <trkpt lat="45.81726" lon="3.07066">
        <ele>456.638</ele>
        <time>2012-02-11T15:18:02Z</time>
      </trkpt>
      <trkpt lat="45.81748" lon="3.07046">
        <ele>449.583</ele>
        <time>2012-02-11T15:18:06Z</time>
      </trkpt>
      <trkpt lat="45.81754" lon="3.0704">
        <ele>447.584</ele>
        <time>2012-02-11T15:18:07Z</time>
      </trkpt>
      <trkpt lat="45.81768" lon="3.07031">
        <ele>442.215</ele>
        <time>2012-02-11T15:18:11Z</time>
      </trkpt>
      <trkpt lat="45.81769" lon="3.07028">
        <ele>438.261</ele>
        <time>2012-02-11T15:18:16Z</time>
      </trkpt>
      <trkpt lat="45.81769" lon="3.07028">
        <ele>437.875</ele>
        <time>2012-02-11T15:18:17Z</time>
      </trkpt>
      <trkpt lat="45.81771" lon="3.07026">
        <ele>437.016</ele>
        <time>2012-02-11T15:18:22Z</time>
      </trkpt>
      <trkpt lat="45.81773" lon="3.07024">
        <ele>435.442</ele>
        <time>2012-02-11T15:18:27Z</time>
      </trkpt>
      <trkpt lat="45.81773" lon="3.07022">
        <ele>433.679</ele>
        <time>2012-02-11T15:18:37Z</time>
      </trkpt>
      <trkpt lat="45.81774" lon="3.07022">
        <ele>433.673</ele>
        <time>2012-02-11T15:18:38Z</time>
      </trkpt>
      <trkpt lat="45.81774" lon="3.07022">
        <ele>433.566</ele>
        <time>2012-02-11T15:18:39Z</time>
      </trkpt>
      <trkpt lat="45.81776" lon="3.07022">
        <ele>433.255</ele>
        <time>2012-02-11T15:18:51Z</time>
      </trkpt>
      <trkpt lat="45.81776" lon="3.07021">
        <ele>432.82</ele>
        <time>2012-02-11T15:18:55Z</time>
      </trkpt>
      <trkpt lat="45.8179" lon="3.07028">
        <ele>431.487</ele>
        <time>2012-02-11T15:19:45Z</time>
      </trkpt>
      <trkpt lat="45.81812" lon="3.07022">
        <ele>427.769</ele>
        <time>2012-02-11T15:19:49Z</time>
      </trkpt>
      <trkpt lat="45.81827" lon="3.07011">
        <ele>424.206</ele>
        <time>2012-02-11T15:19:52Z</time>
      </trkpt>
      <trkpt lat="45.81832" lon="3.0701">
        <ele>424.21</ele>
        <time>2012-02-11T15:19:53Z</time>
      </trkpt>
      <trkpt lat="45.81833" lon="3.06998">
        <ele>422.116</ele>
        <time>2012-02-11T15:19:55Z</time>
      </trkpt>
      <trkpt lat="45.81831" lon="3.06986">
        <ele>420.534</ele>
        <time>2012-02-11T15:19:58Z</time>
      </trkpt>
      <trkpt lat="45.81832" lon="3.06976">
        <ele>420.073</ele>
        <time>2012-02-11T15:20:00Z</time>
      </trkpt>
      <trkpt lat="45.81829" lon="3.06964">
        <ele>420.295</ele>
        <time>2012-02-11T15:20:05Z</time>
      </trkpt>
      <trkpt lat="45.81829" lon="3.06964">
        <ele>420.462</ele>
        <time>2012-02-11T15:20:07Z</time>
      </trkpt>
      <trkpt lat="45.81828" lon="3.06957">
        <ele>420.596</ele>
        <time>2012-02-11T15:20:18Z</time>
      </trkpt>
      <trkpt lat="45.81828" lon="3.06957">
        <ele>420.539</ele>
        <time>2012-02-11T15:20:19Z</time>
      </trkpt>
      <trkpt lat="45.81827" lon="3.06954">
        <ele>420.687</ele>
        <time>2012-02-11T15:20:34Z</time>
      </trkpt>
      <trkpt lat="45.81826" lon="3.0695">
        <ele>420.418</ele>
        <time>2012-02-11T15:20:39Z</time>
      </trkpt>
      <trkpt lat="45.81826" lon="3.0695">
        <ele>420.084</ele>
        <time>2012-02-11T15:20:45Z</time>
      </trkpt>
      <trkpt lat="45.81826" lon="3.06951">
        <ele>420.14</ele>
        <time>2012-02-11T15:20:46Z</time>
      </trkpt>
      <trkpt lat="45.81826" lon="3.06953">
        <ele>420.686</ele>
        <time>2012-02-11T15:21:04Z</time>
      </trkpt>
      <trkpt lat="45.81828" lon="3.06959">
        <ele>420.713</ele>
        <time>2012-02-11T15:21:10Z</time>
      </trkpt>
      <trkpt lat="45.81828" lon="3.06963">
        <ele>420.603</ele>
        <time>2012-02-11T15:21:22Z</time>
      </trkpt>
      <trkpt lat="45.8183" lon="3.0697">
        <ele>420.621</ele>
        <time>2012-02-11T15:21:26Z</time>
      </trkpt>
      <trkpt lat="45.81838" lon="3.06968">
        <ele>419.96</ele>
        <time>2012-02-11T15:21:31Z</time>
      </trkpt>
      <trkpt lat="45.81844" lon="3.06962">
        <ele>418.213</ele>
        <time>2012-02-11T15:21:35Z</time>
      </trkpt>
      <trkpt lat="45.81856" lon="3.06955">
        <ele>413.965</ele>
        <time>2012-02-11T15:21:39Z</time>
      </trkpt>
      <trkpt lat="45.81862" lon="3.06964">
        <ele>411.732</ele>
        <time>2012-02-11T15:21:41Z</time>
      </trkpt>
      <trkpt lat="45.81881" lon="3.06997">
        <ele>406.869</ele>
        <time>2012-02-11T15:21:46Z</time>
      </trkpt>
      <trkpt lat="45.8191" lon="3.07013">
        <ele>402.123</ele>
        <time>2012-02-11T15:21:51Z</time>
      </trkpt>
      <trkpt lat="45.81915" lon="3.07014">
        <ele>401.133</ele>
        <time>2012-02-11T15:21:52Z</time>
      </trkpt>
      <trkpt lat="45.81943" lon="3.07014">
        <ele>397.361</ele>
        <time>2012-02-11T15:21:56Z</time>
      </trkpt>
      <trkpt lat="45.81961" lon="3.07023">
        <ele>395.49</ele>
        <time>2012-02-11T15:21:59Z</time>
      </trkpt>
      <trkpt lat="45.81976" lon="3.07038">
        <ele>392.921</ele>
        <time>2012-02-11T15:22:02Z</time>
      </trkpt>
      <trkpt lat="45.81997" lon="3.07045">
        <ele>390.229</ele>
        <time>2012-02-11T15:22:06Z</time>
      </trkpt>
      <trkpt lat="45.8201" lon="3.07049">
        <ele>388.768</ele>
        <time>2012-02-11T15:22:08Z</time>
      </trkpt>
      <trkpt lat="45.82041" lon="3.0706">
        <ele>384.844</ele>
        <time>2012-02-11T15:22:13Z</time>
      </trkpt>
      <trkpt lat="45.82058" lon="3.0706">
        <ele>383.268</ele>
        <time>2012-02-11T15:22:16Z</time>
      </trkpt>
      <trkpt lat="45.82063" lon="3.07059">
        <ele>382.853</ele>
        <time>2012-02-11T15:22:17Z</time>
      </trkpt>
      <trkpt lat="45.82086" lon="3.07059">
        <ele>381.73</ele>
        <time>2012-02-11T15:22:22Z</time>
      </trkpt>
      <trkpt lat="45.82088" lon="3.07059">
        <ele>381.594</ele>
        <time>2012-02-11T15:22:25Z</time>
      </trkpt>
      <trkpt lat="45.82089" lon="3.07063">
        <ele>383.171</ele>
        <time>2012-02-11T15:25:00Z</time>
      </trkpt>
      <trkpt lat="45.8209" lon="3.07063">
        <ele>383.121</ele>
        <time>2012-02-11T15:25:01Z</time>
      </trkpt>
      <trkpt lat="45.821" lon="3.07063">
        <ele>382.629</ele>
        <time>2012-02-11T15:25:05Z</time>
      </trkpt>
      <trkpt lat="45.82127" lon="3.07056">
        <ele>380.553</ele>
        <time>2012-02-11T15:25:11Z</time>
      </trkpt>
      <trkpt lat="45.82146" lon="3.07048">
        <ele>378.834</ele>
        <time>2012-02-11T15:25:16Z</time>
      </trkpt>
      <trkpt lat="45.82148" lon="3.07037">
        <ele>378.221</ele>
        <time>2012-02-11T15:25:20Z</time>
      </trkpt>
      <trkpt lat="45.82139" lon="3.07019">
        <ele>378.111</ele>
        <time>2012-02-11T15:25:25Z</time>
      </trkpt>
      <trkpt lat="45.8212" lon="3.06988">
        <ele>378.727</ele>
        <time>2012-02-11T15:25:34Z</time>
      </trkpt>
      <trkpt lat="45.82104" lon="3.06953">
        <ele>378.236</ele>
        <time>2012-02-11T15:25:42Z</time>
      </trkpt>
      <trkpt lat="45.82099" lon="3.06932">
        <ele>378.225</ele>
        <time>2012-02-11T15:25:46Z</time>
      </trkpt>
      <trkpt lat="45.82086" lon="3.069">
        <ele>378.782</ele>
        <time>2012-02-11T15:25:53Z</time>
      </trkpt>
      <trkpt lat="45.82072" lon="3.06872">
        <ele>381.406</ele>
        <time>2012-02-11T15:26:01Z</time>
      </trkpt>
      <trkpt lat="45.82058" lon="3.06838">
        <ele>382.836</ele>
        <time>2012-02-11T15:26:09Z</time>
      </trkpt>
      <trkpt lat="45.82042" lon="3.06797">
        <ele>383.182</ele>
        <time>2012-02-11T15:26:18Z</time>
      </trkpt>
      <trkpt lat="45.82025" lon="3.06754">
        <ele>383.306</ele>
        <time>2012-02-11T15:26:27Z</time>
      </trkpt>
      <trkpt lat="45.82009" lon="3.06716">
        <ele>383.417</ele>
        <time>2012-02-11T15:26:35Z</time>
      </trkpt>
      <trkpt lat="45.81993" lon="3.06678">
        <ele>383.384</ele>
        <time>2012-02-11T15:26:43Z</time>
      </trkpt>
      <trkpt lat="45.81979" lon="3.0665">
        <ele>383.467</ele>
        <time>2012-02-11T15:26:49Z</time>
      </trkpt>
      <trkpt lat="45.8197" lon="3.06615">
        <ele>383.746</ele>
        <time>2012-02-11T15:26:56Z</time>
      </trkpt>
      <trkpt lat="45.81969" lon="3.06605">
        <ele>383.768</ele>
        <time>2012-02-11T15:26:58Z</time>
      </trkpt>
      <trkpt lat="45.81957" lon="3.06588">
        <ele>383.801</ele>
        <time>2012-02-11T15:27:05Z</time>
      </trkpt>
      <trkpt lat="45.81944" lon="3.06558">
        <ele>384.188</ele>
        <time>2012-02-11T15:27:13Z</time>
      </trkpt>
      <trkpt lat="45.81934" lon="3.06519">
        <ele>385.177</ele>
        <time>2012-02-11T15:27:22Z</time>
      </trkpt>
      <trkpt lat="45.81923" lon="3.06495">
        <ele>385.284</ele>
        <time>2012-02-11T15:27:28Z</time>
      </trkpt>
      <trkpt lat="45.81906" lon="3.06475">
        <ele>385.552</ele>
        <time>2012-02-11T15:27:35Z</time>
      </trkpt>
      <trkpt lat="45.81887" lon="3.0645">
        <ele>386.36</ele>
        <time>2012-02-11T15:27:43Z</time>
      </trkpt>
      <trkpt lat="45.81868" lon="3.06434">
        <ele>387.164</ele>
        <time>2012-02-11T15:27:50Z</time>
      </trkpt>
      <trkpt lat="45.81847" lon="3.06419">
        <ele>387.881</ele>
        <time>2012-02-11T15:27:57Z</time>
      </trkpt>
      <trkpt lat="45.81829" lon="3.06399">
        <ele>388.616</ele>
        <time>2012-02-11T15:28:04Z</time>
      </trkpt>
      <trkpt lat="45.81809" lon="3.06377">
        <ele>389.9</ele>
        <time>2012-02-11T15:28:12Z</time>
      </trkpt>
      <trkpt lat="45.81801" lon="3.06367">
        <ele>390.418</ele>
        <time>2012-02-11T15:28:16Z</time>
      </trkpt>
      <trkpt lat="45.8179" lon="3.06375">
        <ele>391.133</ele>
        <time>2012-02-11T15:28:21Z</time>
      </trkpt>
      <trkpt lat="45.81783" lon="3.06381">
        <ele>392.084</ele>
        <time>2012-02-11T15:28:24Z</time>
      </trkpt>
      <trkpt lat="45.81768" lon="3.06383">
        <ele>394.985</ele>
        <time>2012-02-11T15:28:31Z</time>
      </trkpt>
      <trkpt lat="45.81755" lon="3.06378">
        <ele>396.119</ele>
        <time>2012-02-11T15:28:38Z</time>
      </trkpt>
      <trkpt lat="45.81744" lon="3.06369">
        <ele>397.11</ele>
        <time>2012-02-11T15:28:45Z</time>
      </trkpt>
      <trkpt lat="45.81734" lon="3.06365">
        <ele>398.704</ele>
        <time>2012-02-11T15:28:51Z</time>
      </trkpt>
      <trkpt lat="45.81721" lon="3.06358">
        <ele>400.846</ele>
        <time>2012-02-11T15:28:59Z</time>
      </trkpt>
      <trkpt lat="45.81711" lon="3.0635">
        <ele>403.233</ele>
        <time>2012-02-11T15:29:07Z</time>
      </trkpt>
      <trkpt lat="45.81694" lon="3.06336">
        <ele>405.313</ele>
        <time>2012-02-11T15:29:18Z</time>
      </trkpt>
      <trkpt lat="45.81682" lon="3.06323">
        <ele>406.587</ele>
        <time>2012-02-11T15:29:26Z</time>
      </trkpt>
      <trkpt lat="45.81669" lon="3.06308">
        <ele>408.285</ele>
        <time>2012-02-11T15:29:35Z</time>
      </trkpt>
      <trkpt lat="45.81656" lon="3.06295">
        <ele>410.195</ele>
        <time>2012-02-11T15:29:44Z</time>
      </trkpt>
      <trkpt lat="45.81649" lon="3.06281">
        <ele>412.04</ele>
        <time>2012-02-11T15:29:51Z</time>
      </trkpt>
      <trkpt lat="45.81651" lon="3.06262">
        <ele>412.473</ele>
        <time>2012-02-11T15:29:57Z</time>
      </trkpt>
      <trkpt lat="45.81656" lon="3.06237">
        <ele>412.754</ele>
        <time>2012-02-11T15:30:05Z</time>
      </trkpt>
      <trkpt lat="45.81649" lon="3.0622">
        <ele>412.963</ele>
        <time>2012-02-11T15:30:11Z</time>
      </trkpt>
      <trkpt lat="45.8163" lon="3.06204">
        <ele>413.432</ele>
        <time>2012-02-11T15:30:18Z</time>
      </trkpt>
      <trkpt lat="45.81609" lon="3.06199">
        <ele>414.204</ele>
        <time>2012-02-11T15:30:25Z</time>
      </trkpt>
      <trkpt lat="45.81587" lon="3.06207">
        <ele>414.578</ele>
        <time>2012-02-11T15:30:32Z</time>
      </trkpt>
      <trkpt lat="45.81568" lon="3.06205">
        <ele>414.255</ele>
        <time>2012-02-11T15:30:37Z</time>
      </trkpt>
      <trkpt lat="45.81544" lon="3.06192">
        <ele>414.087</ele>
        <time>2012-02-11T15:30:44Z</time>
      </trkpt>
      <trkpt lat="45.81514" lon="3.06171">
        <ele>414.585</ele>
        <time>2012-02-11T15:30:53Z</time>
      </trkpt>
      <trkpt lat="45.81491" lon="3.06152">
        <ele>415.146</ele>
        <time>2012-02-11T15:31:00Z</time>
      </trkpt>
      <trkpt lat="45.81476" lon="3.06124">
        <ele>414.68</ele>
        <time>2012-02-11T15:31:06Z</time>
      </trkpt>
      <trkpt lat="45.81464" lon="3.06099">
        <ele>413.895</ele>
        <time>2012-02-11T15:31:11Z</time>
      </trkpt>
      <trkpt lat="45.81455" lon="3.06077">
        <ele>413.987</ele>
        <time>2012-02-11T15:31:16Z</time>
      </trkpt>
      <trkpt lat="45.8143" lon="3.06043">
        <ele>414.284</ele>
        <time>2012-02-11T15:31:24Z</time>
      </trkpt>
      <trkpt lat="45.81394" lon="3.06014">
        <ele>414.479</ele>
        <time>2012-02-11T15:31:34Z</time>
      </trkpt>
      <trkpt lat="45.81361" lon="3.06">
        <ele>414.234</ele>
        <time>2012-02-11T15:31:42Z</time>
      </trkpt>
      <trkpt lat="45.81329" lon="3.05996">
        <ele>415.154</ele>
        <time>2012-02-11T15:31:50Z</time>
      </trkpt>
      <trkpt lat="45.8132" lon="3.05997">
        <ele>415.401</ele>
        <time>2012-02-11T15:31:52Z</time>
      </trkpt>
      <trkpt lat="45.81303" lon="3.05992">
        <ele>415.273</ele>
        <time>2012-02-11T15:31:56Z</time>
      </trkpt>
      <trkpt lat="45.81291" lon="3.05984">
        <ele>415.139</ele>
        <time>2012-02-11T15:31:59Z</time>
      </trkpt>
      <trkpt lat="45.81264" lon="3.05947">
        <ele>415.293</ele>
        <time>2012-02-11T15:32:08Z</time>
      </trkpt>
      <trkpt lat="45.81238" lon="3.05912">
        <ele>415.826</ele>
        <time>2012-02-11T15:32:17Z</time>
      </trkpt>
      <trkpt lat="45.81208" lon="3.05889">
        <ele>416.939</ele>
        <time>2012-02-11T15:32:26Z</time>
      </trkpt>
      <trkpt lat="45.81174" lon="3.05869">
        <ele>418.362</ele>
        <time>2012-02-11T15:32:36Z</time>
      </trkpt>
      <trkpt lat="45.81144" lon="3.05853">
        <ele>419.499</ele>
        <time>2012-02-11T15:32:45Z</time>
      </trkpt>
      <trkpt lat="45.81127" lon="3.05835">
        <ele>420.485</ele>
        <time>2012-02-11T15:32:51Z</time>
      </trkpt>
      <trkpt lat="45.81114" lon="3.05807">
        <ele>421.773</ele>
        <time>2012-02-11T15:32:58Z</time>
      </trkpt>
      <trkpt lat="45.81101" lon="3.0579">
        <ele>422.574</ele>
        <time>2012-02-11T15:33:03Z</time>
      </trkpt>
      <trkpt lat="45.81074" lon="3.05791">
        <ele>423.059</ele>
        <time>2012-02-11T15:33:10Z</time>
      </trkpt>
      <trkpt lat="45.8106" lon="3.05793">
        <ele>423.445</ele>
        <time>2012-02-11T15:33:14Z</time>
      </trkpt>
      <trkpt lat="45.81055" lon="3.05796">
        <ele>423.67</ele>
        <time>2012-02-11T15:33:18Z</time>
      </trkpt>
      <trkpt lat="45.81055" lon="3.05796">
        <ele>423.759</ele>
        <time>2012-02-11T15:33:19Z</time>
      </trkpt>
      <trkpt lat="45.81043" lon="3.05796">
        <ele>424.202</ele>
        <time>2012-02-11T15:39:45Z</time>
      </trkpt>
      <trkpt lat="45.81047" lon="3.0579">
        <ele>423.931</ele>
        <time>2012-02-11T15:40:08Z</time>
      </trkpt>
      <trkpt lat="45.81046" lon="3.05797">
        <ele>424.267</ele>
        <time>2012-02-11T15:42:58Z</time>
      </trkpt>
      <trkpt lat="45.81045" lon="3.05802">
        <ele>426.239</ele>
        <time>2012-02-11T15:46:48Z</time>
      </trkpt>
      <trkpt lat="45.81038" lon="3.05803">
        <ele>426.719</ele>
        <time>2012-02-11T15:46:57Z</time>
      </trkpt>
      <trkpt lat="45.81029" lon="3.058">
        <ele>427.053</ele>
        <time>2012-02-11T15:47:04Z</time>
      </trkpt>
      <trkpt lat="45.81026" lon="3.05799">
        <ele>427.061</ele>
        <time>2012-02-11T15:47:06Z</time>
      </trkpt>
      <trkpt lat="45.81023" lon="3.05796">
        <ele>427.17</ele>
        <time>2012-02-11T15:47:10Z</time>
      </trkpt>
      <trkpt lat="45.81013" lon="3.05793">
        <ele>427.332</ele>
        <time>2012-02-11T15:47:35Z</time>
      </trkpt>
      <trkpt lat="45.81017" lon="3.05793">
        <ele>427.301</ele>
        <time>2012-02-11T15:47:39Z</time>
      </trkpt>
      <trkpt lat="45.81035" lon="3.05797">
        <ele>426.977</ele>
        <time>2012-02-11T15:47:46Z</time>
      </trkpt>
      <trkpt lat="45.81046" lon="3.05795">
        <ele>426.631</ele>
        <time>2012-02-11T15:47:50Z</time>
      </trkpt>
      <trkpt lat="45.81056" lon="3.05804">
        <ele>426.504</ele>
        <time>2012-02-11T15:47:54Z</time>
      </trkpt>
      <trkpt lat="45.81058" lon="3.05812">
        <ele>426.701</ele>
        <time>2012-02-11T15:47:56Z</time>
      </trkpt>
      <trkpt lat="45.81059" lon="3.05821">
        <ele>426.932</ele>
        <time>2012-02-11T15:47:58Z</time>
      </trkpt>
      <trkpt lat="45.8105" lon="3.05841">
        <ele>428.776</ele>
        <time>2012-02-11T15:48:04Z</time>
      </trkpt>
      <trkpt lat="45.81041" lon="3.05864">
        <ele>430.762</ele>
        <time>2012-02-11T15:48:11Z</time>
      </trkpt>
      <trkpt lat="45.81028" lon="3.05895">
        <ele>433.079</ele>
        <time>2012-02-11T15:48:21Z</time>
      </trkpt>
      <trkpt lat="45.81013" lon="3.05927">
        <ele>435.261</ele>
        <time>2012-02-11T15:48:31Z</time>
      </trkpt>
      <trkpt lat="45.81" lon="3.05949">
        <ele>436.78</ele>
        <time>2012-02-11T15:48:39Z</time>
      </trkpt>
      <trkpt lat="45.8098" lon="3.0597">
        <ele>438.847</ele>
        <time>2012-02-11T15:48:49Z</time>
      </trkpt>
      <trkpt lat="45.80966" lon="3.05984">
        <ele>440.793</ele>
        <time>2012-02-11T15:48:57Z</time>
      </trkpt>
      <trkpt lat="45.80957" lon="3.06001">
        <ele>441.959</ele>
        <time>2012-02-11T15:49:04Z</time>
      </trkpt>
      <trkpt lat="45.80956" lon="3.06018">
        <ele>443.812</ele>
        <time>2012-02-11T15:49:10Z</time>
      </trkpt>
      <trkpt lat="45.80962" lon="3.06034">
        <ele>445.584</ele>
        <time>2012-02-11T15:49:16Z</time>
      </trkpt>
      <trkpt lat="45.80968" lon="3.06056">
        <ele>448.566</ele>
        <time>2012-02-11T15:49:25Z</time>
      </trkpt>
      <trkpt lat="45.80975" lon="3.06076">
        <ele>450.622</ele>
        <time>2012-02-11T15:49:34Z</time>
      </trkpt>
      <trkpt lat="45.80986" lon="3.06094">
        <ele>453.291</ele>
        <time>2012-02-11T15:49:44Z</time>
      </trkpt>
      <trkpt lat="45.80997" lon="3.06105">
        <ele>455.22</ele>
        <time>2012-02-11T15:49:52Z</time>
      </trkpt>
      <trkpt lat="45.81009" lon="3.06113">
        <ele>457.564</ele>
        <time>2012-02-11T15:50:00Z</time>
      </trkpt>
      <trkpt lat="45.81021" lon="3.06119">
        <ele>459.738</ele>
        <time>2012-02-11T15:50:07Z</time>
      </trkpt>
      <trkpt lat="45.81037" lon="3.06128">
        <ele>461.917</ele>
        <time>2012-02-11T15:50:16Z</time>
      </trkpt>
      <trkpt lat="45.8105" lon="3.06136">
        <ele>463.349</ele>
        <time>2012-02-11T15:50:23Z</time>
      </trkpt>
      <trkpt lat="45.81071" lon="3.06147">
        <ele>465.493</ele>
        <time>2012-02-11T15:50:34Z</time>
      </trkpt>
      <trkpt lat="45.81085" lon="3.06162">
        <ele>466.735</ele>
        <time>2012-02-11T15:50:42Z</time>
      </trkpt>
      <trkpt lat="45.81096" lon="3.06181">
        <ele>467.765</ele>
        <time>2012-02-11T15:50:50Z</time>
      </trkpt>
      <trkpt lat="45.81106" lon="3.06197">
        <ele>468.861</ele>
        <time>2012-02-11T15:50:57Z</time>
      </trkpt>
      <trkpt lat="45.81122" lon="3.0622">
        <ele>471.114</ele>
        <time>2012-02-11T15:51:08Z</time>
      </trkpt>
      <trkpt lat="45.81138" lon="3.06244">
        <ele>473.883</ele>
        <time>2012-02-11T15:51:19Z</time>
      </trkpt>
      <trkpt lat="45.81152" lon="3.06261">
        <ele>474.94</ele>
        <time>2012-02-11T15:51:26Z</time>
      </trkpt>
      <trkpt lat="45.81166" lon="3.06282">
        <ele>475.913</ele>
        <time>2012-02-11T15:51:34Z</time>
      </trkpt>
      <trkpt lat="45.81187" lon="3.06314">
        <ele>478.658</ele>
        <time>2012-02-11T15:51:46Z</time>
      </trkpt>
      <trkpt lat="45.81202" lon="3.06338">
        <ele>479.632</ele>
        <time>2012-02-11T15:51:54Z</time>
      </trkpt>
      <trkpt lat="45.81223" lon="3.06367">
        <ele>480.082</ele>
        <time>2012-02-11T15:52:03Z</time>
      </trkpt>
      <trkpt lat="45.8124" lon="3.06403">
        <ele>480.292</ele>
        <time>2012-02-11T15:52:12Z</time>
      </trkpt>
      <trkpt lat="45.81249" lon="3.06428">
        <ele>480.787</ele>
        <time>2012-02-11T15:52:18Z</time>
      </trkpt>
      <trkpt lat="45.81258" lon="3.06455">
        <ele>481.606</ele>
        <time>2012-02-11T15:52:24Z</time>
      </trkpt>
      <trkpt lat="45.81271" lon="3.06476">
        <ele>483.127</ele>
        <time>2012-02-11T15:52:31Z</time>
      </trkpt>
      <trkpt lat="45.81289" lon="3.06484">
        <ele>484.819</ele>
        <time>2012-02-11T15:52:38Z</time>
      </trkpt>
      <trkpt lat="45.81299" lon="3.0649">
        <ele>486.119</ele>
        <time>2012-02-11T15:52:44Z</time>
      </trkpt>
      <trkpt lat="45.81305" lon="3.0651">
        <ele>488.765</ele>
        <time>2012-02-11T15:52:53Z</time>
      </trkpt>
      <trkpt lat="45.81311" lon="3.06523">
        <ele>490.392</ele>
        <time>2012-02-11T15:52:59Z</time>
      </trkpt>
      <trkpt lat="45.81314" lon="3.06548">
        <ele>492.529</ele>
        <time>2012-02-11T15:53:09Z</time>
      </trkpt>
      <trkpt lat="45.81313" lon="3.06557">
        <ele>493.357</ele>
        <time>2012-02-11T15:53:13Z</time>
      </trkpt>
      <trkpt lat="45.8131" lon="3.06565">
        <ele>494.124</ele>
        <time>2012-02-11T15:53:17Z</time>
      </trkpt>
      <trkpt lat="45.81307" lon="3.06592">
        <ele>497.777</ele>
        <time>2012-02-11T15:53:29Z</time>
      </trkpt>
      <trkpt lat="45.81305" lon="3.0661">
        <ele>499.964</ele>
        <time>2012-02-11T15:53:37Z</time>
      </trkpt>
      <trkpt lat="45.813" lon="3.06636">
        <ele>502.377</ele>
        <time>2012-02-11T15:53:48Z</time>
      </trkpt>
      <trkpt lat="45.81297" lon="3.06652">
        <ele>503.679</ele>
        <time>2012-02-11T15:53:55Z</time>
      </trkpt>
      <trkpt lat="45.81289" lon="3.06675">
        <ele>506.088</ele>
        <time>2012-02-11T15:54:06Z</time>
      </trkpt>
      <trkpt lat="45.81286" lon="3.06687">
        <ele>507.683</ele>
        <time>2012-02-11T15:54:12Z</time>
      </trkpt>
      <trkpt lat="45.81278" lon="3.06706">
        <ele>510.077</ele>
        <time>2012-02-11T15:54:22Z</time>
      </trkpt>
      <trkpt lat="45.81271" lon="3.06723">
        <ele>512.324</ele>
        <time>2012-02-11T15:54:31Z</time>
      </trkpt>
      <trkpt lat="45.81265" lon="3.06741">
        <ele>514.024</ele>
        <time>2012-02-11T15:54:39Z</time>
      </trkpt>
      <trkpt lat="45.81255" lon="3.06763">
        <ele>515.387</ele>
        <time>2012-02-11T15:54:48Z</time>
      </trkpt>
      <trkpt lat="45.81249" lon="3.06786">
        <ele>516.631</ele>
        <time>2012-02-11T15:54:57Z</time>
      </trkpt>
      <trkpt lat="45.81242" lon="3.06802">
        <ele>518.312</ele>
        <time>2012-02-11T15:55:04Z</time>
      </trkpt>
      <trkpt lat="45.81237" lon="3.06814">
        <ele>519.644</ele>
        <time>2012-02-11T15:55:10Z</time>
      </trkpt>
      <trkpt lat="45.81231" lon="3.06833">
        <ele>521.566</ele>
        <time>2012-02-11T15:55:18Z</time>
      </trkpt>
      <trkpt lat="45.81227" lon="3.06848">
        <ele>523.05</ele>
        <time>2012-02-11T15:55:25Z</time>
      </trkpt>
      <trkpt lat="45.81227" lon="3.0687">
        <ele>525.258</ele>
        <time>2012-02-11T15:55:34Z</time>
      </trkpt>
      <trkpt lat="45.81225" lon="3.06892">
        <ele>526.929</ele>
        <time>2012-02-11T15:55:43Z</time>
      </trkpt>
      <trkpt lat="45.81221" lon="3.06916">
        <ele>528.595</ele>
        <time>2012-02-11T15:55:53Z</time>
      </trkpt>
      <trkpt lat="45.8122" lon="3.06936">
        <ele>530.608</ele>
        <time>2012-02-11T15:56:02Z</time>
      </trkpt>
      <trkpt lat="45.8122" lon="3.06946">
        <ele>531.999</ele>
        <time>2012-02-11T15:56:07Z</time>
      </trkpt>
      <trkpt lat="45.81217" lon="3.06955">
        <ele>532.927</ele>
        <time>2012-02-11T15:56:12Z</time>
      </trkpt>
      <trkpt lat="45.81215" lon="3.06955">
        <ele>534.277</ele>
        <time>2012-02-11T15:56:18Z</time>
      </trkpt>
      <trkpt lat="45.81205" lon="3.06942">
        <ele>535.612</ele>
        <time>2012-02-11T15:56:29Z</time>
      </trkpt>
      <trkpt lat="45.81194" lon="3.06926">
        <ele>537.985</ele>
        <time>2012-02-11T15:56:39Z</time>
      </trkpt>
      <trkpt lat="45.81188" lon="3.06921">
        <ele>538.866</ele>
        <time>2012-02-11T15:56:46Z</time>
      </trkpt>
      <trkpt lat="45.81186" lon="3.06918">
        <ele>539.147</ele>
        <time>2012-02-11T15:56:51Z</time>
      </trkpt>
      <trkpt lat="45.81184" lon="3.06915">
        <ele>539.418</ele>
        <time>2012-02-11T15:57:16Z</time>
      </trkpt>
      <trkpt lat="45.81178" lon="3.06908">
        <ele>539.488</ele>
        <time>2012-02-11T15:57:20Z</time>
      </trkpt>
      <trkpt lat="45.81168" lon="3.06903">
        <ele>540.06</ele>
        <time>2012-02-11T15:57:26Z</time>
      </trkpt>
      <trkpt lat="45.81166" lon="3.06887">
        <ele>540.476</ele>
        <time>2012-02-11T15:57:32Z</time>
      </trkpt>
      <trkpt lat="45.81155" lon="3.06875">
        <ele>541.547</ele>
        <time>2012-02-11T15:57:38Z</time>
      </trkpt>
      <trkpt lat="45.81153" lon="3.06875">
        <ele>541.714</ele>
        <time>2012-02-11T15:57:39Z</time>
      </trkpt>
      <trkpt lat="45.81131" lon="3.06867">
        <ele>542.23</ele>
        <time>2012-02-11T15:57:48Z</time>
      </trkpt>
      <trkpt lat="45.81101" lon="3.06848">
        <ele>542.97</ele>
        <time>2012-02-11T15:58:00Z</time>
      </trkpt>
      <trkpt lat="45.81079" lon="3.06835">
        <ele>544.061</ele>
        <time>2012-02-11T15:58:09Z</time>
      </trkpt>
      <trkpt lat="45.81055" lon="3.06823">
        <ele>546.02</ele>
        <time>2012-02-11T15:58:19Z</time>
      </trkpt>
      <trkpt lat="45.81044" lon="3.06811">
        <ele>547.021</ele>
        <time>2012-02-11T15:58:26Z</time>
      </trkpt>
      <trkpt lat="45.81049" lon="3.06786">
        <ele>546.9</ele>
        <time>2012-02-11T15:58:32Z</time>
      </trkpt>
      <trkpt lat="45.81052" lon="3.06768">
        <ele>545.448</ele>
        <time>2012-02-11T15:58:35Z</time>
      </trkpt>
      <trkpt lat="45.81046" lon="3.06752">
        <ele>542.651</ele>
        <time>2012-02-11T15:58:39Z</time>
      </trkpt>
      <trkpt lat="45.81042" lon="3.06751">
        <ele>542.046</ele>
        <time>2012-02-11T15:58:40Z</time>
      </trkpt>
      <trkpt lat="45.81019" lon="3.06735">
        <ele>541.246</ele>
        <time>2012-02-11T15:58:48Z</time>
      </trkpt>
      <trkpt lat="45.80999" lon="3.06722">
        <ele>541.216</ele>
        <time>2012-02-11T15:58:54Z</time>
      </trkpt>
      <trkpt lat="45.80989" lon="3.06709">
        <ele>541.056</ele>
        <time>2012-02-11T15:58:58Z</time>
      </trkpt>
      <trkpt lat="45.80966" lon="3.06687">
        <ele>540.387</ele>
        <time>2012-02-11T15:59:05Z</time>
      </trkpt>
      <trkpt lat="45.80936" lon="3.06657">
        <ele>540.534</ele>
        <time>2012-02-11T15:59:14Z</time>
      </trkpt>
      <trkpt lat="45.80903" lon="3.06625">
        <ele>539.527</ele>
        <time>2012-02-11T15:59:23Z</time>
      </trkpt>
      <trkpt lat="45.80896" lon="3.06619">
        <ele>539.044</ele>
        <time>2012-02-11T15:59:25Z</time>
      </trkpt>
      <trkpt lat="45.80864" lon="3.06606">
        <ele>536.591</ele>
        <time>2012-02-11T15:59:31Z</time>
      </trkpt>
      <trkpt lat="45.80825" lon="3.06592">
        <ele>534.067</ele>
        <time>2012-02-11T15:59:38Z</time>
      </trkpt>
      <trkpt lat="45.80804" lon="3.0659">
        <ele>532.383</ele>
        <time>2012-02-11T15:59:42Z</time>
      </trkpt>
      <trkpt lat="45.80786" lon="3.06585">
        <ele>530.829</ele>
        <time>2012-02-11T15:59:46Z</time>
      </trkpt>
      <trkpt lat="45.80764" lon="3.06588">
        <ele>528.364</ele>
        <time>2012-02-11T15:59:51Z</time>
      </trkpt>
      <trkpt lat="45.8076" lon="3.06578">
        <ele>526.873</ele>
        <time>2012-02-11T15:59:54Z</time>
      </trkpt>
      <trkpt lat="45.8075" lon="3.06558">
        <ele>525.98</ele>
        <time>2012-02-11T15:59:59Z</time>
      </trkpt>
      <trkpt lat="45.80748" lon="3.06556">
        <ele>525.856</ele>
        <time>2012-02-11T16:00:00Z</time>
      </trkpt>
      <trkpt lat="45.80727" lon="3.06529">
        <ele>526.822</ele>
        <time>2012-02-11T16:00:09Z</time>
      </trkpt>
      <trkpt lat="45.80723" lon="3.06505">
        <ele>527.466</ele>
        <time>2012-02-11T16:00:16Z</time>
      </trkpt>
      <trkpt lat="45.80714" lon="3.06477">
        <ele>528.802</ele>
        <time>2012-02-11T16:00:23Z</time>
      </trkpt>
      <trkpt lat="45.80703" lon="3.0645">
        <ele>529.911</ele>
        <time>2012-02-11T16:00:31Z</time>
      </trkpt>
      <trkpt lat="45.8069" lon="3.06411">
        <ele>530.73</ele>
        <time>2012-02-11T16:00:41Z</time>
      </trkpt>
      <trkpt lat="45.80678" lon="3.06382">
        <ele>531.875</ele>
        <time>2012-02-11T16:00:49Z</time>
      </trkpt>
      <trkpt lat="45.8066" lon="3.06346">
        <ele>532.486</ele>
        <time>2012-02-11T16:00:59Z</time>
      </trkpt>
      <trkpt lat="45.80644" lon="3.06321">
        <ele>532.972</ele>
        <time>2012-02-11T16:01:07Z</time>
      </trkpt>
      <trkpt lat="45.8063" lon="3.06301">
        <ele>533.89</ele>
        <time>2012-02-11T16:01:14Z</time>
      </trkpt>
      <trkpt lat="45.80609" lon="3.06277">
        <ele>534.128</ele>
        <time>2012-02-11T16:01:23Z</time>
      </trkpt>
      <trkpt lat="45.80583" lon="3.06256">
        <ele>534.347</ele>
        <time>2012-02-11T16:01:33Z</time>
      </trkpt>
      <trkpt lat="45.80567" lon="3.06243">
        <ele>534.619</ele>
        <time>2012-02-11T16:01:39Z</time>
      </trkpt>
      <trkpt lat="45.80555" lon="3.06216">
        <ele>535.038</ele>
        <time>2012-02-11T16:01:46Z</time>
      </trkpt>
      <trkpt lat="45.80542" lon="3.06201">
        <ele>535.387</ele>
        <time>2012-02-11T16:01:51Z</time>
      </trkpt>
      <trkpt lat="45.80522" lon="3.06196">
        <ele>535.693</ele>
        <time>2012-02-11T16:01:58Z</time>
      </trkpt>
      <trkpt lat="45.8051" lon="3.06191">
        <ele>536.916</ele>
        <time>2012-02-11T16:02:05Z</time>
      </trkpt>
      <trkpt lat="45.80498" lon="3.06184">
        <ele>539.23</ele>
        <time>2012-02-11T16:02:14Z</time>
      </trkpt>
      <trkpt lat="45.80487" lon="3.06175">
        <ele>541.397</ele>
        <time>2012-02-11T16:02:23Z</time>
      </trkpt>
      <trkpt lat="45.80473" lon="3.06171">
        <ele>543.531</ele>
        <time>2012-02-11T16:02:32Z</time>
      </trkpt>
      <trkpt lat="45.80455" lon="3.06173">
        <ele>545.848</ele>
        <time>2012-02-11T16:02:42Z</time>
      </trkpt>
      <trkpt lat="45.80434" lon="3.06179">
        <ele>547.912</ele>
        <time>2012-02-11T16:02:53Z</time>
      </trkpt>
      <trkpt lat="45.80417" lon="3.06183">
        <ele>549.522</ele>
        <time>2012-02-11T16:03:01Z</time>
      </trkpt>
      <trkpt lat="45.80401" lon="3.06182">
        <ele>550.875</ele>
        <time>2012-02-11T16:03:08Z</time>
      </trkpt>
      <trkpt lat="45.80382" lon="3.06173">
        <ele>551.412</ele>
        <time>2012-02-11T16:03:15Z</time>
      </trkpt>
      <trkpt lat="45.80364" lon="3.06167">
        <ele>551.588</ele>
        <time>2012-02-11T16:03:21Z</time>
      </trkpt>
      <trkpt lat="45.80336" lon="3.06154">
        <ele>552.035</ele>
        <time>2012-02-11T16:03:30Z</time>
      </trkpt>
      <trkpt lat="45.80314" lon="3.06146">
        <ele>552.711</ele>
        <time>2012-02-11T16:03:37Z</time>
      </trkpt>
      <trkpt lat="45.80288" lon="3.06139">
        <ele>553.252</ele>
        <time>2012-02-11T16:03:45Z</time>
      </trkpt>
      <trkpt lat="45.80268" lon="3.06135">
        <ele>553.882</ele>
        <time>2012-02-11T16:03:52Z</time>
      </trkpt>
      <trkpt lat="45.8024" lon="3.06125">
        <ele>554.618</ele>
        <time>2012-02-11T16:04:01Z</time>
      </trkpt>
      <trkpt lat="45.80217" lon="3.06119">
        <ele>555.019</ele>
        <time>2012-02-11T16:04:08Z</time>
      </trkpt>
      <trkpt lat="45.80191" lon="3.06114">
        <ele>555.834</ele>
        <time>2012-02-11T16:04:16Z</time>
      </trkpt>
      <trkpt lat="45.80166" lon="3.06112">
        <ele>556.694</ele>
        <time>2012-02-11T16:04:24Z</time>
      </trkpt>
      <trkpt lat="45.80133" lon="3.06115">
        <ele>557.388</ele>
        <time>2012-02-11T16:04:34Z</time>
      </trkpt>
      <trkpt lat="45.80093" lon="3.06127">
        <ele>558.52</ele>
        <time>2012-02-11T16:04:46Z</time>
      </trkpt>
      <trkpt lat="45.80052" lon="3.06136">
        <ele>558.824</ele>
        <time>2012-02-11T16:04:58Z</time>
      </trkpt>
      <trkpt lat="45.80024" lon="3.06129">
        <ele>559.193</ele>
        <time>2012-02-11T16:05:06Z</time>
      </trkpt>
      <trkpt lat="45.8001" lon="3.06114">
        <ele>559.168</ele>
        <time>2012-02-11T16:05:11Z</time>
      </trkpt>
      <trkpt lat="45.79998" lon="3.06088">
        <ele>558.919</ele>
        <time>2012-02-11T16:05:17Z</time>
      </trkpt>
      <trkpt lat="45.79999" lon="3.06061">
        <ele>557.495</ele>
        <time>2012-02-11T16:05:21Z</time>
      </trkpt>
      <trkpt lat="45.80008" lon="3.06013">
        <ele>552.347</ele>
        <time>2012-02-11T16:05:26Z</time>
      </trkpt>
      <trkpt lat="45.80009" lon="3.05972">
        <ele>548.498</ele>
        <time>2012-02-11T16:05:31Z</time>
      </trkpt>
      <trkpt lat="45.8001" lon="3.0594">
        <ele>545.165</ele>
        <time>2012-02-11T16:05:34Z</time>
      </trkpt>
      <trkpt lat="45.80006" lon="3.05903">
        <ele>538.782</ele>
        <time>2012-02-11T16:05:38Z</time>
      </trkpt>
      <trkpt lat="45.80002" lon="3.05872">
        <ele>533.627</ele>
        <time>2012-02-11T16:05:41Z</time>
      </trkpt>
      <trkpt lat="45.7999" lon="3.05849">
        <ele>528.003</ele>
        <time>2012-02-11T16:05:44Z</time>
      </trkpt>
      <trkpt lat="45.79975" lon="3.0585">
        <ele>523.74</ele>
        <time>2012-02-11T16:05:46Z</time>
      </trkpt>
      <trkpt lat="45.79953" lon="3.05862">
        <ele>516.875</ele>
        <time>2012-02-11T16:05:49Z</time>
      </trkpt>
      <trkpt lat="45.7992" lon="3.05861">
        <ele>510.417</ele>
        <time>2012-02-11T16:05:53Z</time>
      </trkpt>
      <trkpt lat="45.79894" lon="3.0586">
        <ele>505.304</ele>
        <time>2012-02-11T16:05:56Z</time>
      </trkpt>
      <trkpt lat="45.79875" lon="3.05853">
        <ele>502.18</ele>
        <time>2012-02-11T16:05:59Z</time>
      </trkpt>
      <trkpt lat="45.79865" lon="3.05841">
        <ele>500.832</ele>
        <time>2012-02-11T16:06:02Z</time>
      </trkpt>
      <trkpt lat="45.79861" lon="3.05829">
        <ele>500.47</ele>
        <time>2012-02-11T16:06:04Z</time>
      </trkpt>
      <trkpt lat="45.79851" lon="3.05811">
        <ele>499.465</ele>
        <time>2012-02-11T16:06:09Z</time>
      </trkpt>
      <trkpt lat="45.79851" lon="3.05811">
        <ele>499.324</ele>
        <time>2012-02-11T16:06:10Z</time>
      </trkpt>
      <trkpt lat="45.79837" lon="3.05817">
        <ele>498.748</ele>
        <time>2012-02-11T16:06:18Z</time>
      </trkpt>
      <trkpt lat="45.79815" lon="3.0584">
        <ele>498.819</ele>
        <time>2012-02-11T16:06:25Z</time>
      </trkpt>
      <trkpt lat="45.79775" lon="3.05876">
        <ele>498.818</ele>
        <time>2012-02-11T16:06:37Z</time>
      </trkpt>
      <trkpt lat="45.79736" lon="3.05912">
        <ele>499.354</ele>
        <time>2012-02-11T16:06:49Z</time>
      </trkpt>
      <trkpt lat="45.7972" lon="3.05926">
        <ele>499.332</ele>
        <time>2012-02-11T16:06:54Z</time>
      </trkpt>
      <trkpt lat="45.79706" lon="3.05949">
        <ele>499.268</ele>
        <time>2012-02-11T16:06:59Z</time>
      </trkpt>
      <trkpt lat="45.79696" lon="3.05981">
        <ele>500.332</ele>
        <time>2012-02-11T16:07:06Z</time>
      </trkpt>
      <trkpt lat="45.7969" lon="3.06008">
        <ele>502.096</ele>
        <time>2012-02-11T16:07:14Z</time>
      </trkpt>
      <trkpt lat="45.79688" lon="3.06027">
        <ele>503.923</ele>
        <time>2012-02-11T16:07:22Z</time>
      </trkpt>
      <trkpt lat="45.79688" lon="3.06028">
        <ele>504.173</ele>
        <time>2012-02-11T16:07:23Z</time>
      </trkpt>
      <trkpt lat="45.79691" lon="3.06028">
        <ele>504.888</ele>
        <time>2012-02-11T16:07:51Z</time>
      </trkpt>
      <trkpt lat="45.79689" lon="3.06028">
        <ele>504.457</ele>
        <time>2012-02-11T16:09:10Z</time>
      </trkpt>
      <trkpt lat="45.79689" lon="3.06028">
        <ele>504.399</ele>
        <time>2012-02-11T16:09:12Z</time>
      </trkpt>
      <trkpt lat="45.79689" lon="3.06023">
        <ele>504.2</ele>
        <time>2012-02-11T16:09:59Z</time>
      </trkpt>
      <trkpt lat="45.7969" lon="3.06009">
        <ele>503.64</ele>
        <time>2012-02-11T16:10:04Z</time>
      </trkpt>
      <trkpt lat="45.79691" lon="3.06005">
        <ele>503.296</ele>
        <time>2012-02-11T16:10:05Z</time>
      </trkpt>
      <trkpt lat="45.797" lon="3.05984">
        <ele>501.726</ele>
        <time>2012-02-11T16:10:10Z</time>
      </trkpt>
      <trkpt lat="45.797" lon="3.05983">
        <ele>501.11</ele>
        <time>2012-02-11T16:10:12Z</time>
      </trkpt>
    </trkseg>
  </trk>
</gpx>